Provisional Data: Little Mehoopany Creek near North Mehoopany, PA


Please select a monitoring station.
Please select start date.
Please select start date.

Toggle Unit: C/F Toggle Unit: C/F
Sample Time Temperature (C) Temperature (F) Specific Conductivity (mS/cm) pH   Turbidity (NTU+) DO (mg/L)
5/17/2022 12:00:00 AM 15.3 59.54 0.105 6.85 4.37 8.43
5/17/2022 12:15:00 AM 15.33 59.594 0.105 6.99 4.09 8.62
5/17/2022 12:30:00 AM 15.11 59.198 0.105 6.81 4.15 8.28
5/17/2022 12:45:00 AM 15.28 59.504 0.105 6.98 4.53 8.46
5/17/2022 1:00:00 AM 15.25 59.45 0.105 7.01 4.08 8.47
5/17/2022 1:15:00 AM 15.01 59.018 0.105 6.92 3.91 8.44
5/17/2022 1:30:00 AM 14.91 58.838 0.105 6.84 4.23 8.68
5/17/2022 1:45:00 AM 14.81 58.658 0.105 6.85 4.59 8.48
5/17/2022 2:00:00 AM 14.82 58.676 0.105 6.91 4.07 8.53
5/17/2022 2:15:00 AM 14.78 58.604 0.105 6.87 3.9 8.99
5/17/2022 2:30:00 AM 14.59 58.262 0.106 6.83 4.04 8.4
5/17/2022 2:45:00 AM 14.4 57.92 0.105 6.84 4.06 8.31
5/17/2022 3:00:00 AM 14.47 58.046 0.105 6.86 4.56 8.47
5/17/2022 3:15:00 AM 14.52 58.136 0.105 6.91 4.23 8.67
5/17/2022 3:30:00 AM 14.4 57.92 0.105 6.85 4.08 8.82
5/17/2022 3:45:00 AM 14.3 57.74 0.105 6.82 3.79 8.49
5/17/2022 4:00:00 AM 14.27 57.686 0.105 6.88 3.86 8.46
5/17/2022 4:15:00 AM 14.23 57.614 0.105 6.89 3.97 8.67
5/17/2022 4:30:00 AM 14.21 57.578 0.105 6.87 3.95 8.83
5/17/2022 4:45:00 AM 14.09 57.362 0.105 6.83 3.96 8.82
5/17/2022 5:00:00 AM 14.1 57.38 0.105 6.9 3.88 8.64
5/17/2022 5:15:00 AM 14.03 57.254 0.105 6.85 3.8 7.99
5/17/2022 5:30:00 AM 14.01 57.218 0.104 6.84 4.02 8.6
5/17/2022 5:45:00 AM 13.84 56.912 0.105 6.69 3.72 8.82
5/17/2022 6:00:00 AM 13.86 56.948 0.104 6.79 4.03 8.57
5/17/2022 6:15:00 AM 13.97 57.146 0.105 6.84 3.92 8.65
5/17/2022 6:30:00 AM 13.83 56.894 0.104 6.81 3.92 8.55
5/17/2022 6:45:00 AM 13.75 56.75 0.105 6.88 3.65 8.73
5/17/2022 7:00:00 AM 13.8 56.84 0.104 6.86 3.86 8.87
5/17/2022 7:15:00 AM 13.82 56.876 0.104 6.86 4.18 9.16
5/17/2022 7:30:00 AM 13.84 56.912 0.104 6.91 3.99 9.12
5/17/2022 7:45:00 AM 13.84 56.912 0.104 6.88 4.17 9.46
5/17/2022 8:00:00 AM 13.83 56.894 0.104 6.97 4.7 9.5
5/17/2022 8:15:00 AM 13.74 56.732 0.103 6.83 3.95 9.53
5/17/2022 8:30:00 AM 13.85 56.93 0.103 6.92 3.8 9.41
5/17/2022 8:45:00 AM 14.07 57.326 0.103 7.02 3.87 9.39
5/17/2022 9:00:00 AM 14.07 57.326 0.103 7 3.76 9.47
5/17/2022 9:15:00 AM 13.96 57.128 0.108 6.87 1.68 8.58
5/17/2022 9:30:00 AM 14.07 57.326 0.102 6.91 3.81 9.3
5/17/2022 9:45:00 AM 14.49 58.082 0.102 7.16 4.02 9.94
5/17/2022 10:00:00 AM 14.32 57.776 0.102 6.94 4.01 9.72
5/17/2022 10:15:00 AM 14.42 57.956 0.102 7.01 4.16 9.34
5/17/2022 10:30:00 AM 14.76 58.568 0.102 7.15 3.56 10.1
5/17/2022 10:45:00 AM 14.92 58.856 0.101 7.15 3.63 10.11
5/17/2022 11:00:00 AM 15.01 59.018 0.101 6.98 3.66 10.04
5/17/2022 11:15:00 AM 15.13 59.234 0.101 7.16 3.75 9.89
5/17/2022 11:30:00 AM 15.34 59.612 0.101 7.28 3.85 9.65
5/17/2022 11:45:00 AM 15.14 59.252 0.101 7.02 3.84 9.49
5/17/2022 12:00:00 PM 15.4 59.72 0.101 7.07 3.69 9.54
5/17/2022 12:15:00 PM 15.32 59.576 0.101 7 4.27 9.59
5/17/2022 12:30:00 PM 15.32 59.576 0.101 7.02 3.8 9.29
5/17/2022 12:45:00 PM 15.38 59.684 0.101 7.06 4.68 9.56
5/17/2022 1:00:00 PM 15.55 59.99 0.101 7 9.47 9.9
5/17/2022 1:15:00 PM 15.47 59.846 0.101 6.98 3.91 9.3
5/17/2022 1:30:00 PM 15.74 60.332 0.101 7 3.87 9.78
5/17/2022 1:45:00 PM 15.87 60.566 0.101 7.02 4.07 9.58
5/17/2022 2:00:00 PM 15.92 60.656 0.102 7.03 3.94 9.68
5/17/2022 2:15:00 PM 16.06 60.908 0.102 6.97 6.21 9.52
5/17/2022 2:30:00 PM 16.41 61.538 0.102 6.94 3.8 9.64
5/17/2022 2:45:00 PM 16.64 61.952 0.102 7.2 3.86 9.73
5/17/2022 3:00:00 PM 16.37 61.466 0.102 6.96 3.89 9.14
5/17/2022 3:15:00 PM 16.93 62.474 0.102 7.35 3.97 9.69
5/17/2022 3:30:00 PM 16.84 62.312 0.101 7.03 4.15 9.45
5/17/2022 3:45:00 PM 16.77 62.186 0.102 7 3.75 9.26
5/17/2022 4:00:00 PM 17.02 62.636 0.101 7.07 3.86 9.49
5/17/2022 4:15:00 PM 17.04 62.672 0.101 7.09 3.87 9.07
5/17/2022 4:30:00 PM 16.78 62.204 0.102 6.82 3.76 9.03
5/17/2022 4:45:00 PM 17.28 63.104 0.102 7.12 4.24 9.42
5/17/2022 5:00:00 PM 16.88 62.384 0.102 6.84 3.97 9.11
5/17/2022 5:15:00 PM 16.93 62.474 0.102 6.86 4.18 9.13
5/17/2022 5:30:00 PM 17.05 62.69 0.102 6.97 4.11 9.24
5/17/2022 5:45:00 PM 17.01 62.618 0.102 6.97 3.87 9.22
5/17/2022 6:00:00 PM 16.95 62.51 0.103 6.95 3.75 9.25
5/17/2022 6:15:00 PM 16.77 62.186 0.103 7.03 4.01 9.05
5/17/2022 6:30:00 PM 16.69 62.042 0.103 7.08 4.28 8.99
5/17/2022 6:45:00 PM 16.46 61.628 0.104 6.98 4.07 8.86
5/17/2022 7:00:00 PM 16.58 61.844 0.104 7.06 3.98 8.81
5/17/2022 7:15:00 PM 16.39 61.502 0.105 7.1 3.84 8.82
5/17/2022 7:30:00 PM 16.04 60.872 0.105 6.93 4.19 8.77
5/17/2022 7:45:00 PM 15.88 60.584 0.105 6.94 3.97 8.65
5/17/2022 8:00:00 PM 15.75 60.35 0.106 7.01 3.96 8.38
5/17/2022 8:15:00 PM 15.68 60.224 0.107 7.01 4.16 8.61
5/17/2022 8:30:00 PM 15.37 59.666 0.107 6.88 4.12 8.26
5/17/2022 8:45:00 PM 15.26 59.468 0.107 6.87 4.33 8.55
5/17/2022 9:00:00 PM 14.87 58.766 0.107 6.81 4.54 7.95
5/17/2022 9:15:00 PM 14.95 58.91 0.107 6.81 4.15 8.2
5/17/2022 9:30:00 PM 14.82 58.676 0.107 6.79 4.34 8.41
5/17/2022 9:45:00 PM 15.01 59.018 0.107 6.86 4.22 8.86
5/17/2022 10:00:00 PM 14.67 58.406 0.106 6.75 4.02 8.78
5/17/2022 10:15:00 PM 14.78 58.604 0.107 6.9 4.26 8.91
5/17/2022 10:30:00 PM 14.55 58.19 0.108 6.81 4.17 8.7
5/17/2022 10:45:00 PM 14.17 57.506 0.107 6.7 3.9 7.99
5/17/2022 11:00:00 PM 14.08 57.344 0.108 6.69 3.84 7.9
5/17/2022 11:15:00 PM 14.1 57.38 0.107 6.74 3.96 8.29
5/17/2022 11:30:00 PM 14.16 57.488 0.107 6.79 4.45 8.33
5/17/2022 11:45:00 PM 14.22 57.596 0.107 6.85 4.34 9.15
5/18/2022 12:00:00 AM 13.82 56.876 0.107 6.68 5.99 8.07
5/18/2022 12:15:00 AM 14.01 57.218 0.107 6.86 4.09 8.75
5/18/2022 12:30:00 AM 13.91 57.038 0.107 6.85 4.03 8.74
5/18/2022 12:45:00 AM 13.73 56.714 0.108 6.73 3.98 8.95
5/18/2022 1:00:00 AM 13.57 56.426 0.108 6.8 3.67 8.51
5/18/2022 1:15:00 AM 13.7 56.66 0.108 6.81 4.12 9.03
5/18/2022 1:30:00 AM 13.56 56.408 0.107 6.79 3.9 8.83
5/18/2022 1:45:00 AM 13.6 56.48 0.108 6.83 3.86 9.09
5/18/2022 2:00:00 AM 13.65 56.57 0.108 6.92 4.07 9.38
5/18/2022 2:15:00 AM 13.47 56.246 0.108 6.83 3.92 9.28
5/18/2022 2:30:00 AM 13.37 56.066 0.107 6.83 3.89 9.38
5/18/2022 2:45:00 AM 13.19 55.742 0.107 6.78 7.6 8.87
5/18/2022 3:00:00 AM 13.12 55.616 0.108 6.73 3.88 8.93
5/18/2022 3:15:00 AM 13 55.4 0.107 6.72 4.01 8.92
5/18/2022 3:30:00 AM 13 55.4 0.108 6.75 4.19 9
5/18/2022 3:45:00 AM 12.93 55.274 0.108 6.78 3.92 8.76
5/18/2022 4:00:00 AM 12.94 55.292 0.108 6.8 3.9 9.42
5/18/2022 4:15:00 AM 12.74 54.932 0.108 6.71 3.84 8.87
5/18/2022 4:30:00 AM 12.66 54.788 0.107 6.66 4.04 9.07
5/18/2022 4:45:00 AM 12.79 55.022 0.108 6.89 3.77 9.41
5/18/2022 5:00:00 AM 12.68 54.824 0.108 6.83 3.96 9.29
5/18/2022 5:15:00 AM 12.49 54.482 0.108 6.78 3.91 8.64
5/18/2022 5:30:00 AM 12.62 54.716 0.108 6.84 3.83 9.48
5/18/2022 5:45:00 AM 12.56 54.608 0.109 6.83 4.27 9.53
5/18/2022 6:00:00 AM 12.4 54.32 0.108 6.79 3.76 9.26
5/18/2022 6:15:00 AM 12.43 54.374 0.108 6.83 4.28 9.53
5/18/2022 6:30:00 AM 12.36 54.248 0.108 6.84 4.57 9.56
5/18/2022 6:45:00 AM 12.44 54.392 0.108 6.94 4.09 9.78
5/18/2022 7:00:00 AM 12.24 54.032 0.107 6.8 4.4 9.58
5/18/2022 7:15:00 AM 12.3 54.14 0.108 6.91 4.02 9.69
5/18/2022 7:30:00 AM 12.35 54.23 0.108 6.91 4.18 9.66
5/18/2022 7:45:00 AM 12.33 54.194 0.114 6.83 1.71 9.84
5/18/2022 8:00:00 AM 12.36 54.248 0.108 6.92 5.07 9.65
5/18/2022 8:15:00 AM 12.32 54.176 0.107 6.77 3.79 9.84
5/18/2022 8:30:00 AM 12.32 54.176 0.107 6.9 3.84 9.6
5/18/2022 8:45:00 AM 12.66 54.788 0.108 7.08 3.78 10.22
5/18/2022 9:00:00 AM 12.61 54.698 0.107 6.98 3.78 10.14
5/18/2022 9:15:00 AM 12.78 55.004 0.107 7.08 3.8 10.28
5/18/2022 9:30:00 AM 12.68 54.824 0.107 6.92 3.79 10.04
5/18/2022 9:45:00 AM 12.94 55.292 0.107 7.04 4.23 10.29
5/18/2022 10:00:00 AM 12.82 55.076 0.106 6.93 10.37 9.59
5/18/2022 10:15:00 AM 12.94 55.292 0.106 7.01 4.13 10.1
5/18/2022 10:30:00 AM 13.34 56.012 0.106 7.17 3.8 10.31
5/18/2022 10:45:00 AM 13.3 55.94 0.106 7 3.82 9.84
5/18/2022 11:00:00 AM 13.68 56.624 0.106 7.1 3.91 10.43
5/18/2022 11:15:00 AM 13.66 56.588 0.105 7.08 3.86 10
5/18/2022 11:30:00 AM 13.93 57.074 0.106 7.19 3.72 10.37
5/18/2022 11:45:00 AM 14.32 57.776 0.105 7.33 4.01 10.33
5/18/2022 12:00:00 PM 14.55 58.19 0.105 7.34 3.76 10.4
5/18/2022 12:15:00 PM 14.86 58.748 0.105 7.47 3.66 10.44
5/18/2022 12:30:00 PM 14.53 58.154 0.105 6.92 3.96 10.01
5/18/2022 12:45:00 PM 15.19 59.342 0.105 7.43 3.78 10.29
5/18/2022 1:00:00 PM 15.34 59.612 0.104 7.42 4.15 10.3
5/18/2022 1:15:00 PM 15.35 59.63 0.104 7.32 3.92 10.09
5/18/2022 1:30:00 PM 15.38 59.684 0.105 7.24 3.89 10.1
5/18/2022 1:45:00 PM 15.41 59.738 0.105 7.29 3.98 10.13
5/18/2022 2:00:00 PM 15.55 59.99 0.104 7.45 3.8 10.06
5/18/2022 2:15:00 PM 15.67 60.206 0.105 7.61 4.04 10.16
5/18/2022 2:30:00 PM 15.7 60.26 0.105 7.61 3.87 10.14
5/18/2022 2:45:00 PM 15.72 60.296 0.105 7.58 4.9 10.11
5/18/2022 3:00:00 PM 15.64 60.152 0.105 7.61 3.89 9.92
5/18/2022 3:15:00 PM 15.77 60.386 0.105 7.56 5.04 10.03
5/18/2022 3:30:00 PM 15.79 60.422 0.105 7.53 4.31 10.03
5/18/2022 3:45:00 PM 15.62 60.116 0.105 7.41 3.89 9.9
5/18/2022 4:00:00 PM 15.46 59.828 0.104 7.24 3.74 9.91
5/18/2022 4:15:00 PM 15.59 60.062 0.105 7.19 4.02 9.86
5/18/2022 4:30:00 PM 15.5 59.9 0.106 7.23 3.85 9.81
5/18/2022 4:45:00 PM 15.68 60.224 0.105 7.34 3.79 9.85
5/18/2022 5:00:00 PM 15.53 59.954 0.106 7.14 3.88 9.64
5/18/2022 5:15:00 PM 15.58 60.044 0.107 7.21 4 9.52
5/18/2022 5:30:00 PM 15.38 59.684 0.107 7.11 4.04 9.32
5/18/2022 5:45:00 PM 15.19 59.342 0.107 6.99 3.68 9.24
5/18/2022 6:00:00 PM 15.24 59.432 0.107 7.02 3.99 9.15
5/18/2022 6:15:00 PM 15.2 59.36 0.107 7.06 3.89 8.85
5/18/2022 6:30:00 PM 15.09 59.162 0.108 7.04 4.18 9.14
5/18/2022 6:45:00 PM 14.97 58.946 0.108 6.94 4.11 9.22
5/18/2022 7:00:00 PM 14.96 58.928 0.109 7.03 4.03 9.39
5/18/2022 7:15:00 PM 14.78 58.604 0.109 6.99 4.05 9.28
5/18/2022 7:30:00 PM 14.69 58.442 0.109 6.97 4 9.16
5/18/2022 7:45:00 PM 14.64 58.352 0.109 6.94 3.69 8.95
5/18/2022 8:00:00 PM 14.71 58.478 0.109 6.96 3.97 9.15
5/18/2022 8:15:00 PM 14.76 58.568 0.11 7.02 4.09 9.22
5/18/2022 8:30:00 PM 14.53 58.154 0.11 6.89 3.83 8.89
5/18/2022 8:45:00 PM 14.54 58.172 0.11 6.93 3.72 8.98
5/18/2022 9:00:00 PM 14.32 57.776 0.109 6.82 3.63 8.87
5/18/2022 9:15:00 PM 14.18 57.524 0.109 6.71 4.04 8.66
5/18/2022 9:30:00 PM 14.45 58.01 0.11 6.93 4.03 9.1
5/18/2022 9:45:00 PM 14.22 57.596 0.109 6.86 4.05 8.83
5/18/2022 10:00:00 PM 14.13 57.434 0.11 6.83 3.95 8.82
5/18/2022 10:15:00 PM 14.29 57.722 0.11 6.95 4.1 9.09
5/18/2022 10:30:00 PM 14.17 57.506 0.11 6.91 4.05 9.04
5/18/2022 10:45:00 PM 14.07 57.326 0.11 6.9 4.08 8.81
5/18/2022 11:00:00 PM 14.15 57.47 0.11 6.94 3.98 9.17
5/18/2022 11:15:00 PM 13.93 57.074 0.11 6.85 3.86 8.86
5/18/2022 11:30:00 PM 14.02 57.236 0.11 6.9 3.88 9.09
5/18/2022 11:45:00 PM 13.71 56.678 0.109 6.77 3.83 8.5
5/19/2022 12:00:00 AM 13.85 56.93 0.109 6.81 4.14 8.94
5/19/2022 12:15:00 AM 13.87 56.966 0.109 6.84 3.87 9.13
5/19/2022 12:30:00 AM 13.65 56.57 0.109 6.87 3.76 8.34
5/19/2022 12:45:00 AM 13.9 57.02 0.11 6.87 4 9.32
5/19/2022 1:00:00 AM 13.63 56.534 0.109 6.78 4.05 9.01
5/19/2022 1:15:00 AM 13.47 56.246 0.109 6.79 4 8.49
5/19/2022 1:30:00 AM 13.76 56.768 0.109 6.88 4.17 9.1
5/19/2022 1:45:00 AM 13.4 56.12 0.109 6.73 3.88 8.44
5/19/2022 2:00:00 AM 13.74 56.732 0.109 6.92 4.29 9.19
5/19/2022 2:15:00 AM 13.62 56.516 0.109 6.86 4.05 9.18
5/19/2022 2:30:00 AM 13.63 56.534 0.109 6.87 3.79 9.12
5/19/2022 2:45:00 AM 13.36 56.048 0.109 6.74 3.79 8.81
5/19/2022 3:00:00 AM 13.69 56.642 0.11 6.94 3.86 9.29
5/19/2022 3:15:00 AM 13.49 56.282 0.11 6.8 5.12 8.99
5/19/2022 3:30:00 AM 13.56 56.408 0.11 6.87 3.73 8.91
5/19/2022 3:45:00 AM 13.6 56.48 0.11 6.91 3.81 9.28
5/19/2022 4:00:00 AM 13.51 56.318 0.109 6.89 4.06 9.15
5/19/2022 4:15:00 AM 13.36 56.048 0.109 6.85 3.96 8.74
5/19/2022 4:30:00 AM 13.54 56.372 0.11 6.92 3.95 9.22
5/19/2022 4:45:00 AM 13.54 56.372 0.11 6.93 3.94 9.18
5/19/2022 5:00:00 AM 13.49 56.282 0.11 6.95 3.93 9.15
5/19/2022 5:15:00 AM 13.5 56.3 0.109 6.95 3.7 9.25
5/19/2022 5:30:00 AM 13.28 55.904 0.11 6.77 4.06 8.68
5/19/2022 5:45:00 AM 13.54 56.372 0.11 6.96 4.22 9.4
5/19/2022 6:00:00 AM 13.32 55.976 0.109 6.82 4.11 9.02
5/19/2022 6:15:00 AM 13.44 56.192 0.11 6.9 3.93 9.24
5/19/2022 6:30:00 AM 13.32 55.976 0.109 6.87 3.82 8.76
5/19/2022 6:45:00 AM 13.19 55.742 0.11 6.76 3.98 8.84
5/19/2022 7:00:00 AM 13.23 55.814 0.109 6.79 5.11 9.13
5/19/2022 7:15:00 AM 13.32 55.976 0.109 6.88 3.89 9.09
5/19/2022 7:30:00 AM 13.5 56.3 0.11 7 4.06 9.45
5/19/2022 7:45:00 AM 13.36 56.048 0.11 6.89 3.8 9.25
5/19/2022 8:00:00 AM 13.3 55.94 0.114 6.86 1.93 9.41
5/19/2022 8:15:00 AM 13.56 56.408 0.11 7.04 4.16 9.61
5/19/2022 8:30:00 AM 13.4 56.12 0.112 6.93 1.78 8.96
5/19/2022 8:45:00 AM 13.55 56.39 0.11 7.01 4.38 9.63
5/19/2022 9:00:00 AM 13.31 55.958 0.109 6.84 4.16 9.4
5/19/2022 9:15:00 AM 13.39 56.102 0.109 6.89 4.78 9.2
5/19/2022 9:30:00 AM 13.38 56.084 0.109 6.93 3.89 9.29
5/19/2022 9:45:00 AM 13.59 56.462 0.109 7.02 4.03 9.71
5/19/2022 10:00:00 AM 13.53 56.354 0.109 7.02 4.01 9.52
5/19/2022 10:15:00 AM 13.52 56.336 0.107 6.95 4 9.57
5/19/2022 10:30:00 AM 13.55 56.39 0.108 6.99 3.97 9.49
5/19/2022 10:45:00 AM 13.74 56.732 0.108 7.02 4.05 9.77
5/19/2022 11:00:00 AM 13.63 56.534 0.108 7.01 3.71 9.08
5/19/2022 11:15:00 AM 13.72 56.696 0.108 7 3.87 9.84
5/19/2022 11:30:00 AM 13.96 57.128 0.108 7.11 4.05 9.93
5/19/2022 11:45:00 AM 13.92 57.056 0.107 7.11 3.91 9.83
5/19/2022 12:00:00 PM 14.15 57.47 0.108 7.22 4.1 10.06
5/19/2022 12:15:00 PM 14.08 57.344 0.107 7.17 4 9.93
5/19/2022 12:30:00 PM 14 57.2 0.107 7.03 3.96 9.72
5/19/2022 12:45:00 PM 13.99 57.182 0.106 7 4.02 9.6
5/19/2022 1:00:00 PM 13.86 56.948 0.107 6.85 4.38 9.54
5/19/2022 1:15:00 PM 14.11 57.398 0.107 6.99 3.8 9.63
5/19/2022 1:30:00 PM 14.21 57.578 0.108 7.03 4.02 9.71
5/19/2022 1:45:00 PM 14.23 57.614 0.107 7.06 3.94 9.63
5/19/2022 2:00:00 PM 14.22 57.596 0.107 6.95 4.42 9.6
5/19/2022 2:15:00 PM 14.72 58.496 0.107 7.23 3.89 9.97
5/19/2022 2:30:00 PM 14.86 58.748 0.107 7.24 4.23 10.01
5/19/2022 2:45:00 PM 15 59 0.107 7.15 4.16 9.89
5/19/2022 3:00:00 PM 15.39 59.702 0.107 7.24 4.12 9.96
5/19/2022 3:15:00 PM 15.61 60.098 0.106 7.23 4.06 9.98
5/19/2022 3:30:00 PM 15.83 60.494 0.106 7.27 3.79 9.89
5/19/2022 3:45:00 PM 15.8 60.44 0.105 7.14 4.38 9.52
5/19/2022 4:00:00 PM 16.21 61.178 0.106 7.33 4.16 9.74
5/19/2022 4:15:00 PM 16.35 61.43 0.106 7.32 3.76 9.78
5/19/2022 4:30:00 PM 16.18 61.124 0.106 7.16 4.24 9.24
5/19/2022 4:45:00 PM 16.4 61.52 0.106 7.12 3.84 9.48
5/19/2022 5:00:00 PM 16.75 62.15 0.106 7.22 4.11 9.65
5/19/2022 5:15:00 PM 16.9 62.42 0.107 7.4 4.2 9.53
5/19/2022 5:30:00 PM 16.93 62.474 0.107 7.31 4.19 9.47
5/19/2022 5:45:00 PM 16.91 62.438 0.107 7.33 3.91 9.42
5/19/2022 6:00:00 PM 17 62.6 0.107 7.36 4.31 9.43
5/19/2022 6:15:00 PM 16.71 62.078 0.107 7.07 3.99 9.14
5/19/2022 6:30:00 PM 16.78 62.204 0.107 7.26 4.42 9.22
5/19/2022 6:45:00 PM 16.5 61.7 0.108 7.04 4.07 9.06
5/19/2022 7:00:00 PM 16.61 61.898 0.109 7.16 4.18 9.11
5/19/2022 7:15:00 PM 16.46 61.628 0.108 7.11 4.36 8.89
5/19/2022 7:30:00 PM 16.2 61.16 0.108 7.02 4.21 8.91
5/19/2022 7:45:00 PM 16.37 61.466 0.109 7.12 4.09 8.98
5/19/2022 8:00:00 PM 16.19 61.142 0.109 7.05 3.91 8.83
5/19/2022 8:15:00 PM 15.83 60.494 0.109 6.92 4.03 8.56
5/19/2022 8:30:00 PM 15.89 60.602 0.109 6.95 3.84 8.64
5/19/2022 8:45:00 PM 15.77 60.386 0.11 6.95 4.34 8.88
5/19/2022 9:00:00 PM 15.65 60.17 0.109 6.91 4 8.72
5/19/2022 9:15:00 PM 15.59 60.062 0.11 6.99 4.46 8.8
5/19/2022 9:30:00 PM 15.47 59.846 0.11 7.01 4.36 8.93
5/19/2022 9:45:00 PM 15.28 59.504 0.11 6.94 4.68 8.84
5/19/2022 10:00:00 PM 14.98 58.964 0.11 6.83 4.61 8.37
5/19/2022 10:15:00 PM 14.98 58.964 0.11 6.93 4.46 8.68
5/19/2022 10:30:00 PM 14.9 58.82 0.11 6.89 4.13 8.67
5/19/2022 10:45:00 PM 14.86 58.748 0.11 6.92 3.94 8.81
5/19/2022 11:00:00 PM 14.75 58.55 0.111 6.91 4.44 8.9
5/19/2022 11:15:00 PM 14.77 58.586 0.111 6.97 4.05 9.09
5/19/2022 11:30:00 PM 14.62 58.316 0.11 6.91 4.34 8.85
5/19/2022 11:45:00 PM 14.55 58.19 0.11 6.91 4.1 9
5/20/2022 12:00:00 AM 14.31 57.758 0.109 6.87 4.35 8.94
5/20/2022 12:15:00 AM 14.25 57.65 0.11 6.81 4.05 8.84
5/20/2022 12:30:00 AM 14.18 57.524 0.109 6.85 4.38 8.81
5/20/2022 12:45:00 AM 14.29 57.722 0.11 6.94 3.99 9.15
5/20/2022 1:00:00 AM 14.03 57.254 0.11 6.85 4.18 8.74
5/20/2022 1:15:00 AM 14.13 57.434 0.11 6.94 4.4 9.1
5/20/2022 1:30:00 AM 14.18 57.524 0.11 7 4.29 9.26
5/20/2022 1:45:00 AM 14.04 57.272 0.11 6.9 4.22 9.25
5/20/2022 2:00:00 AM 13.97 57.146 0.11 6.88 4.29 9.22
5/20/2022 2:15:00 AM 13.91 57.038 0.11 6.91 4.18 9.16
5/20/2022 2:30:00 AM 13.82 56.876 0.11 6.89 4.46 9.1
5/20/2022 2:45:00 AM 13.79 56.822 0.11 6.95 4.53 9.25
5/20/2022 3:00:00 AM 13.78 56.804 0.11 6.91 4.15 9.16
5/20/2022 3:15:00 AM 13.6 56.48 0.11 6.81 4.35 9.01
5/20/2022 3:30:00 AM 13.65 56.57 0.111 6.93 4.3 9.3
5/20/2022 3:45:00 AM 13.57 56.426 0.111 6.87 3.92 9.12
5/20/2022 4:00:00 AM 13.49 56.282 0.11 6.9 4.31 9.14
5/20/2022 4:15:00 AM 13.46 56.228 0.11 6.89 4.6 9.23
5/20/2022 4:30:00 AM 13.47 56.246 0.111 6.94 4.14 9.3
5/20/2022 4:45:00 AM 13.34 56.012 0.111 6.88 4.29 9.15
5/20/2022 5:00:00 AM 13.35 56.03 0.111 6.85 4.32 9.4
5/20/2022 5:15:00 AM 13.29 55.922 0.111 6.9 4.19 9.34
5/20/2022 5:30:00 AM 13.24 55.832 0.111 6.92 4.33 9.35
5/20/2022 5:45:00 AM 13.03 55.454 0.11 6.81 4.21 8.89
5/20/2022 6:00:00 AM 13.05 55.49 0.11 6.84 4.19 9.33
5/20/2022 6:15:00 AM 13.06 55.508 0.11 6.88 4.65 9.28
5/20/2022 6:30:00 AM 13.1 55.58 0.111 6.91 4.11 9.57
5/20/2022 6:45:00 AM 13.04 55.472 0.111 6.88 4.14 9.45
5/20/2022 7:00:00 AM 12.95 55.31 0.11 6.87 4.44 9.48
5/20/2022 7:15:00 AM 13.08 55.544 0.111 6.94 4.04 9.68
5/20/2022 7:30:00 AM 13.12 55.616 0.11 6.93 5.06 9.77
5/20/2022 7:45:00 AM 13.14 55.652 0.11 6.95 4.02 9.84
5/20/2022 8:00:00 AM 13.14 55.652 0.11 7 4.22 9.83
5/20/2022 8:15:00 AM 13.22 55.796 0.11 7.01 3.8 9.96
5/20/2022 8:30:00 AM 13.14 55.652 0.109 6.96 4.02 9.59
5/20/2022 8:45:00 AM 13.3 55.94 0.11 6.96 3.74 9.96
5/20/2022 9:00:00 AM 13.46 56.228 0.11 7.1 3.87 10.12
5/20/2022 9:15:00 AM 13.57 56.426 0.11 7.11 3.96 10.12
5/20/2022 9:30:00 AM 13.52 56.336 0.108 6.99 4.01 9.89
5/20/2022 9:45:00 AM 13.7 56.66 0.109 7.05 3.94 10.04
5/20/2022 10:00:00 AM 13.74 56.732 0.108 7.17 3.82 10.01
5/20/2022 10:15:00 AM 13.87 56.966 0.109 7.09 3.82 10.15
5/20/2022 10:30:00 AM 13.94 57.092 0.109 7.09 3.91 10.16
5/20/2022 10:45:00 AM 13.8 56.84 0.107 6.96 3.83 9.53
5/20/2022 11:00:00 AM 14.01 57.218 0.109 7.04 3.89 9.89
5/20/2022 11:15:00 AM 13.91 57.038 0.108 6.9 3.99 9.57
5/20/2022 11:30:00 AM 14.22 57.596 0.108 7.2 3.74 10.06
5/20/2022 11:45:00 AM 14.32 57.776 0.108 7.15 3.75 9.88
5/20/2022 12:00:00 PM 14.44 57.992 0.109 7.2 3.94 9.99
5/20/2022 12:15:00 PM 14.38 57.884 0.108 7.03 4.47 9.8
5/20/2022 12:30:00 PM 14.51 58.118 0.109 6.97 3.94 9.98
5/20/2022 12:45:00 PM 14.68 58.424 0.108 6.99 4.15 10.08
5/20/2022 1:00:00 PM 15.11 59.198 0.108 7.25 4.2 10.12
5/20/2022 1:15:00 PM 15.22 59.396 0.108 7.13 4.03 10.06
5/20/2022 1:30:00 PM 15.75 60.35 0.108 7.45 3.84 10.26
5/20/2022 1:45:00 PM 16 60.8 0.108 7.51 4.06 10.17
5/20/2022 2:00:00 PM 15.89 60.602 0.107 7.33 3.97 9.93
5/20/2022 2:15:00 PM 15.94 60.692 0.108 7.32 3.87 9.92
5/20/2022 2:30:00 PM 15.97 60.746 0.108 7.21 4.34 9.73
5/20/2022 2:45:00 PM 16.35 61.43 0.108 7.44 3.86 9.89
5/20/2022 3:00:00 PM 16.09 60.962 0.107 7.12 4 9.71
5/20/2022 3:15:00 PM 16.29 61.322 0.107 7.3 3.98 9.69
5/20/2022 3:30:00 PM 16.29 61.322 0.108 7.22 4.24 9.63
5/20/2022 3:45:00 PM 16.26 61.268 0.108 7.2 4 9.6
5/20/2022 4:00:00 PM 16.56 61.808 0.108 7.34 4 9.8
5/20/2022 4:15:00 PM 16.46 61.628 0.108 7.24 4.16 9.45
5/20/2022 4:30:00 PM 16.28 61.304 0.108 7.13 4.08 9.07
5/20/2022 4:45:00 PM 16.68 62.024 0.109 7.38 4.22 9.59
5/20/2022 5:00:00 PM 16.56 61.808 0.109 7.2 4.36 9.39
5/20/2022 5:15:00 PM 16.37 61.466 0.109 7.07 3.97 9.09
5/20/2022 5:30:00 PM 16.2 61.16 0.109 7.01 4.45 8.92
5/20/2022 5:45:00 PM 16.27 61.286 0.109 6.92 4.78 8.8
5/20/2022 6:00:00 PM 16.36 61.448 0.109 7.04 4.53 8.88
5/20/2022 6:15:00 PM 16.07 60.926 0.11 6.98 4.3 8.7
5/20/2022 6:30:00 PM 16.37 61.466 0.11 7.1 4.14 9.06
5/20/2022 6:45:00 PM 16.07 60.926 0.111 6.91 3.82 8.98
5/20/2022 7:00:00 PM 16.02 60.836 0.11 6.92 4.22 8.78
5/20/2022 7:15:00 PM 16 60.8 0.11 6.92 4.24 8.93
5/20/2022 7:30:00 PM 16.11 60.998 0.111 6.99 4.39 9
5/20/2022 7:45:00 PM 15.92 60.656 0.111 6.95 4.31 8.8
5/20/2022 8:00:00 PM 15.82 60.476 0.11 6.95 4.52 8.73
5/20/2022 8:15:00 PM 15.9 60.62 0.111 6.93 4.41 8.88
5/20/2022 8:30:00 PM 15.88 60.584 0.111 6.99 4.34 8.91
5/20/2022 8:45:00 PM 15.86 60.548 0.111 6.97 5.59 8.86
5/20/2022 9:00:00 PM 15.67 60.206 0.111 6.9 4.24 8.7
5/20/2022 9:15:00 PM 15.63 60.134 0.111 6.87 4.19 8.53
5/20/2022 9:30:00 PM 15.57 60.026 0.111 6.83 4.68 8.55
5/20/2022 9:45:00 PM 15.45 59.81 0.111 6.76 4.4 8.57
5/20/2022 10:00:00 PM 15.44 59.792 0.111 6.83 4.13 8.47
5/20/2022 10:15:00 PM 15.55 59.99 0.112 6.92 4.54 8.84
5/20/2022 10:30:00 PM 15.53 59.954 0.111 6.94 4.31 8.85
5/20/2022 10:45:00 PM 15.46 59.828 0.112 6.92 4.42 8.69
5/20/2022 11:00:00 PM 15.46 59.828 0.111 6.9 4.46 8.92
5/20/2022 11:15:00 PM 15.2 59.36 0.111 6.82 4.43 8.57
5/20/2022 11:30:00 PM 15.38 59.684 0.112 6.92 4.17 8.95
5/20/2022 11:45:00 PM 15.24 59.432 0.111 6.86 4.23 8.86
5/21/2022 12:00:00 AM 15.2 59.36 0.111 6.89 4.34 8.75
5/21/2022 12:15:00 AM 15.29 59.522 0.111 6.94 4.4 8.99
5/21/2022 12:30:00 AM 15.26 59.468 0.11 6.97 4.34 8.98
5/21/2022 12:45:00 AM 15.08 59.144 0.111 6.89 9.43 8.68
5/21/2022 1:00:00 AM 15.18 59.324 0.111 6.95 4.29 9.03
5/21/2022 1:15:00 AM 15.1 59.18 0.111 6.85 4.29 8.79
5/21/2022 1:30:00 AM 15.05 59.09 0.111 6.84 3.84 8.76
5/21/2022 1:45:00 AM 15.2 59.36 0.112 6.98 4.11 9.07
5/21/2022 2:00:00 AM 15.06 59.108 0.112 6.91 4.4 8.92
5/21/2022 2:15:00 AM 15.09 59.162 0.111 6.91 4.13 9.01
5/21/2022 2:30:00 AM 15.05 59.09 0.112 6.9 4 8.97
5/21/2022 2:45:00 AM 15.09 59.162 0.112 6.93 3.92 9.08
5/21/2022 3:00:00 AM 14.99 58.982 0.112 6.86 4.48 8.99
5/21/2022 3:15:00 AM 14.85 58.73 0.111 6.76 3.93 8.73
5/21/2022 3:30:00 AM 15.06 59.108 0.112 6.99 4.08 9.16
5/21/2022 3:45:00 AM 14.93 58.874 0.112 6.9 4.62 8.81
5/21/2022 4:00:00 AM 14.96 58.928 0.112 6.91 4.06 9.08
5/21/2022 4:15:00 AM 14.84 58.712 0.112 6.9 4.17 8.94
5/21/2022 4:30:00 AM 14.79 58.622 0.112 6.84 4.04 8.83
5/21/2022 4:45:00 AM 14.87 58.766 0.112 6.92 4.07 8.98
5/21/2022 5:00:00 AM 14.78 58.604 0.112 6.87 4.25 8.98
5/21/2022 5:15:00 AM 14.93 58.874 0.112 6.98 4.34 9.21
5/21/2022 5:30:00 AM 14.91 58.838 0.112 6.99 4.16 9.21
5/21/2022 5:45:00 AM 14.78 58.604 0.112 6.88 4.5 9.08
5/21/2022 6:00:00 AM 14.83 58.694 0.112 6.87 4.23 9.17
5/21/2022 6:15:00 AM 14.83 58.694 0.112 6.95 4.05 9.12
5/21/2022 6:30:00 AM 14.81 58.658 0.112 6.91 4.18 9.14
5/21/2022 6:45:00 AM 14.87 58.766 0.112 6.97 4.06 9.32
5/21/2022 7:00:00 AM 14.76 58.568 0.112 6.95 4.94 9.22
5/21/2022 7:15:00 AM 14.76 58.568 0.112 6.88 4.34 9.18
5/21/2022 7:30:00 AM 14.76 58.568 0.111 6.85 4.23 9.23
5/21/2022 7:45:00 AM 14.89 58.802 0.112 6.97 3.95 9.49
5/21/2022 8:00:00 AM 14.75 58.55 0.111 6.84 3.88 9.14
5/21/2022 8:15:00 AM 14.99 58.982 0.111 7.04 3.89 9.58
5/21/2022 8:30:00 AM 14.97 58.946 0.111 6.98 4.04 9.54
5/21/2022 8:45:00 AM 14.97 58.946 0.111 6.89 3.73 9.4
5/21/2022 9:00:00 AM 15.17 59.306 0.111 7.05 3.69 9.62
5/21/2022 9:15:00 AM 15.26 59.468 0.111 7.04 3.76 9.59
5/21/2022 9:30:00 AM 15.46 59.828 0.111 7.13 3.66 9.67
5/21/2022 9:45:00 AM 15.57 60.026 0.11 7.13 3.8 9.74
5/21/2022 10:00:00 AM 15.6 60.08 0.11 7.06 4.22 9.55
5/21/2022 10:15:00 AM 15.77 60.386 0.11 7.03 3.92 9.66
5/21/2022 10:30:00 AM 16.09 60.962 0.11 7.19 3.99 9.6
5/21/2022 10:45:00 AM 16.27 61.286 0.109 7.07 4 9.69
5/21/2022 11:00:00 AM 16.6 61.88 0.11 7.23 3.89 9.68
5/21/2022 11:15:00 AM 16.7 62.06 0.109 7.12 4.01 9.4
5/21/2022 11:30:00 AM 16.79 62.222 0.109 7.16 3.8 9.45
5/21/2022 11:45:00 AM 17.24 63.032 0.11 7.24 3.54 9.62
5/21/2022 12:00:00 PM 17.42 63.356 0.109 7.34 4.08 9.52
5/21/2022 12:15:00 PM 17.79 64.022 0.109 7.31 3.98 9.57
5/21/2022 12:30:00 PM 18.09 64.562 0.115 7.24 4.21 9.59
5/21/2022 12:45:00 PM 18.25 64.85 0.108 7.25 3.83 9.4
5/21/2022 1:00:00 PM 18.77 65.786 0.109 7.46 3.87 9.54
5/21/2022 1:15:00 PM 18.89 66.002 0.109 7.36 3.76 9.39
5/21/2022 1:30:00 PM 19.27 66.686 0.114 7.45 4.2 9.3
5/21/2022 1:45:00 PM 19.27 66.686 0.114 7.31 3.74 9.2
5/21/2022 2:00:00 PM 19.5 67.1 0.114 7.38 3.92 9.22
5/21/2022 2:15:00 PM 19.78 67.604 0.112 7.42 4.24 9.22
5/21/2022 2:30:00 PM 19.78 67.604 0.115 7.29 3.81 9.28
5/21/2022 2:45:00 PM 19.95 67.91 0.114 7.26 4.46 9.17
5/21/2022 3:00:00 PM 20.23 68.414 0.114 7.44 4.33 9.12
5/21/2022 3:15:00 PM 20.19 68.342 0.109 7.35 4.19 9.04
5/21/2022 3:30:00 PM 20.25 68.45 0.114 7.29 3.86 9.04
5/21/2022 3:45:00 PM 20.44 68.792 0.115 7.3 4.13 9.01
5/21/2022 4:00:00 PM 20.5 68.9 0.115 7.33 4.63 8.97
5/21/2022 4:15:00 PM 20.68 69.224 0.115 7.39 4.5 8.97
5/21/2022 4:30:00 PM 20.51 68.918 0.116 7.27 4.4 8.83
5/21/2022 4:45:00 PM 20.39 68.702 0.115 7.14 4.19 8.78
5/21/2022 5:00:00 PM 20.66 69.188 0.116 7.27 4.02 8.8
5/21/2022 5:15:00 PM 20.69 69.242 0.115 7.34 4.06 8.83
5/21/2022 5:30:00 PM 20.52 68.936 0.116 7.24 4.4 8.65
5/21/2022 5:45:00 PM 20.57 69.026 0.116 7.24 4.08 8.62
5/21/2022 6:00:00 PM 20.66 69.188 0.116 7.26 3.98 8.68
5/21/2022 6:15:00 PM 20.49 68.882 0.117 7.2 4.17 8.66
5/21/2022 6:30:00 PM 20.4 68.72 0.118 7.19 3.89 8.59
5/21/2022 6:45:00 PM 20.2 68.36 0.117 7.11 3.9 8.4
5/21/2022 7:00:00 PM 20.26 68.468 0.117 7.16 3.83 8.46
5/21/2022 7:15:00 PM 20.22 68.396 0.118 7.2 4.11 8.44
5/21/2022 7:30:00 PM 19.96 67.92799 0.118 7.16 3.98 8.36
5/21/2022 7:45:00 PM 19.72 67.496 0.118 7.02 3.96 8.26
5/21/2022 8:00:00 PM 19.73 67.514 0.119 7.08 3.95 8.31
5/21/2022 8:15:00 PM 19.58 67.244 0.119 7.06 4.22 8.13
5/21/2022 8:30:00 PM 19.4 66.92 0.12 7.02 3.93 8
5/21/2022 8:45:00 PM 19.12 66.416 0.119 6.97 6.56 8.15
5/21/2022 9:00:00 PM 18.83 65.894 0.119 6.83 4.73 7.69
5/21/2022 9:15:00 PM 18.9 66.02 0.12 6.9 4.27 8.01
5/21/2022 9:30:00 PM 18.72 65.696 0.119 6.89 4.19 8.02
5/21/2022 9:45:00 PM 18.8 65.84 0.12 7.02 4.08 8.22
5/21/2022 10:00:00 PM 18.73 65.714 0.121 7.01 4.29 8.29
5/21/2022 10:15:00 PM 18.7 65.66 0.12 7.01 4.32 8.33
5/21/2022 10:30:00 PM 18.36 65.048 0.121 6.92 11.1 8.01
5/21/2022 10:45:00 PM 18.35 65.03 0.121 6.97 4.29 8.29
5/21/2022 11:00:00 PM 18.35 65.03 0.121 6.98 3.75 8.35
5/21/2022 11:15:00 PM 18.1 64.58 0.121 6.91 3.83 8.2
5/21/2022 11:30:00 PM 18.14 64.652 0.12 6.93 4.11 8.42
5/21/2022 11:45:00 PM 18.02 64.436 0.121 6.92 4.1 8.3
5/22/2022 12:00:00 AM 17.96 64.328 0.121 6.96 3.88 8.41
5/22/2022 12:15:00 AM 17.78 64.004 0.12 6.93 4.04 8.41
5/22/2022 12:30:00 AM 17.8 64.04 0.121 6.95 4.23 8.36
5/22/2022 12:45:00 AM 17.56 63.608 0.12 6.85 4.14 7.94
5/22/2022 1:00:00 AM 17.71 63.878 0.121 6.94 4.29 8.52
5/22/2022 1:15:00 AM 17.55 63.59 0.122 6.9 4.33 8.42
5/22/2022 1:30:00 AM 17.62 63.716 0.122 6.95 4.15 8.55
5/22/2022 1:45:00 AM 17.54 63.572 0.121 6.95 3.89 8.49
5/22/2022 2:00:00 AM 17.5 63.5 0.122 6.94 3.91 8.51
5/22/2022 2:15:00 AM 17.5 63.5 0.122 6.94 4.47 8.48
5/22/2022 2:30:00 AM 17.41 63.338 0.122 6.95 3.86 8.44
5/22/2022 2:45:00 AM 17.48 63.464 0.122 6.97 4.09 8.53
5/22/2022 3:00:00 AM 17.42 63.356 0.122 6.97 4.18 8.43
5/22/2022 3:15:00 AM 17.5 63.5 0.122 7.04 3.76 8.65
5/22/2022 3:30:00 AM 17.3 63.14 0.122 7 5.15 8.36
5/22/2022 3:45:00 AM 17.47 63.446 0.123 7.03 4.22 8.68
5/22/2022 4:00:00 AM 17.29 63.122 0.122 6.98 4.09 8.55
5/22/2022 4:15:00 AM 17.21 62.978 0.121 6.97 4.4 8.5
5/22/2022 4:30:00 AM 17.09 62.762 0.122 6.87 3.96 8.49
5/22/2022 4:45:00 AM 17.19 62.942 0.123 7 4.17 8.6
5/22/2022 5:00:00 AM 17.02 62.636 0.123 6.94 4.3 8.37
5/22/2022 5:15:00 AM 17.03 62.654 0.123 6.97 3.89 8.57
5/22/2022 5:30:00 AM 17.03 62.654 0.123 7.01 4.28 8.67
5/22/2022 5:45:00 AM 16.85 62.33 0.123 6.95 4.51 8.5
5/22/2022 6:00:00 AM 16.93 62.474 0.123 7.02 4.2 8.72
5/22/2022 6:15:00 AM 16.75 62.15 0.122 6.98 4.34 8.6
5/22/2022 6:30:00 AM 16.75 62.15 0.122 6.96 4.94 8.68
5/22/2022 6:45:00 AM 16.72 62.096 0.123 6.96 4.46 8.74
5/22/2022 7:00:00 AM 16.4 61.52 0.121 6.87 4.89 8.19
5/22/2022 7:15:00 AM 16.76 62.168 0.122 7.02 4.22 8.81
5/22/2022 7:30:00 AM 16.72 62.096 0.123 7 4.53 8.7
5/22/2022 7:45:00 AM 16.79 62.222 0.121 7.06 4.08 9.06
5/22/2022 8:00:00 AM 16.78 62.204 0.123 7.02 3.99 8.95
5/22/2022 8:15:00 AM 16.85 62.33 0.121 7.05 4.57 9.02
5/22/2022 8:30:00 AM 16.84 62.312 0.123 7.05 4.01 8.9
5/22/2022 8:45:00 AM 16.89 62.402 0.122 7.05 3.94 9.03
5/22/2022 9:00:00 AM 16.91 62.438 0.122 7 3.66 9
5/22/2022 9:15:00 AM 17.16 62.888 0.122 7.08 4.2 9.03
5/22/2022 9:30:00 AM 17.11 62.798 0.122 7.03 4.1 8.94
5/22/2022 9:45:00 AM 17.51 63.518 0.121 7.18 3.81 9.3
5/22/2022 10:00:00 AM 17.54 63.572 0.121 7.17 3.97 9.25
5/22/2022 10:15:00 AM 17.68 63.824 0.121 7.22 3.92 9.43
5/22/2022 10:30:00 AM 17.52 63.536 0.121 7.14 3.62 9.22
5/22/2022 10:45:00 AM 17.52 63.536 0.121 7.1 3.91 9.27
5/22/2022 11:00:00 AM 17.45 63.41 0.119 6.99 4.02 9.08
5/22/2022 11:15:00 AM 17.95 64.31 0.12 7.25 3.85 9.36
5/22/2022 11:30:00 AM 17.78 64.004 0.12 7.11 3.86 9.21
5/22/2022 11:45:00 AM 18.4 65.12 0.12 7.34 4.35 9.45
5/22/2022 12:00:00 PM 18.36 65.048 0.12 7.15 4.97 9.08
5/22/2022 12:15:00 PM 18.65 65.57 0.121 7.3 4.12 9.31
5/22/2022 12:30:00 PM 18.84 65.912 0.119 7.36 3.75 9.22
5/22/2022 12:45:00 PM 19.32 66.776 0.12 7.44 3.9 9.27
5/22/2022 1:00:00 PM 19.51 67.118 0.119 7.36 4.12 9.17
5/22/2022 1:15:00 PM 19.78 67.604 0.12 7.41 4.02 9.13
5/22/2022 1:30:00 PM 20.01 68.018 0.12 7.41 4.12 9.12
5/22/2022 1:45:00 PM 20.19 68.342 0.12 7.41 3.97 9.06
5/22/2022 2:00:00 PM 20.36 68.648 0.121 7.43 3.81 9.05
5/22/2022 2:15:00 PM 20.57 69.026 0.12 7.4 4.02 9.05
5/22/2022 2:30:00 PM 20.58 69.044 0.121 7.43 4.14 8.92
5/22/2022 2:45:00 PM 20.4 68.72 0.12 7.32 3.97 8.82
5/22/2022 3:00:00 PM 20.43 68.774 0.119 7.3 4.9 8.87
5/22/2022 3:15:00 PM 20.35 68.63 0.121 7.22 4.66 8.66
5/22/2022 3:30:00 PM 20.35 68.63 0.121 7.24 4.36 8.59
5/22/2022 3:45:00 PM 20.45 68.81 0.121 7.26 4.8 8.67
5/22/2022 4:00:00 PM 20.44 68.792 0.12 7.29 3.69 8.66
5/22/2022 4:15:00 PM 20.37 68.666 0.121 7.25 3.93 8.76
5/22/2022 4:30:00 PM 20.12 68.216 0.121 7.15 4.19 8.46
5/22/2022 4:45:00 PM 19.9 67.82 0.122 7.12 4.26 8.27
5/22/2022 5:00:00 PM 19.95 67.91 0.12 7.09 5.95 8.31
5/22/2022 5:15:00 PM 20.05 68.09 0.119 7.16 5.14 8.5
5/22/2022 5:30:00 PM 20.03 68.054 0.117 7.19 5.27 8.56
5/22/2022 5:45:00 PM 19.88 67.784 0.12 7.18 4.65 8.49
5/22/2022 6:00:00 PM 19.82 67.676 0.12 7.18 4.62 8.48
5/22/2022 6:15:00 PM 19.61 67.298 0.121 7.05 4.63 8.25
5/22/2022 6:30:00 PM 19.5 67.1 0.121 7.09 4.54 8.34
5/22/2022 6:45:00 PM 19.23 66.614 0.12 7 4.66 8.21
5/22/2022 7:00:00 PM 19.24 66.632 0.121 6.98 5.08 8.35
5/22/2022 7:15:00 PM 19.1 66.38 0.121 6.99 4.53 8.17
5/22/2022 7:30:00 PM 18.92 66.056 0.12 7 4.29 8.15
5/22/2022 7:45:00 PM 18.93 66.074 0.121 7 4.98 8.04
5/22/2022 8:00:00 PM 18.47 65.246 0.121 6.91 4.73 8.15
5/22/2022 8:15:00 PM 18.45 65.21 0.12 6.9 6.97 7.98
5/22/2022 8:30:00 PM 18.5 65.3 0.12 6.93 4.78 8.2
5/22/2022 8:45:00 PM 18.41 65.138 0.119 6.94 4.59 8.3
5/22/2022 9:00:00 PM 18.37 65.066 0.12 6.98 4.61 8.25
5/22/2022 9:15:00 PM 18.17 64.706 0.121 6.97 4.74 8.27
5/22/2022 9:30:00 PM 18.12 64.616 0.12 6.97 4.89 8.42
5/22/2022 9:45:00 PM 18.07 64.526 0.12 7.01 4.62 8.49
5/22/2022 10:00:00 PM 17.96 64.328 0.12 6.93 4.9 8.55
5/22/2022 10:15:00 PM 17.91 64.238 0.12 7.02 4.67 8.57
5/22/2022 10:30:00 PM 17.7 63.86 0.119 6.94 4.65 8.24
5/22/2022 10:45:00 PM 17.63 63.734 0.12 6.97 5.01 8.53
5/22/2022 11:00:00 PM 17.53 63.554 0.114 6.95 4.82 8.59
5/22/2022 11:15:00 PM 17.52 63.536 0.12 7.06 4.71 8.64
5/22/2022 11:30:00 PM 17.29 63.122 0.119 6.98 4.91 8.65
5/22/2022 11:45:00 PM 17.06 62.708 0.113 6.89 4.68 8.6
5/23/2022 12:00:00 AM 17.17 62.906 0.12 7.04 4.5 8.76
5/23/2022 12:15:00 AM 16.94 62.492 0.12 6.92 4.46 8.63
5/23/2022 12:30:00 AM 16.96 62.528 0.121 7 4.62 8.83
5/23/2022 12:45:00 AM 16.86 62.348 0.121 7.02 4.77 8.83
5/23/2022 1:00:00 AM 16.77 62.186 0.115 7.01 4.8 8.91
5/23/2022 1:15:00 AM 16.53 61.754 0.114 6.97 5.02 8.62
5/23/2022 1:30:00 AM 16.51 61.718 0.121 6.9 4.49 8.89
5/23/2022 1:45:00 AM 16.45 61.61 0.12 6.95 4.6 8.82
5/23/2022 2:00:00 AM 16.43 61.574 0.121 7 4.48 8.96
5/23/2022 2:15:00 AM 16.3 61.34 0.115 6.94 5.55 8.9
5/23/2022 2:30:00 AM 16.24 61.232 0.115 6.96 4.62 8.86
5/23/2022 2:45:00 AM 16.15 61.07 0.115 6.97 4.47 8.96
5/23/2022 3:00:00 AM 16.02 60.836 0.115 6.96 4.81 8.9
5/23/2022 3:15:00 AM 15.9 60.62 0.12 6.97 4.65 8.84
5/23/2022 3:30:00 AM 15.94 60.692 0.121 7.02 5.27 9.01
5/23/2022 3:45:00 AM 15.94 60.692 0.115 7.07 4.34 9.12
5/23/2022 4:00:00 AM 15.82 60.476 0.121 7.02 4.2 9.07
5/23/2022 4:15:00 AM 15.65 60.17 0.114 6.95 5.44 9.04
5/23/2022 4:30:00 AM 15.52 59.936 0.115 6.92 4.63 8.95
5/23/2022 4:45:00 AM 15.59 60.062 0.115 7.02 5.08 9.2
5/23/2022 5:00:00 AM 15.55 59.99 0.115 7.03 5.2 9.18
5/23/2022 5:15:00 AM 15.33 59.594 0.115 6.98 5.01 8.94
5/23/2022 5:30:00 AM 15.46 59.828 0.116 7.08 7.27 9.27
5/23/2022 5:45:00 AM 15.3 59.54 0.114 7.01 4.77 9.18
5/23/2022 6:00:00 AM 15.27 59.486 0.115 7.04 4.77 9.28
5/23/2022 6:15:00 AM 15.17 59.306 0.115 7.02 4.72 9.3
5/23/2022 6:30:00 AM 15.13 59.234 0.115 7.03 4.7 9.31
5/23/2022 6:45:00 AM 15.1 59.18 0.115 7.09 4 9.4
5/23/2022 7:00:00 AM 15.08 59.144 0.115 7.11 4.36 9.48
5/23/2022 7:15:00 AM 14.92 58.856 0.114 7.01 4.24 9.35
5/23/2022 7:30:00 AM 14.97 58.946 0.114 7.09 4.32 9.5
5/23/2022 7:45:00 AM 14.9 58.82 0.114 7.05 4.41 9.52
5/23/2022 8:00:00 AM 14.85 58.73 0.114 7.04 4.87 9.49
5/23/2022 8:15:00 AM 14.87 58.766 0.113 7.06 4.98 9.62
5/23/2022 8:30:00 AM 14.87 58.766 0.113 7.09 4.43 9.56
5/23/2022 8:45:00 AM 14.92 58.856 0.114 7.09 3.99 9.66
5/23/2022 9:00:00 AM 14.86 58.748 0.114 7.04 4.36 9.59
5/23/2022 9:15:00 AM 15.02 59.036 0.113 7.17 3.98 9.73
5/23/2022 9:30:00 AM 15.03 59.054 0.113 7.09 3.9 9.67
5/23/2022 9:45:00 AM 15.1 59.18 0.112 7.15 4.29 9.66
5/23/2022 10:00:00 AM 15.11 59.198 0.119 7.08 2.04 9.69
5/23/2022 10:15:00 AM 15.14 59.252 0.112 7.06 4.8 9.59
5/23/2022 10:30:00 AM 15.29 59.522 0.113 7.12 4.55 9.79
5/23/2022 10:45:00 AM 15.39 59.702 0.112 7.04 4.04 9.45
5/23/2022 11:00:00 AM 15.69 60.242 0.114 7.18 4.17 9.82
5/23/2022 11:15:00 AM 15.82 60.476 0.112 7.15 4.13 9.68
5/23/2022 11:30:00 AM 15.96 60.728 0.112 7.18 4.09 9.69
5/23/2022 11:45:00 AM 15.87 60.566 0.111 7.11 4.49 9.41
5/23/2022 12:00:00 PM 16.23 61.214 0.112 7.17 4.14 9.61
5/23/2022 12:15:00 PM 16.51 61.718 0.112 7.28 5.71 9.7
5/23/2022 12:30:00 PM 16.53 61.754 0.118 7.28 3.98 9.69
5/23/2022 12:45:00 PM 16.52 61.736 0.112 7.3 4.26 9.7
5/23/2022 1:00:00 PM 16.31 61.358 0.112 7.13 3.82 9.53
5/23/2022 1:15:00 PM 16.28 61.304 0.111 7.07 4.19 9.53
5/23/2022 1:30:00 PM 16.55 61.79 0.117 7.24 3.66 9.56
5/23/2022 1:45:00 PM 16.83 62.294 0.112 7.41 4.83 9.73
5/23/2022 2:00:00 PM 16.82 62.276 0.113 7.42 4.75 9.69
5/23/2022 2:15:00 PM 16.78 62.204 0.117 7.32 4.27 9.62
5/23/2022 2:30:00 PM 16.92 62.456 0.112 7.41 4.84 9.69
5/23/2022 2:45:00 PM 16.89 62.402 0.112 7.36 4.03 9.59
5/23/2022 3:00:00 PM 16.91 62.438 0.112 7.34 4.21 9.62
5/23/2022 3:15:00 PM 16.77 62.186 0.111 7.28 3.9 9.38
5/23/2022 3:30:00 PM 16.98 62.564 0.118 7.37 3.94 9.61
5/23/2022 3:45:00 PM 16.85 62.33 0.113 7.17 4.32 9.47
5/23/2022 4:00:00 PM 16.94 62.492 0.112 7.31 3.99 9.54
5/23/2022 4:15:00 PM 16.86 62.348 0.112 7.24 3.66 9.47
5/23/2022 4:30:00 PM 16.9 62.42 0.113 7.28 3.67 9.48
5/23/2022 4:45:00 PM 16.78 62.204 0.117 7.13 4.4 9.36
5/23/2022 5:00:00 PM 16.88 62.384 0.113 7.28 4.28 9.4
5/23/2022 5:15:00 PM 16.71 62.078 0.118 7.15 4.42 9.25
5/23/2022 5:30:00 PM 16.7 62.06 0.118 7.16 4.06 9.17
5/23/2022 5:45:00 PM 16.78 62.204 0.113 7.22 4.19 9.32
5/23/2022 6:00:00 PM 16.76 62.168 0.113 7.23 3.98 9.35
5/23/2022 6:15:00 PM 16.63 61.934 0.119 7.12 3.82 9.17
5/23/2022 6:30:00 PM 16.65 61.97 0.114 7.18 4.13 9.27
5/23/2022 6:45:00 PM 16.41 61.538 0.114 7.04 3.87 9.03
5/23/2022 7:00:00 PM 16.48 61.664 0.12 7.14 4 9.18
5/23/2022 7:15:00 PM 16.42 61.556 0.114 7.14 3.63 9.14
5/23/2022 7:30:00 PM 16.36 61.448 0.12 7.11 4.15 9.13
5/23/2022 7:45:00 PM 16.31 61.358 0.12 7.13 3.78 9.13
5/23/2022 8:00:00 PM 16.18 61.124 0.121 7.07 3.9 9.01
5/23/2022 8:15:00 PM 16.14 61.052 0.121 7.06 3.96 9.06
5/23/2022 8:30:00 PM 15.88 60.584 0.121 6.91 4.09 8.78
5/23/2022 8:45:00 PM 15.95 60.71 0.121 7.01 4.16 9.02
5/23/2022 9:00:00 PM 15.92 60.656 0.122 7.07 4.36 9.08
5/23/2022 9:15:00 PM 15.77 60.386 0.116 7.03 4.58 8.88
5/23/2022 9:30:00 PM 15.71 60.278 0.116 7.01 4.32 9.02
5/23/2022 9:45:00 PM 15.65 60.17 0.122 7.06 4.4 9.11
5/23/2022 10:00:00 PM 15.55 59.99 0.116 7.03 4.28 9.09
5/23/2022 10:15:00 PM 15.56 60.008 0.116 7.08 4.16 9.21
5/23/2022 10:30:00 PM 15.44 59.792 0.117 7.03 3.54 9.15
5/23/2022 10:45:00 PM 15.33 59.594 0.117 6.95 3.92 9.11
5/23/2022 11:00:00 PM 15.35 59.63 0.116 7.06 3.89 9.26
5/23/2022 11:15:00 PM 15.25 59.45 0.123 7.01 4.05 9.22
5/23/2022 11:30:00 PM 15.24 59.432 0.116 7.07 4.15 9.27
5/23/2022 11:45:00 PM 15.15 59.27 0.123 7.05 3.79 9.18
5/24/2022 12:00:00 AM 15.06 59.108 0.123 7.02 3.91 9.22
5/24/2022 12:15:00 AM 15.03 59.054 0.116 7.05 4.63 9.21
5/24/2022 12:30:00 AM 14.92 58.856 0.117 6.99 4 9.13
5/24/2022 12:45:00 AM 14.85 58.73 0.116 6.95 4.33 9.08
5/24/2022 1:00:00 AM 14.91 58.838 0.122 7.04 3.79 9.36
5/24/2022 1:15:00 AM 14.84 58.712 0.116 7.03 4.04 9.27
5/24/2022 1:30:00 AM 14.81 58.658 0.116 7.05 4.01 9.35
5/24/2022 1:45:00 AM 14.73 58.514 0.123 7.03 3.9 9.32
5/24/2022 2:00:00 AM 14.69 58.442 0.117 7.06 4.33 9.34
5/24/2022 2:15:00 AM 14.6 58.28 0.117 7 4.04 9.27
5/24/2022 2:30:00 AM 14.52 58.136 0.116 6.97 4.01 9.16
5/24/2022 2:45:00 AM 14.48 58.064 0.123 6.98 3.77 9.23
5/24/2022 3:00:00 AM 14.52 58.136 0.117 7.08 3.95 9.46
5/24/2022 3:15:00 AM 14.48 58.064 0.117 7.09 4.67 9.48
5/24/2022 3:30:00 AM 14.36 57.848 0.117 7.05 4.11 9.32
5/24/2022 3:45:00 AM 14.36 57.848 0.117 7.08 3.97 9.5
5/24/2022 4:00:00 AM 14.3 57.74 0.117 7.08 3.92 9.5
5/24/2022 4:15:00 AM 14.24 57.632 0.117 7.07 4.07 9.47
5/24/2022 4:30:00 AM 14.19 57.542 0.123 7.08 4.14 9.52
5/24/2022 4:45:00 AM 14.14 57.452 0.117 7.07 4.28 9.51
5/24/2022 5:00:00 AM 14.07 57.326 0.117 7.06 4.25 9.49
5/24/2022 5:15:00 AM 14.02 57.236 0.117 7.01 4.34 9.42
5/24/2022 5:30:00 AM 13.95 57.11 0.117 6.99 4.36 9.48
5/24/2022 5:45:00 AM 13.9 57.02 0.117 7.03 4.19 9.5
5/24/2022 6:00:00 AM 13.86 56.948 0.118 7.06 4.93 9.56
5/24/2022 6:15:00 AM 13.76 56.768 0.117 7.05 6.39 9.45
5/24/2022 6:30:00 AM 13.78 56.804 0.119 7.09 4.88 9.64
5/24/2022 6:45:00 AM 13.77 56.786 0.118 7.11 4.07 9.71
5/24/2022 7:00:00 AM 13.73 56.714 0.118 7.06 3.87 9.72
5/24/2022 7:15:00 AM 13.76 56.768 0.118 7.07 4.38 9.76
5/24/2022 7:30:00 AM 13.79 56.822 0.118 7.13 3.52 9.87
5/24/2022 7:45:00 AM 13.78 56.804 0.117 7.14 3.84 9.82
5/24/2022 8:00:00 AM 13.78 56.804 0.118 7.06 3.86 9.79
5/24/2022 8:15:00 AM 13.89 57.002 0.118 7.18 3.94 9.99
5/24/2022 8:30:00 AM 13.91 57.038 0.118 7.16 4.11 9.99
5/24/2022 8:45:00 AM 13.88 56.984 0.117 7.1 4 9.91
5/24/2022 9:00:00 AM 13.95 57.11 0.118 7.18 3.75 9.96
5/24/2022 9:15:00 AM 13.99 57.182 0.117 7.16 3.59 9.94
5/24/2022 9:30:00 AM 14.06 57.308 0.117 7.17 3.99 9.99
5/24/2022 9:45:00 AM 14.08 57.344 0.123 7.17 3.8 10.01
5/24/2022 10:00:00 AM 14.12 57.416 0.117 7.19 3.93 9.87
5/24/2022 10:15:00 AM 14.21 57.578 0.117 7.17 3.89 9.99
5/24/2022 10:30:00 AM 14.28 57.704 0.117 7.19 3.71 10.02
5/24/2022 10:45:00 AM 14.36 57.848 0.117 7.24 3.63 10.04
5/24/2022 11:00:00 AM 14.32 57.776 0.116 7.11 3.53 9.93
5/24/2022 11:15:00 AM 14.39 57.902 0.116 7.08 3.86 9.93
5/24/2022 11:30:00 AM 14.52 58.136 0.116 7.22 3.67 9.87
5/24/2022 11:45:00 AM 14.59 58.262 0.115 7.19 3.54 9.84
5/24/2022 12:00:00 PM 14.57 58.226 0.116 7.13 3.99 9.67
5/24/2022 12:15:00 PM 14.63 58.334 0.118 7.21 3.7 9.82
5/24/2022 12:30:00 PM 14.69 58.442 0.123 7.19 4.45 9.86
5/24/2022 12:45:00 PM 14.75 58.55 0.116 7.18 3.95 9.87
5/24/2022 1:00:00 PM 14.83 58.694 0.123 7.16 3.8 9.82
5/24/2022 1:15:00 PM 14.74 58.532 0.115 7.11 3.83 9.67
5/24/2022 1:30:00 PM 14.95 58.91 0.117 7.16 3.98 9.82
5/24/2022 1:45:00 PM 15 59 0.116 7.22 3.83 9.79
5/24/2022 2:00:00 PM 15.1 59.18 0.123 7.27 4.46 9.87
5/24/2022 2:15:00 PM 15.03 59.054 0.117 7.17 4.01 9.7
5/24/2022 2:30:00 PM 15 59 0.118 7.15 4.1 9.66
5/24/2022 2:45:00 PM 15 59 0.117 7.05 3.76 9.65
5/24/2022 3:00:00 PM 15.03 59.054 0.123 7.08 3.76 9.61
5/24/2022 3:15:00 PM 15.02 59.036 0.117 7.16 3.8 9.43
5/24/2022 3:30:00 PM 15.04 59.072 0.123 7.1 3.89 9.58
5/24/2022 3:45:00 PM 15.06 59.108 0.124 7.14 3.92 9.55
5/24/2022 4:00:00 PM 15.01 59.018 0.118 7.1 4.03 9.33
5/24/2022 4:15:00 PM 15.17 59.306 0.123 7.19 3.85 9.7
5/24/2022 4:30:00 PM 15.08 59.144 0.121 7.13 3.6 9.62
5/24/2022 4:45:00 PM 15.2 59.36 0.124 7.15 4.15 9.66
5/24/2022 5:00:00 PM 15.24 59.432 0.124 7.21 3.96 9.69
5/24/2022 5:15:00 PM 15.33 59.594 0.118 7.25 3.9 9.81
5/24/2022 5:30:00 PM 15.34 59.612 0.124 7.18 5.78 9.78
5/24/2022 5:45:00 PM 15.26 59.468 0.124 7.16 3.69 9.65
5/24/2022 6:00:00 PM 15.29 59.522 0.117 7.2 5.99 9.72
5/24/2022 6:15:00 PM 15.23 59.414 0.124 7.14 4.77 9.6
5/24/2022 6:30:00 PM 15.3 59.54 0.124 7.19 4.57 9.63
5/24/2022 6:45:00 PM 15.17 59.306 0.117 7.07 3.76 9.49
5/24/2022 7:00:00 PM 15.19 59.342 0.119 7.14 3.84 9.42
5/24/2022 7:15:00 PM 15.26 59.468 0.125 7.16 3.8 9.49
5/24/2022 7:30:00 PM 15.24 59.432 0.125 7.15 4.03 9.42
5/24/2022 7:45:00 PM 15.21 59.378 0.125 7.15 4.22 9.32
5/24/2022 8:00:00 PM 15.15 59.27 0.119 7.09 4.31 9.28
5/24/2022 8:15:00 PM 15.12 59.216 0.12 7.03 3.92 9.23
5/24/2022 8:30:00 PM 15.17 59.306 0.126 7.14 4.22 9.33
5/24/2022 8:45:00 PM 15.05 59.09 0.126 7.03 4.11 9.22
5/24/2022 9:00:00 PM 15.04 59.072 0.119 7.04 4.13 9.26
5/24/2022 9:15:00 PM 15.02 59.036 0.118 7.07 4.17 9.27
5/24/2022 9:30:00 PM 15.01 59.018 0.127 7.08 4.51 9.32
5/24/2022 9:45:00 PM 14.93 58.874 0.12 7.05 4.92 9.27
5/24/2022 10:00:00 PM 14.92 58.856 0.127 7.08 4.06 9.32
5/24/2022 10:15:00 PM 14.9 58.82 0.127 7.11 3.95 9.38
5/24/2022 10:30:00 PM 14.82 58.676 0.127 7.07 4.29 9.37
5/24/2022 10:45:00 PM 14.77 58.586 0.127 7.05 4.56 9.28
5/24/2022 11:00:00 PM 14.74 58.532 0.127 7.06 4.41 9.41
5/24/2022 11:15:00 PM 14.69 58.442 0.127 7.07 4.2 9.32
5/24/2022 11:30:00 PM 14.67 58.406 0.127 7.09 3.73 9.4
5/24/2022 11:45:00 PM 14.64 58.352 0.127 7.07 4.41 9.43
5/25/2022 12:00:00 AM 14.55 58.19 0.127 7.03 4.23 9.34
5/25/2022 12:15:00 AM 14.59 58.262 0.128 7.11 4.17 9.48
5/25/2022 12:30:00 AM 14.49 58.082 0.127 7.03 4.11 9.37
5/25/2022 12:45:00 AM 14.44 57.992 0.127 7.05 5.31 9.32
5/25/2022 1:00:00 AM 14.43 57.974 0.128 7.05 4.2 9.49
5/25/2022 1:15:00 AM 14.37 57.866 0.121 7.08 4.06 9.46
5/25/2022 1:30:00 AM 14.34 57.812 0.127 7.08 3.9 9.48
5/25/2022 1:45:00 AM 14.29 57.722 0.121 7.08 4.09 9.53
5/25/2022 2:00:00 AM 14.24 57.632 0.127 7.08 3.97 9.52
5/25/2022 2:15:00 AM 14.14 57.452 0.12 7.01 4 9.44
5/25/2022 2:30:00 AM 14.07 57.326 0.127 7.01 3.95 9.34
5/25/2022 2:45:00 AM 14.08 57.344 0.127 7.07 4.1 9.52
5/25/2022 3:00:00 AM 14.03 57.254 0.127 7.05 3.98 9.53
5/25/2022 3:15:00 AM 13.99 57.182 0.122 7.08 3.8 9.55
5/25/2022 3:30:00 AM 13.93 57.074 0.12 7.07 4.06 9.55
5/25/2022 3:45:00 AM 13.93 57.074 0.128 7.09 4 9.59
5/25/2022 4:00:00 AM 13.88 56.984 0.128 7.1 3.98 9.6
5/25/2022 4:15:00 AM 13.84 56.912 0.121 7.07 4.5 9.62
5/25/2022 4:30:00 AM 13.79 56.822 0.121 7.09 4.2 9.62
5/25/2022 4:45:00 AM 13.73 56.714 0.128 7.06 4.41 9.63
5/25/2022 5:00:00 AM 13.71 56.678 0.128 7.11 4.46 9.71
5/25/2022 5:15:00 AM 13.67 56.606 0.121 7.11 4.33 9.69
5/25/2022 5:30:00 AM 13.65 56.57 0.128 7.12 4.32 9.71
5/25/2022 5:45:00 AM 13.62 56.516 0.128 7.1 4.27 9.67
5/25/2022 6:00:00 AM 13.61 56.498 0.128 7.11 4.1 9.71
5/25/2022 6:15:00 AM 13.59 56.462 0.128 7.12 4 9.77
5/25/2022 6:30:00 AM 13.57 56.426 0.128 7.12 4.13 9.76
5/25/2022 6:45:00 AM 13.57 56.426 0.128 7.14 4.13 9.82
5/25/2022 7:00:00 AM 13.56 56.408 0.122 7.12 4 9.85
5/25/2022 7:15:00 AM 13.52 56.336 0.121 7.06 4.05 9.7
5/25/2022 7:30:00 AM 13.59 56.462 0.128 7.16 4.09 9.96
5/25/2022 7:45:00 AM 13.59 56.462 0.121 7.13 3.89 9.97
5/25/2022 8:00:00 AM 13.63 56.534 0.128 7.18 3.77 9.99
5/25/2022 8:15:00 AM 13.66 56.588 0.121 7.2 3.94 9.99
5/25/2022 8:30:00 AM 13.66 56.588 0.121 7.14 3.88 10.01
5/25/2022 8:45:00 AM 13.7 56.66 0.121 7.15 3.89 9.98
5/25/2022 9:00:00 AM 13.73 56.714 0.12 7.12 3.67 9.92
5/25/2022 9:15:00 AM 13.91 57.038 0.127 7.26 3.64 10.12
5/25/2022 9:30:00 AM 13.95 57.11 0.127 7.2 3.7 9.95
5/25/2022 9:45:00 AM 14.1 57.38 0.127 7.27 3.81 10.13
5/25/2022 10:00:00 AM 14.17 57.506 0.127 7.26 3.76 10.11
5/25/2022 10:15:00 AM 14.3 57.74 0.127 7.29 4.18 10.15
5/25/2022 10:30:00 AM 14.39 57.902 0.12 7.27 3.78 10.16
5/25/2022 10:45:00 AM 14.52 58.136 0.127 7.31 3.77 10.16
5/25/2022 11:00:00 AM 14.65 58.37 0.126 7.3 3.79 10.15
5/25/2022 11:15:00 AM 14.78 58.604 0.126 7.34 4.07 10.1
5/25/2022 11:30:00 AM 15.1 59.18 0.126 7.36 3.43 10.13
5/25/2022 11:45:00 AM 15.3 59.54 0.126 7.28 3.75 9.97
5/25/2022 12:00:00 PM 15.5 59.9 0.126 7.25 3.7 9.9
5/25/2022 12:15:00 PM 15.83 60.494 0.126 7.26 4.23 9.88
5/25/2022 12:30:00 PM 15.96 60.728 0.126 7.24 3.97 9.86
5/25/2022 12:45:00 PM 16.25 61.25 0.126 7.29 3.76 9.68
5/25/2022 1:00:00 PM 16.34 61.412 0.127 7.16 3.99 9.44
5/25/2022 1:15:00 PM 16.6 61.88 0.126 7.22 3.93 9.61
5/25/2022 1:30:00 PM 16.97 62.546 0.124 7.37 4.02 9.63
5/25/2022 1:45:00 PM 17.09 62.762 0.126 7.29 4.25 9.63
5/25/2022 2:00:00 PM 17.34 63.212 0.126 7.38 4.08 9.56
5/25/2022 2:15:00 PM 17.34 63.212 0.126 7.24 3.66 9.47
5/25/2022 2:30:00 PM 17.46 63.428 0.126 7.31 3.94 9.46
5/25/2022 2:45:00 PM 17.57 63.626 0.126 7.3 4.23 9.44
5/25/2022 3:00:00 PM 17.48 63.464 0.127 7.24 3.88 9.36
5/25/2022 3:15:00 PM 17.58 63.644 0.127 7.27 4.19 9.43
5/25/2022 3:30:00 PM 17.57 63.626 0.126 7.36 5.43 9.4
5/25/2022 3:45:00 PM 17.65 63.77 0.127 7.39 4.23 9.52
5/25/2022 4:00:00 PM 17.58 63.644 0.126 7.28 3.88 9.32
5/25/2022 4:15:00 PM 17.58 63.644 0.127 7.31 4.17 9.39
5/25/2022 4:30:00 PM 17.58 63.644 0.127 7.28 4.15 9.35
5/25/2022 4:45:00 PM 17.58 63.644 0.127 7.23 4.04 9.33
5/25/2022 5:00:00 PM 17.52 63.536 0.127 7.23 4.89 9.18
5/25/2022 5:15:00 PM 17.64 63.752 0.126 7.27 4.33 9.26
5/25/2022 5:30:00 PM 17.61 63.698 0.126 7.22 3.91 9.23
5/25/2022 5:45:00 PM 17.72 63.896 0.128 7.32 4.14 9.33
5/25/2022 6:00:00 PM 17.61 63.698 0.128 7.22 4.35 9.25
5/25/2022 6:15:00 PM 17.58 63.644 0.128 7.26 4.11 9.21
5/25/2022 6:30:00 PM 17.53 63.554 0.129 7.27 4.19 9.2
5/25/2022 6:45:00 PM 17.42 63.356 0.129 7.23 3.86 9.12
5/25/2022 7:00:00 PM 17.3 63.14 0.129 7.16 4.3 9.03
5/25/2022 7:15:00 PM 17.29 63.122 0.129 7.22 4.13 9.04
5/25/2022 7:30:00 PM 17.2 62.96 0.129 7.17 3.94 8.99
5/25/2022 7:45:00 PM 17.2 62.96 0.13 7.22 4.07 9.04
5/25/2022 8:00:00 PM 17.12 62.816 0.13 7.21 4.11 9.01
5/25/2022 8:15:00 PM 16.99 62.582 0.13 7.14 4.1 8.87
5/25/2022 8:30:00 PM 16.9 62.42 0.13 7.14 4.49 8.88
5/25/2022 8:45:00 PM 16.83 62.294 0.13 7.12 4.53 8.86
5/25/2022 9:00:00 PM 16.69 62.042 0.131 7.11 4.42 8.79
5/25/2022 9:15:00 PM 16.61 61.898 0.131 7.11 4.26 8.89
5/25/2022 9:30:00 PM 16.56 61.808 0.131 7.13 4.28 8.95
5/25/2022 9:45:00 PM 16.46 61.628 0.132 7.13 4.41 9.01
5/25/2022 10:00:00 PM 16.34 61.412 0.131 7.11 4.09 8.98
5/25/2022 10:15:00 PM 16.26 61.268 0.132 7.14 3.88 9.01
5/25/2022 10:30:00 PM 16.14 61.052 0.132 7.1 4.42 8.93
5/25/2022 10:45:00 PM 16.07 60.926 0.132 7.12 3.84 9.03
5/25/2022 11:00:00 PM 16 60.8 0.132 7.1 4.3 9.1
5/25/2022 11:15:00 PM 15.9 60.62 0.132 7.13 1.8 9.08
5/25/2022 11:30:00 PM 15.8 60.44 0.132 7.08 4.14 9.06
5/25/2022 11:45:00 PM 15.67 60.206 0.132 7.08 3.56 8.93
5/26/2022 12:00:00 AM 15.65 60.17 0.132 7.09 20.29 9.09
5/26/2022 12:15:00 AM 15.58 60.044 0.132 7.09 11.13 9.16
5/26/2022 12:30:00 AM 15.54 59.972 0.133 7.13 9.56 9.19
5/26/2022 12:45:00 AM 15.46 59.828 0.133 7.09 9.32 9.19
5/26/2022 1:00:00 AM 15.41 59.738 0.132 7.11 8.71 9.21
5/26/2022 1:15:00 AM 15.33 59.594 0.133 7.08 9.04 9.2
5/26/2022 1:30:00 AM 15.27 59.486 0.132 7.11 8.8 9.23
5/26/2022 1:45:00 AM 15.21 59.378 0.132 7.11 8.62 9.23
5/26/2022 2:00:00 AM 15.16 59.288 0.132 7.12 8.29 9.27
5/26/2022 2:15:00 AM 15.09 59.162 0.132 7.11 8.63 9.21
5/26/2022 2:30:00 AM 15.02 59.036 0.132 7.09 7.86 9.23
5/26/2022 2:45:00 AM 14.99 58.982 0.133 7.11 7.96 9.29
5/26/2022 3:00:00 AM 14.91 58.838 0.132 7.07 6.75 9.28
5/26/2022 3:15:00 AM 14.85 58.73 0.132 7.1 7.72 9.27
5/26/2022 3:30:00 AM 14.82 58.676 0.133 7.12 8.02 9.35
5/26/2022 3:45:00 AM 14.75 58.55 0.133 7.1 6.82 9.31
5/26/2022 4:00:00 AM 14.73 58.514 0.133 7.12 7.13 9.38
5/26/2022 4:15:00 AM 14.64 58.352 0.133 7.08 7.56 9.34
5/26/2022 4:30:00 AM 14.57 58.226 0.133 7.06 7.5 9.32
5/26/2022 4:45:00 AM 14.58 58.244 0.133 7.13 8.17 9.39
5/26/2022 5:00:00 AM 14.49 58.082 0.133 7.09 5.99 9.33
5/26/2022 5:15:00 AM 14.44 57.992 0.133 7.1 4.61 9.39
5/26/2022 5:30:00 AM 14.4 57.92 0.133 7.11 4.28 9.43
5/26/2022 5:45:00 AM 14.35 57.83 0.132 7.12 4.1 9.44
5/26/2022 6:00:00 AM 14.32 57.776 0.133 7.12 4.62 9.47
5/26/2022 6:15:00 AM 14.26 57.668 0.132 7.1 4.38 9.5
5/26/2022 6:30:00 AM 14.21 57.578 0.133 7.07 4.24 9.41
5/26/2022 6:45:00 AM 14.26 57.668 0.133 7.13 3.71 9.58
5/26/2022 7:00:00 AM 14.15 57.47 0.132 7.05 3.74 9.33
5/26/2022 7:15:00 AM 14.21 57.578 0.133 7.12 3.72 9.55
5/26/2022 7:30:00 AM 14.19 57.542 0.132 7.14 3.92 9.62
5/26/2022 7:45:00 AM 14.18 57.524 0.132 7.15 3.84 9.63
5/26/2022 8:00:00 AM 14.19 57.542 0.132 7.14 3.87 9.69
5/26/2022 8:15:00 AM 14.25 57.65 0.132 7.19 3.78 9.83
5/26/2022 8:30:00 AM 14.21 57.578 0.131 7.12 4.12 9.59
5/26/2022 8:45:00 AM 14.29 57.722 0.132 7.16 3.67 9.76
5/26/2022 9:00:00 AM 14.34 57.812 0.132 7.18 3.68 9.82
5/26/2022 9:15:00 AM 14.39 57.902 0.132 7.19 3.53 9.83
5/26/2022 9:30:00 AM 14.45 58.01 0.132 7.17 3.64 9.82
5/26/2022 9:45:00 AM 14.46 58.028 0.131 7.08 3.92 9.7
5/26/2022 10:00:00 AM 14.53 58.154 0.123 7.14 3.81 9.81
5/26/2022 10:15:00 AM 14.65 58.37 0.13 7.08 3.66 9.73
5/26/2022 10:30:00 AM 15.01 59.018 0.131 7.14 3.87 9.91
5/26/2022 10:45:00 AM 15.25 59.45 0.131 7.25 3.75 9.9
5/26/2022 11:00:00 AM 15.32 59.576 0.129 7.13 3.96 9.63
5/26/2022 11:15:00 AM 15.51 59.918 0.129 7.22 4.46 9.79
5/26/2022 11:30:00 AM 15.65 60.17 0.128 7.29 3.71 9.89
5/26/2022 11:45:00 AM 15.61 60.098 0.13 7.3 4.14 9.82
5/26/2022 12:00:00 PM 15.73 60.314 0.13 7.35 3.47 9.88
5/26/2022 12:15:00 PM 15.77 60.386 0.13 7.29 3.7 9.79
5/26/2022 12:30:00 PM 15.73 60.314 0.129 7.2 3.44 9.71
5/26/2022 12:45:00 PM 15.8 60.44 0.129 7.28 3.86 9.82
5/26/2022 1:00:00 PM 15.84 60.512 0.128 7.32 3.93 9.74
5/26/2022 1:15:00 PM 15.85 60.53 0.13 7.22 3.64 9.61
5/26/2022 1:30:00 PM 15.93 60.674 0.13 7.25 3.6 9.57
5/26/2022 1:45:00 PM 15.91 60.638 0.129 7.29 3.7 9.67
5/26/2022 2:00:00 PM 16.06 60.908 0.13 7.3 3.66 9.68
5/26/2022 2:15:00 PM 16.12 61.016 0.13 7.35 3.63 9.69
5/26/2022 2:30:00 PM 16.15 61.07 0.129 7.39 3.82 9.69
5/26/2022 2:45:00 PM 16.25 61.25 0.131 7.38 3.9 9.63
5/26/2022 3:00:00 PM 16.21 61.178 0.13 7.3 3.42 9.61
5/26/2022 3:15:00 PM 16.35 61.43 0.13 7.34 3.79 9.59
5/26/2022 3:30:00 PM 16.39 61.502 0.13 7.32 3.82 9.58
5/26/2022 3:45:00 PM 16.44 61.592 0.131 7.36 3.66 9.54
5/26/2022 4:00:00 PM 16.43 61.574 0.13 7.34 3.79 9.47
5/26/2022 4:15:00 PM 16.46 61.628 0.129 7.33 4.2 9.46
5/26/2022 4:30:00 PM 16.45 61.61 0.131 7.28 4.48 9.38
5/26/2022 4:45:00 PM 16.33 61.394 0.131 7.23 3.72 9.15
5/26/2022 5:00:00 PM 16.38 61.484 0.131 7.18 3.88 9.24
5/26/2022 5:15:00 PM 16.4 61.52 0.132 7.19 3.75 9.19
5/26/2022 5:30:00 PM 16.39 61.502 0.131 7.18 3.87 9.13
5/26/2022 5:45:00 PM 16.45 61.61 0.131 7.18 4.33 9.21
5/26/2022 6:00:00 PM 16.51 61.718 0.132 7.24 3.89 9.28
5/26/2022 6:15:00 PM 16.46 61.628 0.132 7.19 4.01 9.22
5/26/2022 6:30:00 PM 16.49 61.682 0.132 7.25 4.42 9.21
5/26/2022 6:45:00 PM 16.46 61.628 0.133 7.2 4.71 9.18
5/26/2022 7:00:00 PM 16.35 61.43 0.131 7.17 3.69 9.09
5/26/2022 7:15:00 PM 16.34 61.412 0.133 7.12 3.84 9
5/26/2022 7:30:00 PM 16.3 61.34 0.132 7.06 4.13 8.99
5/26/2022 7:45:00 PM 16.32 61.376 0.132 7.13 3.88 8.9
5/26/2022 8:00:00 PM 16.26 61.268 0.133 7.15 3.75 8.86
5/26/2022 8:15:00 PM 16.31 61.358 0.134 7.17 4.08 9.05
5/26/2022 8:30:00 PM 16.25 61.25 0.134 7.15 4.05 8.93
5/26/2022 8:45:00 PM 16.21 61.178 0.134 7.14 3.95 8.98
5/26/2022 9:00:00 PM 16.19 61.142 0.131 7.14 4.51 9.02
5/26/2022 9:15:00 PM 16.05 60.89 0.133 7.04 3.89 8.74
5/26/2022 9:30:00 PM 16.15 61.07 0.134 7.16 3.79 9.01
5/26/2022 9:45:00 PM 16.01 60.818 0.134 7.08 3.89 8.92
5/26/2022 10:00:00 PM 16.07 60.926 0.135 7.13 3.73 9.03
5/26/2022 10:15:00 PM 16.02 60.836 0.135 7.12 4 9.01
5/26/2022 10:30:00 PM 15.96 60.728 0.134 7.09 3.82 8.98
5/26/2022 10:45:00 PM 15.88 60.584 0.132 7.03 3.89 8.89
5/26/2022 11:00:00 PM 15.96 60.728 0.133 7.13 4.81 9.05
5/26/2022 11:15:00 PM 15.85 60.53 0.134 7.09 3.98 8.89
5/26/2022 11:30:00 PM 15.82 60.476 0.135 7.06 3.56 8.89
5/26/2022 11:45:00 PM 15.85 60.53 0.135 7.11 4.46 9.06
5/27/2022 12:00:00 AM 15.79 60.422 0.135 7.09 3.85 8.89
5/27/2022 12:15:00 AM 15.77 60.386 0.135 7.09 4.07 9.03
5/27/2022 12:30:00 AM 15.77 60.386 0.135 7.11 4.07 9.02
5/27/2022 12:45:00 AM 15.64 60.152 0.134 7.07 3.85 8.96
5/27/2022 1:00:00 AM 15.68 60.224 0.135 7.05 3.75 9
5/27/2022 1:15:00 AM 15.62 60.116 0.135 7.03 3.72 8.9
5/27/2022 1:30:00 AM 15.67 60.206 0.135 7.09 4.03 9.02
5/27/2022 1:45:00 AM 15.61 60.098 0.135 7.06 4.06 8.89
5/27/2022 2:00:00 AM 15.61 60.098 0.135 7.05 4.09 9.01
5/27/2022 2:15:00 AM 15.59 60.062 0.135 7.07 4 9
5/27/2022 2:30:00 AM 15.55 59.99 0.135 7.04 4.12 8.94
5/27/2022 2:45:00 AM 15.59 60.062 0.134 7.08 5.21 9.05
5/27/2022 3:00:00 AM 15.51 59.918 0.135 7.05 4.04 8.94
5/27/2022 3:15:00 AM 15.56 60.008 0.134 7.1 4.23 9.06
5/27/2022 3:30:00 AM 15.51 59.918 0.134 7.07 4.12 9.02
5/27/2022 3:45:00 AM 15.41 59.738 0.135 6.96 4.36 8.85
5/27/2022 4:00:00 AM 15.48 59.864 0.135 7.07 4.31 9.01
5/27/2022 4:15:00 AM 15.47 59.846 0.136 7.03 3.82 8.97
5/27/2022 4:30:00 AM 15.46 59.828 0.135 7.1 3.77 9.03
5/27/2022 4:45:00 AM 15.44 59.792 0.135 7.04 3.82 9
5/27/2022 5:00:00 AM 15.3 59.54 0.134 7.01 3.97 8.41
5/27/2022 5:15:00 AM 15.44 59.792 0.135 7.08 4.39 9.07
5/27/2022 5:30:00 AM 15.44 59.792 0.135 7.1 4.17 9.07
5/27/2022 5:45:00 AM 15.42 59.756 0.135 7.11 8.29 8.94
5/27/2022 6:00:00 AM 15.34 59.612 0.135 6.99 4.3 8.94
5/27/2022 6:15:00 AM 15.41 59.738 0.135 7.07 4.29 9.12
5/27/2022 6:30:00 AM 15.34 59.612 0.135 7.05 4.44 8.95
5/27/2022 6:45:00 AM 15.4 59.72 0.136 7.08 5.27 9.09
5/27/2022 7:00:00 AM 15.39 59.702 0.135 7.07 4.41 9.11
5/27/2022 7:15:00 AM 15.37 59.666 0.135 7.07 4.17 9.05
5/27/2022 7:30:00 AM 15.42 59.756 0.136 7.11 4.17 9.15
5/27/2022 7:45:00 AM 15.44 59.792 0.135 7.12 4.05 9.15
5/27/2022 8:00:00 AM 15.43 59.774 0.135 7.09 3.81 9.11
5/27/2022 8:15:00 AM 15.43 59.774 0.135 7.09 4.04 9.07
5/27/2022 8:30:00 AM 15.38 59.684 0.135 7.07 4.35 9.04
5/27/2022 8:45:00 AM 15.45 59.81 0.136 7.06 4.06 9.22
5/27/2022 9:00:00 AM 15.52 59.936 0.135 7.13 4.31 9.24
5/27/2022 9:15:00 AM 15.45 59.81 0.135 7.08 4.21 9.08
5/27/2022 9:30:00 AM 15.58 60.044 0.134 7.17 4.14 9.29
5/27/2022 9:45:00 AM 15.61 60.098 0.135 7.17 3.97 9.34
5/27/2022 10:00:00 AM 15.67 60.206 0.135 7.22 3.96 9.3
5/27/2022 10:15:00 AM 15.68 60.224 0.135 7.18 4 9.41
5/27/2022 10:30:00 AM 15.72 60.296 0.134 7.19 3.82 9.39
5/27/2022 10:45:00 AM 15.78 60.404 0.135 7.21 3.8 9.45
5/27/2022 11:00:00 AM 15.83 60.494 0.135 7.24 3.87 9.47
5/27/2022 11:15:00 AM 15.9 60.62 0.135 7.26 3.76 9.45
5/27/2022 11:30:00 AM 15.94 60.692 0.135 7.25 3.63 9.49
5/27/2022 11:45:00 AM 16.08 60.944 0.134 7.19 3.66 9.49
5/27/2022 12:00:00 PM 16.19 61.142 0.135 7.18 3.69 9.4
5/27/2022 12:15:00 PM 16.31 61.358 0.134 7.25 3.82 9.51
5/27/2022 12:30:00 PM 16.42 61.556 0.134 7.33 3.81 9.55
5/27/2022 12:45:00 PM 16.36 61.448 0.134 7.21 3.88 9.4
5/27/2022 1:00:00 PM 16.34 61.412 0.134 7.21 3.75 9.34
5/27/2022 1:15:00 PM 16.36 61.448 0.134 7.2 3.73 9.36
5/27/2022 1:30:00 PM 16.52 61.736 0.134 7.26 3.63 9.41
5/27/2022 1:45:00 PM 16.63 61.934 0.134 7.25 3.57 9.43
5/27/2022 2:00:00 PM 16.71 62.078 0.134 7.32 3.78 9.4
5/27/2022 2:15:00 PM 16.7 62.06 0.133 7.32 3.78 9.36
5/27/2022 2:30:00 PM 16.65 61.97 0.134 7.31 4.02 9.3
5/27/2022 2:45:00 PM 16.64 61.952 0.135 7.3 3.59 9.29
5/27/2022 3:00:00 PM 16.56 61.808 0.134 7.26 4.41 9.15
5/27/2022 3:15:00 PM 16.59 61.862 0.133 7.24 5.05 9.1
5/27/2022 3:30:00 PM 16.58 61.844 0.132 7.19 4.78 8.97
5/27/2022 3:45:00 PM 16.61 61.898 0.132 7.21 5.05 9.08
5/27/2022 4:00:00 PM 16.58 61.844 0.132 7.16 4.73 9.03
5/27/2022 4:15:00 PM 16.65 61.97 0.132 7.23 5.6 9.15
5/27/2022 4:30:00 PM 16.63 61.934 0.132 7.16 4.36 9.14
5/27/2022 4:45:00 PM 16.69 62.042 0.132 7.21 4.22 9.2
5/27/2022 5:00:00 PM 16.66 61.988 0.131 7.17 4.26 9.04
5/27/2022 5:15:00 PM 16.65 61.97 0.132 7.19 4.44 8.95
5/27/2022 5:30:00 PM 16.75 62.15 0.131 7.21 4.11 9.17
5/27/2022 5:45:00 PM 16.81 62.258 0.132 7.26 4.14 9.27
5/27/2022 6:00:00 PM 16.8 62.24 0.132 7.24 4.1 9.21
5/27/2022 6:15:00 PM 16.81 62.258 0.133 7.25 3.8 9.22
5/27/2022 6:30:00 PM 16.85 62.33 0.133 7.3 3.99 9.26
5/27/2022 6:45:00 PM 16.8 62.24 0.133 7.27 4.93 9.21
5/27/2022 7:00:00 PM 16.7 62.06 0.133 7.15 4.33 9.05
5/27/2022 7:15:00 PM 16.72 62.096 0.132 7.24 3.99 9.05
5/27/2022 7:30:00 PM 16.7 62.06 0.134 7.21 3.92 9.05
5/27/2022 7:45:00 PM 16.68 62.024 0.134 7.22 4.08 9.03
5/27/2022 8:00:00 PM 16.59 61.862 0.134 7.17 3.94 8.9
5/27/2022 8:15:00 PM 16.58 61.844 0.134 7.18 4.77 8.93
5/27/2022 8:30:00 PM 16.56 61.808 0.134 7.18 3.85 8.91
5/27/2022 8:45:00 PM 16.51 61.718 0.135 7.18 4.21 8.92
5/27/2022 9:00:00 PM 16.48 61.664 0.135 7.17 4.16 8.93
5/27/2022 9:15:00 PM 16.33 61.394 0.134 7.1 4.79 8.71
5/27/2022 9:30:00 PM 16.38 61.484 0.135 7.14 4.25 8.89
5/27/2022 9:45:00 PM 16.33 61.394 0.135 7.11 4.55 8.9
5/27/2022 10:00:00 PM 16.28 61.304 0.135 7.14 4.2 8.91
5/27/2022 10:15:00 PM 16.25 61.25 0.135 7.15 4.41 8.92
5/27/2022 10:30:00 PM 16.2 61.16 0.135 7.13 4.19 8.91
5/27/2022 10:45:00 PM 16.18 61.124 0.136 7.16 4.3 8.99
5/27/2022 11:00:00 PM 16.08 60.944 0.135 7.12 4.19 8.89
5/27/2022 11:15:00 PM 16.02 60.836 0.135 7.11 3.93 8.86
5/27/2022 11:30:00 PM 15.99 60.782 0.136 7.1 4.1 8.93
5/27/2022 11:45:00 PM 15.93 60.674 0.136 7.1 3.81 8.91
5/28/2022 12:00:00 AM 15.92 60.656 0.136 7.13 4.32 8.99
5/28/2022 12:15:00 AM 15.89 60.602 0.136 7.14 4.1 9.04
5/28/2022 12:30:00 AM 15.84 60.512 0.136 7.14 4.04 9.03
5/28/2022 12:45:00 AM 15.79 60.422 0.136 7.13 4.16 9.02
5/28/2022 1:00:00 AM 15.75 60.35 0.135 7.14 4.48 9
5/28/2022 1:15:00 AM 15.7 60.26 0.135 7.11 5.21 9.03
5/28/2022 1:30:00 AM 15.68 60.224 0.136 7.11 4.17 9.03
5/28/2022 1:45:00 AM 15.64 60.152 0.136 7.11 4.15 9.01
5/28/2022 2:00:00 AM 15.59 60.062 0.136 7.11 4.43 8.95
5/28/2022 2:15:00 AM 15.59 60.062 0.135 7.1 4.32 9.04
5/28/2022 2:30:00 AM 15.59 60.062 0.136 7.14 4.26 9.09
5/28/2022 2:45:00 AM 15.55 59.99 0.135 7.12 4.28 9.07
5/28/2022 3:00:00 AM 15.55 59.99 0.135 7.13 4.47 9.11
5/28/2022 3:15:00 AM 15.5 59.9 0.135 7.11 4.01 9.08
5/28/2022 3:30:00 AM 15.47 59.846 0.135 7.09 4.31 9.06
5/28/2022 3:45:00 AM 15.46 59.828 0.136 7.13 4.1 9.11
5/28/2022 4:00:00 AM 15.43 59.774 0.136 7.13 4.16 9.15
5/28/2022 4:15:00 AM 15.4 59.72 0.135 7.13 4.15 9.12
5/28/2022 4:30:00 AM 15.34 59.612 0.135 7.1 4.11 9.13
5/28/2022 4:45:00 AM 15.3 59.54 0.135 7.1 4.45 9.13
5/28/2022 5:00:00 AM 15.3 59.54 0.136 7.13 4.66 9.18
5/28/2022 5:15:00 AM 15.27 59.486 0.136 7.12 4.36 9.18
5/28/2022 5:30:00 AM 15.26 59.468 0.136 7.15 4.65 9.18
5/28/2022 5:45:00 AM 15.21 59.378 0.136 7.12 4.38 9.16
5/28/2022 6:00:00 AM 15.21 59.378 0.136 7.15 5.6 9.21
5/28/2022 6:15:00 AM 15.18 59.324 0.135 7.14 4.45 9.21
5/28/2022 6:30:00 AM 15.15 59.27 0.135 7.11 4.74 9.21
5/28/2022 6:45:00 AM 15.15 59.27 0.135 7.13 4.86 9.22
5/28/2022 7:00:00 AM 15.15 59.27 0.135 7.15 4.24 9.29
5/28/2022 7:15:00 AM 15.14 59.252 0.135 7.15 4.47 9.29
5/28/2022 7:30:00 AM 15.12 59.216 0.135 7.15 5.03 9.29
5/28/2022 7:45:00 AM 15.17 59.306 0.135 7.18 4.31 9.39
5/28/2022 8:00:00 AM 15.19 59.342 0.135 7.17 4.16 9.34
5/28/2022 8:15:00 AM 15.27 59.486 0.135 7.2 4.87 9.41
5/28/2022 8:30:00 AM 15.36 59.648 0.135 7.26 4.2 9.51
5/28/2022 8:45:00 AM 15.38 59.684 0.135 7.26 4.22 9.49
5/28/2022 9:00:00 AM 15.39 59.702 0.134 7.25 4.4 9.48
5/28/2022 9:15:00 AM 15.42 59.756 0.134 7.27 4.07 9.49
5/28/2022 9:30:00 AM 15.44 59.792 0.134 7.26 4.42 9.5
5/28/2022 9:45:00 AM 15.49 59.882 0.134 7.28 6 9.51
5/28/2022 10:00:00 AM 15.56 60.008 0.134 7.29 7.89 9.56
5/28/2022 10:15:00 AM 15.59 60.062 0.133 7.3 6.98 9.5
5/28/2022 10:30:00 AM 15.7 60.26 0.133 7.31 3.9 9.58
5/28/2022 10:45:00 AM 15.78 60.404 0.133 7.33 4.16 9.59
5/28/2022 11:00:00 AM 15.87 60.566 0.133 7.35 3.71 9.59
5/28/2022 11:15:00 AM 15.96 60.728 0.133 7.33 3.88 9.61
5/28/2022 11:30:00 AM 16.1 60.98 0.133 7.28 3.84 9.6
5/28/2022 11:45:00 AM 16.33 61.394 0.133 7.35 3.87 9.53
5/28/2022 12:00:00 PM 16.39 61.502 0.133 7.34 3.75 9.48
5/28/2022 12:15:00 PM 16.36 61.448 0.132 7.34 3.79 9.44
5/28/2022 12:30:00 PM 16.35 61.43 0.132 7.35 4.19 9.45
5/28/2022 12:45:00 PM 16.48 61.664 0.132 7.4 3.93 9.47
5/28/2022 1:00:00 PM 16.45 61.61 0.132 7.34 3.96 9.37
5/28/2022 1:15:00 PM 16.6 61.88 0.132 7.31 3.88 9.4
5/28/2022 1:30:00 PM 16.79 62.222 0.132 7.3 3.73 9.36
5/28/2022 1:45:00 PM 17.07 62.726 0.132 7.39 3.81 9.38
5/28/2022 2:00:00 PM 17.19 62.942 0.132 7.39 3.99 9.38
5/28/2022 2:15:00 PM 17.19 62.942 0.132 7.29 3.96 9.31
5/28/2022 2:30:00 PM 17.25 63.05 0.132 7.42 3.89 9.33
5/28/2022 2:45:00 PM 17.14 62.852 0.132 7.35 3.91 9.23
5/28/2022 3:00:00 PM 17.26 63.068 0.131 7.39 3.94 9.28
5/28/2022 3:15:00 PM 17.27 63.086 0.132 7.39 4.19 9.26
5/28/2022 3:30:00 PM 17.32 63.176 0.132 7.34 4.49 9.23
5/28/2022 3:45:00 PM 17.46 63.428 0.132 7.34 4.12 9.24
5/28/2022 4:00:00 PM 17.43 63.374 0.132 7.38 4.16 9.17
5/28/2022 4:15:00 PM 17.4 63.32 0.132 7.33 4.28 9.14
5/28/2022 4:30:00 PM 17.34 63.212 0.132 7.26 3.69 9.04
5/28/2022 4:45:00 PM 17.42 63.356 0.132 7.32 3.81 9.15
5/28/2022 5:00:00 PM 17.41 63.338 0.133 7.28 4.04 9.13
5/28/2022 5:15:00 PM 17.5 63.5 0.133 7.38 4.18 9.2
5/28/2022 5:30:00 PM 17.41 63.338 0.132 7.27 4.18 9.1
5/28/2022 5:45:00 PM 17.52 63.536 0.132 7.32 4.15 9.17
5/28/2022 6:00:00 PM 17.54 63.572 0.131 7.36 3.69 9.14
5/28/2022 6:15:00 PM 17.46 63.428 0.132 7.31 4.75 9.11
5/28/2022 6:30:00 PM 17.34 63.212 0.132 7.26 4.31 9.06
5/28/2022 6:45:00 PM 17.29 63.122 0.132 7.3 4.23 9.02
5/28/2022 7:00:00 PM 17.22 62.996 0.132 7.27 4.31 9.03
5/28/2022 7:15:00 PM 17.11 62.798 0.132 7.22 3.89 8.93
5/28/2022 7:30:00 PM 17.07 62.726 0.132 7.22 4.1 8.97
5/28/2022 7:45:00 PM 17.04 62.672 0.132 7.25 4.33 8.99
5/28/2022 8:00:00 PM 16.97 62.546 0.132 7.21 4.06 8.96
5/28/2022 8:15:00 PM 16.86 62.348 0.132 7.18 4.09 8.88
5/28/2022 8:30:00 PM 16.81 62.258 0.132 7.17 4.66 8.88
5/28/2022 8:45:00 PM 16.71 62.078 0.132 7.14 4.54 8.81
5/28/2022 9:00:00 PM 16.68 62.024 0.132 7.19 4.57 8.92
5/28/2022 9:15:00 PM 16.57 61.826 0.132 7.16 4.14 8.89
5/28/2022 9:30:00 PM 16.49 61.682 0.132 7.19 6.16 8.98
5/28/2022 9:45:00 PM 16.35 61.43 0.132 7.15 5.18 8.89
5/28/2022 10:00:00 PM 16.28 61.304 0.132 7.19 4.29 9.05
5/28/2022 10:15:00 PM 16.11 60.998 0.132 7.13 4.48 8.97
5/28/2022 10:30:00 PM 16.03 60.854 0.132 7.16 4.4 9.01
5/28/2022 10:45:00 PM 15.95 60.71 0.132 7.17 4.49 9.1
5/28/2022 11:00:00 PM 15.84 60.512 0.132 7.16 9.73 9.07
5/28/2022 11:15:00 PM 15.77 60.386 0.132 7.17 4.36 9.16
5/28/2022 11:30:00 PM 15.66 60.188 0.131 7.14 4.13 9.18
5/28/2022 11:45:00 PM 15.6 60.08 0.132 7.16 4.2 9.2
5/29/2022 12:00:00 AM 15.51 59.918 0.132 7.16 4.28 9.19
5/29/2022 12:15:00 AM 15.43 59.774 0.132 7.15 4.41 9.2
5/29/2022 12:30:00 AM 15.34 59.612 0.131 7.12 3.81 9.18
5/29/2022 12:45:00 AM 15.27 59.486 0.132 7.14 4.75 9.21
5/29/2022 1:00:00 AM 15.21 59.378 0.131 7.15 4.28 9.25
5/29/2022 1:15:00 AM 15.14 59.252 0.132 7.13 4.51 9.27
5/29/2022 1:30:00 AM 15.06 59.108 0.132 7.13 4.28 9.28
5/29/2022 1:45:00 AM 14.99 58.982 0.131 7.13 3.99 9.25
5/29/2022 2:00:00 AM 14.86 58.748 0.13 7.07 4.12 9.18
5/29/2022 2:15:00 AM 14.85 58.73 0.131 7.11 4.21 9.25
5/29/2022 2:30:00 AM 14.78 58.604 0.131 7.12 4 9.34
5/29/2022 2:45:00 AM 14.68 58.424 0.131 7 3.94 9.25
5/29/2022 3:00:00 AM 14.69 58.442 0.131 7.09 4.55 9.27
5/29/2022 3:15:00 AM 14.66 58.388 0.131 7.14 4.15 9.4
5/29/2022 3:30:00 AM 14.61 58.298 0.131 7.14 4.42 9.4
5/29/2022 3:45:00 AM 14.56 58.208 0.131 7.12 3.85 9.36
5/29/2022 4:00:00 AM 14.51 58.118 0.131 7.1 4.19 9.37
5/29/2022 4:15:00 AM 14.46 58.028 0.131 7.07 3.8 9.38
5/29/2022 4:30:00 AM 14.44 57.992 0.131 7.12 4.33 9.41
5/29/2022 4:45:00 AM 14.39 57.902 0.131 7.09 4.54 9.4
5/29/2022 5:00:00 AM 14.38 57.884 0.131 7.13 4.55 9.5
5/29/2022 5:15:00 AM 14.31 57.758 0.131 7.1 4.22 9.46
5/29/2022 5:30:00 AM 14.29 57.722 0.131 7.13 5.07 9.49
5/29/2022 5:45:00 AM 14.22 57.596 0.131 7.08 4.77 9.44
5/29/2022 6:00:00 AM 14.21 57.578 0.131 7.1 4.53 9.52
5/29/2022 6:15:00 AM 14.19 57.542 0.131 7.13 5.17 9.52
5/29/2022 6:30:00 AM 14.17 57.506 0.131 7.13 4.44 9.57
5/29/2022 6:45:00 AM 14.16 57.488 0.131 7.12 4.55 9.59
5/29/2022 7:00:00 AM 14.16 57.488 0.131 7.15 4.65 9.61
5/29/2022 7:15:00 AM 14.15 57.47 0.131 7.16 4.42 9.63
5/29/2022 7:30:00 AM 14.15 57.47 0.131 7.15 4.14 9.63
5/29/2022 7:45:00 AM 14.2 57.56 0.131 7.2 3.95 9.77
5/29/2022 8:00:00 AM 14.19 57.542 0.131 7.19 4.49 9.71
5/29/2022 8:15:00 AM 14.21 57.578 0.131 7.12 4.14 9.69
5/29/2022 8:30:00 AM 14.25 57.65 0.13 7.15 3.93 9.71
5/29/2022 8:45:00 AM 14.31 57.758 0.131 7.2 4.07 9.71
5/29/2022 9:00:00 AM 14.35 57.83 0.131 7.14 4.1 9.64
5/29/2022 9:15:00 AM 14.46 58.028 0.13 7.2 3.93 9.81
5/29/2022 9:30:00 AM 14.58 58.244 0.13 7.18 4.19 9.81
5/29/2022 9:45:00 AM 14.69 58.442 0.13 7.2 3.82 9.79
5/29/2022 10:00:00 AM 14.86 58.748 0.13 7.24 3.78 9.81
5/29/2022 10:15:00 AM 15.06 59.108 0.13 7.25 3.94 9.76
5/29/2022 10:30:00 AM 15.21 59.378 0.129 7.19 3.95 9.69
5/29/2022 10:45:00 AM 15.46 59.828 0.13 7.29 4.05 9.72
5/29/2022 11:00:00 AM 15.62 60.116 0.13 7.28 3.58 9.68
5/29/2022 11:15:00 AM 15.76 60.368 0.129 7.24 3.84 9.67
5/29/2022 11:30:00 AM 16 60.8 0.13 7.27 3.51 9.57
5/29/2022 11:45:00 AM 16.3 61.34 0.129 7.32 3.85 9.59
5/29/2022 12:00:00 PM 16.52 61.736 0.13 7.28 3.82 9.54
5/29/2022 12:15:00 PM 16.69 62.042 0.13 7.28 3.8 9.44
5/29/2022 12:30:00 PM 16.96 62.528 0.13 7.3 3.76 9.47
5/29/2022 12:45:00 PM 17.16 62.888 0.13 7.3 4.1 9.4
5/29/2022 1:00:00 PM 17.41 63.338 0.13 7.3 3.9 9.41
5/29/2022 1:15:00 PM 17.58 63.644 0.13 7.35 4.07 9.29
5/29/2022 1:30:00 PM 17.7 63.86 0.13 7.24 4.16 9.27
5/29/2022 1:45:00 PM 17.86 64.148 0.13 7.35 4.04 9.23
5/29/2022 2:00:00 PM 18.06 64.508 0.13 7.36 4.38 9.26
5/29/2022 2:15:00 PM 18.14 64.652 0.13 7.36 4.09 9.2
5/29/2022 2:30:00 PM 18.2 64.76 0.131 7.33 4.28 9.19
5/29/2022 2:45:00 PM 18.24 64.832 0.13 7.29 3.94 9.13
5/29/2022 3:00:00 PM 18.35 65.03 0.13 7.33 3.97 9.19
5/29/2022 3:15:00 PM 18.33 64.994 0.13 7.27 4.31 9.08
5/29/2022 3:30:00 PM 18.47 65.246 0.131 7.36 4.19 9.14
5/29/2022 3:45:00 PM 18.44 65.192 0.131 7.33 4.22 9.1
5/29/2022 4:00:00 PM 18.53 65.354 0.131 7.34 4.05 9.09
5/29/2022 4:15:00 PM 18.51 65.318 0.131 7.3 4 8.98
5/29/2022 4:30:00 PM 18.6 65.48 0.131 7.35 3.82 9.08
5/29/2022 4:45:00 PM 18.56 65.408 0.132 7.26 3.84 8.99
5/29/2022 5:00:00 PM 18.64 65.552 0.131 7.33 3.84 8.99
5/29/2022 5:15:00 PM 18.66 65.588 0.131 7.33 3.88 9.01
5/29/2022 5:30:00 PM 18.67 65.606 0.131 7.32 3.84 8.99
5/29/2022 5:45:00 PM 18.63 65.534 0.132 7.26 4.29 8.9
5/29/2022 6:00:00 PM 18.64 65.552 0.132 7.27 4 8.91
5/29/2022 6:15:00 PM 18.64 65.552 0.132 7.31 3.92 8.94
5/29/2022 6:30:00 PM 18.51 65.318 0.132 7.27 3.92 8.86
5/29/2022 6:45:00 PM 18.45 65.21 0.133 7.26 4.1 8.85
5/29/2022 7:00:00 PM 18.38 65.084 0.133 7.25 3.94 8.84
5/29/2022 7:15:00 PM 18.32 64.976 0.133 7.28 4.03 8.81
5/29/2022 7:30:00 PM 18.17 64.706 0.132 7.21 3.91 8.57
5/29/2022 7:45:00 PM 18.15 64.67 0.133 7.18 4.17 8.69
5/29/2022 8:00:00 PM 18.09 64.562 0.133 7.22 4.2 8.74
5/29/2022 8:15:00 PM 17.98 64.364 0.133 7.18 4.05 8.65
5/29/2022 8:30:00 PM 17.88 64.184 0.134 7.18 4.07 8.64
5/29/2022 8:45:00 PM 17.82 64.076 0.134 7.16 4.33 8.68
5/29/2022 9:00:00 PM 17.72 63.896 0.133 7.16 4.23 8.67
5/29/2022 9:15:00 PM 17.64 63.752 0.134 7.15 4.41 8.65
5/29/2022 9:30:00 PM 17.52 63.536 0.134 7.15 4.21 8.66
5/29/2022 9:45:00 PM 17.43 63.374 0.135 7.14 4.33 8.76
5/29/2022 10:00:00 PM 17.29 63.122 0.134 7.15 4.45 8.73
5/29/2022 10:15:00 PM 17.18 62.924 0.135 7.17 4.17 8.81
5/29/2022 10:30:00 PM 17 62.6 0.135 7.1 4.09 8.75
5/29/2022 10:45:00 PM 16.89 62.402 0.135 7.13 4.26 8.83
5/29/2022 11:00:00 PM 16.76 62.168 0.135 7.11 4.09 8.89
5/29/2022 11:15:00 PM 16.65 61.97 0.135 7.14 4.07 8.93
5/29/2022 11:30:00 PM 16.5 61.7 0.135 7.13 4.39 8.89
5/29/2022 11:45:00 PM 16.36 61.448 0.135 7.1 3.95 8.86
5/30/2022 12:00:00 AM 16.31 61.358 0.135 7.15 4.17 9.01
5/30/2022 12:15:00 AM 16.22 61.196 0.135 7.15 4.26 9.07
5/30/2022 12:30:00 AM 16.09 60.962 0.135 7.11 4.09 9.02
5/30/2022 12:45:00 AM 15.99 60.782 0.135 7.12 4.37 9.01
5/30/2022 1:00:00 AM 15.93 60.674 0.135 7.14 4.02 9.1
5/30/2022 1:15:00 AM 15.85 60.53 0.135 7.15 3.92 9.12
5/30/2022 1:30:00 AM 15.75 60.35 0.135 7.14 4.09 9.12
5/30/2022 1:45:00 AM 15.68 60.224 0.135 7.16 4.2 9.14
5/30/2022 2:00:00 AM 15.54 59.972 0.135 7.07 4.17 8.99
5/30/2022 2:15:00 AM 15.54 59.972 0.135 7.15 5.05 9.23
5/30/2022 2:30:00 AM 15.43 59.774 0.135 7.12 3.95 9.14
5/30/2022 2:45:00 AM 15.37 59.666 0.135 7.1 4.3 9.18
5/30/2022 3:00:00 AM 15.31 59.558 0.135 7.13 3.73 9.25
5/30/2022 3:15:00 AM 15.25 59.45 0.135 7.14 4.03 9.25
5/30/2022 3:30:00 AM 15.17 59.306 0.135 7.13 3.93 9.25
5/30/2022 3:45:00 AM 15.08 59.144 0.135 7.1 4.09 9.15
5/30/2022 4:00:00 AM 15.03 59.054 0.135 7.1 4.01 9.23
5/30/2022 4:15:00 AM 14.96 58.928 0.135 7.09 3.99 9.22
5/30/2022 4:30:00 AM 14.93 58.874 0.136 7.13 14.32 9.32
5/30/2022 4:45:00 AM 14.85 58.73 0.135 7.11 4.08 9.28
5/30/2022 5:00:00 AM 14.81 58.658 0.135 7.12 4.23 9.32
5/30/2022 5:15:00 AM 14.77 58.586 0.136 7.13 4.77 9.38
5/30/2022 5:30:00 AM 14.71 58.478 0.136 7.12 4.36 9.37
5/30/2022 5:45:00 AM 14.66 58.388 0.136 7.14 4.4 9.4
5/30/2022 6:00:00 AM 14.61 58.298 0.136 7.12 6.15 9.42
5/30/2022 6:15:00 AM 14.57 58.226 0.136 7.13 4.27 9.45
5/30/2022 6:30:00 AM 14.54 58.172 0.136 7.13 4.07 9.48
5/30/2022 6:45:00 AM 14.53 58.154 0.136 7.14 4.63 9.5
5/30/2022 7:00:00 AM 14.51 58.118 0.135 7.09 3.82 9.46
5/30/2022 7:15:00 AM 14.55 58.19 0.136 7.17 4.02 9.62
5/30/2022 7:30:00 AM 14.52 58.136 0.136 7.13 4.42 9.56
5/30/2022 7:45:00 AM 14.57 58.226 0.136 7.17 4.31 9.64
5/30/2022 8:00:00 AM 14.55 58.19 0.135 7.16 3.85 9.56
5/30/2022 8:15:00 AM 14.6 58.28 0.136 7.18 4.03 9.62
5/30/2022 8:30:00 AM 14.68 58.424 0.136 7.2 3.59 9.68
5/30/2022 8:45:00 AM 14.73 58.514 0.135 7.18 3.57 9.63
5/30/2022 9:00:00 AM 14.85 58.73 0.135 7.18 4.17 9.63
5/30/2022 9:15:00 AM 14.9 58.82 0.135 7.1 4.06 9.53
5/30/2022 9:30:00 AM 15.07 59.126 0.135 7.13 3.77 9.57
5/30/2022 9:45:00 AM 15.28 59.504 0.135 7.13 3.8 9.61
5/30/2022 10:00:00 AM 15.39 59.702 0.135 7.19 4.47 9.58
5/30/2022 10:15:00 AM 15.51 59.918 0.135 7.21 4.16 9.61
5/30/2022 10:30:00 AM 15.6 60.08 0.135 7.25 4.06 9.67
5/30/2022 10:45:00 AM 15.64 60.152 0.135 7.23 3.77 9.56
5/30/2022 11:00:00 AM 15.83 60.494 0.134 7.3 3.99 9.68
5/30/2022 11:15:00 AM 15.89 60.602 0.135 7.24 3.77 9.62
5/30/2022 11:30:00 AM 15.97 60.746 0.135 7.23 4.29 9.61
5/30/2022 11:45:00 AM 16.25 61.25 0.135 7.33 4.53 9.7
5/30/2022 12:00:00 PM 16.53 61.754 0.135 7.33 4.21 9.72
5/30/2022 12:15:00 PM 16.68 62.024 0.135 7.34 3.84 9.63
5/30/2022 12:30:00 PM 17.14 62.852 0.135 7.43 3.69 9.65
5/30/2022 12:45:00 PM 17.29 63.122 0.134 7.37 3.92 9.55
5/30/2022 1:00:00 PM 17.57 63.626 0.134 7.35 4.04 9.48
5/30/2022 1:15:00 PM 17.89 64.202 0.134 7.37 3.76 9.42
5/30/2022 1:30:00 PM 18.14 64.652 0.134 7.39 3.98 9.31
5/30/2022 1:45:00 PM 18.45 65.21 0.135 7.44 5.33 9.33
5/30/2022 2:00:00 PM 18.65 65.57 0.134 7.43 4.27 9.27
5/30/2022 2:15:00 PM 18.82 65.876 0.135 7.44 4.09 9.24
5/30/2022 2:30:00 PM 18.98 66.164 0.135 7.4 3.97 9.15
5/30/2022 2:45:00 PM 19.13 66.434 0.135 7.42 3.94 9.12
5/30/2022 3:00:00 PM 19.18 66.524 0.135 7.38 4.2 9.06
5/30/2022 3:15:00 PM 19.21 66.578 0.135 7.36 4.16 8.99
5/30/2022 3:30:00 PM 19.34 66.812 0.135 7.42 4.04 9.06
5/30/2022 3:45:00 PM 19.36 66.848 0.135 7.38 4.22 8.99
5/30/2022 4:00:00 PM 19.42 66.956 0.135 7.39 4.38 8.98
5/30/2022 4:15:00 PM 19.5 67.1 0.136 7.41 3.93 8.99
5/30/2022 4:30:00 PM 19.46 67.028 0.136 7.35 3.94 8.9
5/30/2022 4:45:00 PM 19.53 67.154 0.135 7.39 4.07 8.9
5/30/2022 5:00:00 PM 19.56 67.208 0.136 7.38 4.36 8.91
5/30/2022 5:15:00 PM 19.57 67.226 0.136 7.38 4.04 8.86
5/30/2022 5:30:00 PM 19.52 67.136 0.136 7.27 4.7 8.72
5/30/2022 5:45:00 PM 19.54 67.172 0.136 7.32 3.75 8.8
5/30/2022 6:00:00 PM 19.51 67.118 0.136 7.29 4.16 8.69
5/30/2022 6:15:00 PM 19.52 67.136 0.137 7.33 4.41 8.78
5/30/2022 6:30:00 PM 19.45 67.01 0.137 7.32 4.24 8.75
5/30/2022 6:45:00 PM 19.36 66.848 0.137 7.28 3.91 8.69
5/30/2022 7:00:00 PM 19.25 66.65 0.137 7.24 4.13 8.61
5/30/2022 7:15:00 PM 19.22 66.596 0.137 7.24 4.41 8.6
5/30/2022 7:30:00 PM 19.19 66.542 0.138 7.27 4.13 8.62
5/30/2022 7:45:00 PM 19.13 66.434 0.138 7.26 4.33 8.59
5/30/2022 8:00:00 PM 19.06 66.308 0.138 7.2 6.55 8.57
5/30/2022 8:15:00 PM 18.97 66.146 0.138 7.2 5.52 8.5
5/30/2022 8:30:00 PM 18.91 66.038 0.138 7.17 3.93 8.48
5/30/2022 8:45:00 PM 18.78 65.804 0.138 7.14 4.68 8.41
5/30/2022 9:00:00 PM 18.78 65.804 0.138 7.17 4.59 8.47
5/30/2022 9:15:00 PM 18.69 65.642 0.138 7.14 4.45 8.39
5/30/2022 9:30:00 PM 18.63 65.534 0.139 7.15 4.28 8.5
5/30/2022 9:45:00 PM 18.55 65.39 0.139 7.15 4.32 8.47
5/30/2022 10:00:00 PM 18.43 65.174 0.139 7.11 4.5 8.39
5/30/2022 10:15:00 PM 18.41 65.138 0.139 7.16 4.05 8.57
5/30/2022 10:30:00 PM 18.23 64.814 0.139 7.11 4.27 8.43
5/30/2022 10:45:00 PM 18.18 64.724 0.139 7.12 3.91 8.53
5/30/2022 11:00:00 PM 18.1 64.58 0.14 7.13 4.49 8.58
5/30/2022 11:15:00 PM 18.01 64.418 0.14 7.13 4.31 8.66
5/30/2022 11:30:00 PM 17.87 64.166 0.14 7.1 4.39 8.59
5/30/2022 11:45:00 PM 17.79 64.022 0.14 7.12 4.55 8.62
5/31/2022 12:00:00 AM 17.71 63.878 0.14 7.12 4.45 8.66
5/31/2022 12:15:00 AM 17.62 63.716 0.14 7.12 4.57 8.67
5/31/2022 12:30:00 AM 17.52 63.536 0.14 7.12 4.36 8.67
5/31/2022 12:45:00 AM 17.43 63.374 0.14 7.08 3.94 8.63
5/31/2022 1:00:00 AM 17.34 63.212 0.14 7.11 4.85 8.7
5/31/2022 1:15:00 AM 17.27 63.086 0.14 7.08 4.35 8.67
5/31/2022 1:30:00 AM 17.16 62.888 0.14 7.06 4.55 8.59
5/31/2022 1:45:00 AM 17.17 62.906 0.14 7.12 4.2 8.8
5/31/2022 2:00:00 AM 17.1 62.78 0.14 7.11 4.03 8.81
5/31/2022 2:15:00 AM 16.96 62.528 0.14 7.03 4.47 8.62
5/31/2022 2:30:00 AM 16.98 62.564 0.14 7.12 4.25 8.85
5/31/2022 2:45:00 AM 16.82 62.276 0.139 7.05 3.99 8.64
5/31/2022 3:00:00 AM 16.83 62.294 0.14 7.09 4.28 8.79
5/31/2022 3:15:00 AM 16.78 62.204 0.14 7.09 4.11 8.83
5/31/2022 3:30:00 AM 16.71 62.078 0.138 7.08 3.94 8.81
5/31/2022 3:45:00 AM 16.66 61.988 0.14 7.09 4.02 8.86
5/31/2022 4:00:00 AM 16.64 61.952 0.14 7.11 4 8.9
5/31/2022 4:15:00 AM 16.56 61.808 0.14 7.1 3.88 8.84
5/31/2022 4:30:00 AM 16.52 61.736 0.14 7.1 3.8 8.92
5/31/2022 4:45:00 AM 16.43 61.574 0.141 7.06 4.21 8.82
5/31/2022 5:00:00 AM 16.41 61.538 0.14 7.09 4.44 8.9
5/31/2022 5:15:00 AM 16.37 61.466 0.141 7.1 5.21 8.96
5/31/2022 5:30:00 AM 16.3 61.34 0.141 7.1 5.02 8.93
5/31/2022 5:45:00 AM 16.19 61.142 0.141 7.03 5 8.72
5/31/2022 6:00:00 AM 16.22 61.196 0.141 7.1 4.97 8.99
5/31/2022 6:15:00 AM 16.18 61.124 0.141 7.11 5.15 9.01
5/31/2022 6:30:00 AM 16.15 61.07 0.14 7.13 4.63 9.07
5/31/2022 6:45:00 AM 16.05 60.89 0.14 7.05 4.37 8.83
5/31/2022 7:00:00 AM 16.07 60.926 0.14 7.08 4.78 9.05
5/31/2022 7:15:00 AM 16.1 60.98 0.14 7.13 4.21 9.14
5/31/2022 7:30:00 AM 16.06 60.908 0.14 7.11 3.75 9.07
5/31/2022 7:45:00 AM 16.08 60.944 0.141 7.09 3.99 9.04
5/31/2022 8:00:00 AM 16.12 61.016 0.14 7.14 4.04 9.17
5/31/2022 8:15:00 AM 16.14 61.052 0.14 7.12 4.06 9.13
5/31/2022 8:30:00 AM 16.16 61.088 0.14 7.1 3.86 9.09
5/31/2022 8:45:00 AM 16.29 61.322 0.14 7.16 3.76 9.2
5/31/2022 9:00:00 AM 16.37 61.466 0.139 7.16 4.1 9.23
5/31/2022 9:15:00 AM 16.53 61.754 0.14 7.17 4.4 9.25
5/31/2022 9:30:00 AM 16.68 62.024 0.14 7.21 4.11 9.22
5/31/2022 9:45:00 AM 16.84 62.312 0.14 7.2 3.81 9.19
5/31/2022 10:00:00 AM 17.09 62.762 0.14 7.23 4.11 9.24
5/31/2022 10:15:00 AM 17.24 63.032 0.139 7.19 3.79 9.07
5/31/2022 10:30:00 AM 17.52 63.536 0.14 7.28 3.83 9.11
5/31/2022 10:45:00 AM 17.76 63.968 0.14 7.24 3.86 9.12
5/31/2022 11:00:00 AM 18.03 64.454 0.14 7.3 4.84 9.14
5/31/2022 11:15:00 AM 18.25 64.85 0.14 7.32 4.01 9.13
5/31/2022 11:30:00 AM 18.56 65.408 0.14 7.35 3.95 9.14
5/31/2022 11:45:00 AM 18.86 65.948 0.14 7.42 3.72 9.09
5/31/2022 12:00:00 PM 19.07 66.326 0.14 7.39 3.69 9.07
5/31/2022 12:15:00 PM 19.2 66.56 0.139 7.35 4.22 9.03
5/31/2022 12:30:00 PM 19.48 67.064 0.139 7.4 3.82 9.06
5/31/2022 12:45:00 PM 19.64 67.352 0.14 7.36 3.74 9.02
5/31/2022 1:00:00 PM 19.79 67.622 0.14 7.33 3.84 8.94
5/31/2022 1:15:00 PM 20.18 68.324 0.14 7.47 3.82 8.99
5/31/2022 1:30:00 PM 20.3 68.54 0.14 7.46 4.33 8.89
5/31/2022 1:45:00 PM 20.41 68.738 0.139 7.44 4.23 8.87
5/31/2022 2:00:00 PM 20.52 68.936 0.139 7.41 4.11 8.8
5/31/2022 2:15:00 PM 20.84 69.512 0.14 7.49 3.77 8.84
5/31/2022 2:30:00 PM 20.89 69.602 0.14 7.47 4.04 8.84
5/31/2022 2:45:00 PM 21.02 69.836 0.14 7.51 3.8 8.84
5/31/2022 3:00:00 PM 21.04 69.872 0.14 7.5 4.03 8.8
5/31/2022 3:15:00 PM 21.05 69.89 0.14 7.45 3.91 8.77
5/31/2022 3:30:00 PM 21.1 69.98 0.14 7.49 3.95 8.77
5/31/2022 3:45:00 PM 21.1 69.98 0.14 7.47 3.71 8.73
5/31/2022 4:00:00 PM 21.11 69.998 0.14 7.48 3.81 8.74
5/31/2022 4:15:00 PM 21.09 69.962 0.14 7.47 3.81 8.71
5/31/2022 4:30:00 PM 21.08 69.944 0.141 7.46 3.99 8.67
5/31/2022 4:45:00 PM 21.05 69.89 0.14 7.44 4.06 8.66
5/31/2022 5:00:00 PM 21.04 69.872 0.14 7.44 3.59 8.64
5/31/2022 5:15:00 PM 21.01 69.818 0.14 7.41 3.76 8.6
5/31/2022 5:30:00 PM 20.97 69.746 0.141 7.38 6.09 8.56
5/31/2022 5:45:00 PM 20.97 69.746 0.141 7.41 3.73 8.59
5/31/2022 6:00:00 PM 20.93 69.674 0.141 7.39 3.8 8.53
5/31/2022 6:15:00 PM 20.83 69.494 0.141 7.39 3.71 8.55
5/31/2022 6:30:00 PM 20.71 69.278 0.141 7.35 4.14 8.5
5/31/2022 6:45:00 PM 20.58 69.044 0.141 7.3 4.31 8.38
5/31/2022 7:00:00 PM 20.51 68.918 0.141 7.32 3.91 8.45
5/31/2022 7:15:00 PM 20.42 68.756 0.142 7.3 3.72 8.4
5/31/2022 7:30:00 PM 20.32 68.576 0.141 7.28 4.33 8.37
5/31/2022 7:45:00 PM 20.25 68.45 0.142 7.27 10.64 8.38
5/31/2022 8:00:00 PM 20.14 68.252 0.142 7.23 6.12 8.26
5/31/2022 8:15:00 PM 20.11 68.198 0.142 7.24 4.81 8.31
5/31/2022 8:30:00 PM 20.04 68.07201 0.142 7.22 4.89 8.16
5/31/2022 8:45:00 PM 19.89 67.802 0.142 7.15 4.68 8.05
5/31/2022 9:00:00 PM 19.91 67.838 0.142 7.2 4.22 8.23
5/31/2022 9:15:00 PM 19.82 67.676 0.142 7.19 4.46 8.23
5/31/2022 9:30:00 PM 19.74 67.532 0.142 7.19 4.59 8.24
5/31/2022 9:45:00 PM 19.64 67.352 0.142 7.18 5.1 8.29
5/31/2022 10:00:00 PM 19.56 67.208 0.142 7.18 4.44 8.27
5/31/2022 10:15:00 PM 19.47 67.046 0.142 7.18 4.25 8.34
5/31/2022 10:30:00 PM 19.36 66.848 0.143 7.16 4.28 8.35
5/31/2022 10:45:00 PM 19.23 66.614 0.142 7.13 4.64 8.23
5/31/2022 11:00:00 PM 19.13 66.434 0.142 7.15 4.86 8.32
5/31/2022 11:15:00 PM 19.05 66.29 0.143 7.15 3.99 8.36
5/31/2022 11:30:00 PM 18.96 66.128 0.143 7.13 3.98 8.33
5/31/2022 11:45:00 PM 18.88 65.984 0.143 7.11 3.95 8.27
6/1/2022 12:00:00 AM 18.81 65.858 0.143 7.13 4.26 8.41
6/1/2022 12:15:00 AM 18.76 65.768 0.143 7.14 4.27 8.36
6/1/2022 12:30:00 AM 18.67 65.606 0.143 7.14 4.18 8.41
6/1/2022 12:45:00 AM 18.63 65.534 0.143 7.14 4.07 8.47
6/1/2022 1:00:00 AM 18.55 65.39 0.143 7.13 4.47 8.45
6/1/2022 1:15:00 AM 18.43 65.174 0.143 7.1 3.93 8.35
6/1/2022 1:30:00 AM 18.39 65.102 0.143 7.15 4.03 8.51
6/1/2022 1:45:00 AM 18.3 64.94 0.143 7.15 4.16 8.5
6/1/2022 2:00:00 AM 18.14 64.652 0.143 7.11 1.8 8.18
6/1/2022 2:15:00 AM 18.1 64.58 0.143 7.11 4.84 8.49
6/1/2022 2:30:00 AM 18.04 64.472 0.143 7.12 4.35 8.47
6/1/2022 2:45:00 AM 17.99 64.382 0.143 7.15 3.91 8.56
6/1/2022 3:00:00 AM 17.9 64.22 0.143 7.13 4.65 8.52
6/1/2022 3:15:00 AM 17.84 64.112 0.144 7.12 5.15 8.57
6/1/2022 3:30:00 AM 17.74 63.932 0.143 7.09 5.02 8.49
6/1/2022 3:45:00 AM 17.69 63.842 0.144 7.06 4.08 8.46
6/1/2022 4:00:00 AM 17.71 63.878 0.143 7.12 5.19 8.61
6/1/2022 4:15:00 AM 17.64 63.752 0.144 7.13 4.29 8.6
6/1/2022 4:30:00 AM 17.59 63.662 0.144 7.14 4.25 8.66
6/1/2022 4:45:00 AM 17.49 63.482 0.144 7.1 4.43 8.5
6/1/2022 5:00:00 AM 17.47 63.446 0.144 7.11 5.17 8.61
6/1/2022 5:15:00 AM 17.43 63.374 0.144 7.14 4.85 8.68
6/1/2022 5:30:00 AM 17.35 63.23 0.144 7.14 5.12 8.61
6/1/2022 5:45:00 AM 17.32 63.176 0.144 7.11 5.75 8.65
6/1/2022 6:00:00 AM 17.27 63.086 0.144 7.12 4.42 8.66
6/1/2022 6:15:00 AM 17.16 62.888 0.144 7.11 4.5 8.56
6/1/2022 6:30:00 AM 17.19 62.942 0.145 7.14 1.84 8.75
6/1/2022 6:45:00 AM 17.17 62.906 0.144 7.14 4.89 8.74
6/1/2022 7:00:00 AM 17.14 62.852 0.144 7.15 4.42 8.81
6/1/2022 7:15:00 AM 17.12 62.816 0.145 7.12 3.81 8.75
6/1/2022 7:30:00 AM 17.08 62.744 0.144 7.15 3.9 8.73
6/1/2022 7:45:00 AM 17.11 62.798 0.144 7.13 3.83 8.85
6/1/2022 8:00:00 AM 17.07 62.726 0.144 7.14 3.97 8.78
6/1/2022 8:15:00 AM 17.16 62.888 0.144 7.21 3.73 8.98
6/1/2022 8:30:00 AM 17.18 62.924 0.144 7.21 3.75 8.97
6/1/2022 8:45:00 AM 17.22 62.996 0.144 7.22 3.7 9.04
6/1/2022 9:00:00 AM 17.23 63.014 0.144 7.22 3.72 8.96
6/1/2022 9:15:00 AM 17.26 63.068 0.144 7.22 3.55 8.94
6/1/2022 9:30:00 AM 17.36 63.248 0.144 7.24 3.61 9.09
6/1/2022 9:45:00 AM 17.51 63.518 0.144 7.29 3.78 9.17
6/1/2022 10:00:00 AM 17.62 63.716 0.144 7.3 3.76 9.17
6/1/2022 10:15:00 AM 17.76 63.968 0.144 7.31 4.02 9.17
6/1/2022 10:30:00 AM 17.91 64.238 0.143 7.27 3.78 9.13
6/1/2022 10:45:00 AM 18.14 64.652 0.144 7.32 3.74 9.14
6/1/2022 11:00:00 AM 18.35 65.03 0.144 7.34 3.66 9.08
6/1/2022 11:15:00 AM 18.66 65.588 0.144 7.37 4.16 9.14
6/1/2022 11:30:00 AM 18.92 66.056 0.144 7.41 3.88 9.13
6/1/2022 11:45:00 AM 19.17 66.506 0.143 7.41 3.74 9.05
6/1/2022 12:00:00 PM 19.45 67.01 0.144 7.46 3.72 9.11
6/1/2022 12:15:00 PM 19.63 67.334 0.143 7.44 3.73 9.04
6/1/2022 12:30:00 PM 19.95 67.91 0.143 7.5 3.72 9.06
6/1/2022 12:45:00 PM 20.02 68.036 0.143 7.49 3.72 8.99
6/1/2022 1:00:00 PM 20.09 68.162 0.143 7.46 3.97 8.98
6/1/2022 1:15:00 PM 20.24 68.432 0.143 7.46 3.92 8.97
6/1/2022 1:30:00 PM 20.26 68.468 0.143 7.48 4.11 8.9
6/1/2022 1:45:00 PM 20.15 68.27 0.143 7.46 3.88 8.82
6/1/2022 2:00:00 PM 20.06 68.108 0.143 7.4 4.23 8.77
6/1/2022 2:15:00 PM 20.09 68.162 0.143 7.44 4.31 8.8
6/1/2022 2:30:00 PM 20 68 0.143 7.41 4 8.74
6/1/2022 2:45:00 PM 20.08 68.144 0.143 7.41 3.94 8.78
6/1/2022 3:00:00 PM 20.18 68.324 0.143 7.45 3.72 8.85
6/1/2022 3:15:00 PM 20.29 68.522 0.144 7.47 4.18 8.88
6/1/2022 3:30:00 PM 20.37 68.666 0.144 7.46 3.87 8.89
6/1/2022 3:45:00 PM 20.41 68.738 0.144 7.48 3.96 8.8
6/1/2022 4:00:00 PM 20.3 68.54 0.144 7.42 4.06 8.7
6/1/2022 4:15:00 PM 20.31 68.558 0.144 7.46 3.64 8.78
6/1/2022 4:30:00 PM 20.23 68.414 0.144 7.43 3.74 8.7
6/1/2022 4:45:00 PM 20.1 68.18 0.143 7.38 4.2 8.63
6/1/2022 5:00:00 PM 20.01 68.018 0.144 7.37 4.1 8.57
6/1/2022 5:15:00 PM 19.88 67.784 0.144 7.35 4.01 8.49
6/1/2022 5:30:00 PM 19.78 67.604 0.142 7.35 7.92 8.47
6/1/2022 5:45:00 PM 19.78 67.604 0.115 7.27 27.03 8.49
6/1/2022 6:00:00 PM 19.6 67.28 0.103 7.15 53.93 8.5
6/1/2022 6:15:00 PM 19.37 66.866 0.104 7.06 32.46 8.34
6/1/2022 6:30:00 PM 19.24 66.632 0.114 7.06 30.74 8.39
6/1/2022 6:45:00 PM 19.15 66.47 0.122 6.99 73.15 8.3
6/1/2022 7:00:00 PM 19.07 66.326 0.124 7.02 52.5 8.3
6/1/2022 7:15:00 PM 19.12 66.416 0.124 7 33.63 8.27
6/1/2022 7:30:00 PM 19.14 66.452 0.116 7.02 26.15 8.38
6/1/2022 7:45:00 PM 19.06 66.308 0.113 6.95 21.95 8.17
6/1/2022 8:00:00 PM 18.91 66.038 0.106 6.96 25.58 8.33
6/1/2022 8:15:00 PM 18.79 65.82201 0.117 6.99 33.33 8.46
6/1/2022 8:30:00 PM 18.71 65.67799 0.122 7 40.01 8.46
6/1/2022 8:45:00 PM 18.57 65.426 0.121 6.9 33.64 8.27
6/1/2022 9:00:00 PM 18.57 65.426 0.12 6.98 42.25 8.29
6/1/2022 9:15:00 PM 18.53 65.354 0.121 6.91 38.06 8.47
6/1/2022 9:30:00 PM 18.62 65.516 0.122 7.04 56.19 8.58
6/1/2022 9:45:00 PM 18.62 65.516 0.122 7.03 23.98 8.59
6/1/2022 10:00:00 PM 18.59 65.462 0.121 7.04 31.94 8.6
6/1/2022 10:15:00 PM 18.61 65.498 0.122 7.05 26.47 8.63
6/1/2022 10:30:00 PM 18.53 65.354 0.122 7 32 8.46
6/1/2022 10:45:00 PM 18.5 65.3 0.122 6.99 32 8.53
6/1/2022 11:00:00 PM 18.46 65.228 0.122 7.01 58.46 8.39
6/1/2022 11:15:00 PM 18.41 65.138 0.121 6.96 22.25 8.47
6/1/2022 11:30:00 PM 18.45 65.21 0.119 7.04 25.27 8.59
6/1/2022 11:45:00 PM 18.35 65.03 0.12 7.01 28.37 8.44
6/2/2022 12:00:00 AM 18.34 65.012 0.119 6.99 65.81 8.63
6/2/2022 12:15:00 AM 18.28 64.904 0.119 6.99 24.01 8.52
6/2/2022 12:30:00 AM 18.16 64.688 0.119 6.95 22.26 8.42
6/2/2022 12:45:00 AM 18.2 64.76 0.119 7.01 23.06 8.63
6/2/2022 1:00:00 AM 18.11 64.598 0.119 6.96 16.73 8.5
6/2/2022 1:15:00 AM 18.06 64.508 0.12 6.99 39.56 8.52
6/2/2022 1:30:00 AM 18.04 64.472 0.12 7 17.51 8.54
6/2/2022 1:45:00 AM 18.01 64.418 0.121 7.01 17.19 8.63
6/2/2022 2:00:00 AM 17.95 64.31 0.122 7.01 14.2 8.61
6/2/2022 2:15:00 AM 17.96 64.328 0.122 7.04 12.51 8.68
6/2/2022 2:30:00 AM 17.92 64.256 0.123 7.01 14.12 8.69
6/2/2022 2:45:00 AM 17.9 64.22 0.124 7.06 13.54 8.78
6/2/2022 3:00:00 AM 17.78 64.004 0.124 6.98 11.46 8.58
6/2/2022 3:15:00 AM 17.84 64.112 0.125 7.09 11.97 8.79
6/2/2022 3:30:00 AM 17.77 63.986 0.125 7.01 11.85 8.75
6/2/2022 3:45:00 AM 17.76 63.968 0.125 7.03 10.5 8.76
6/2/2022 4:00:00 AM 17.7 63.86 0.124 7 11.92 8.76
6/2/2022 4:15:00 AM 17.77 63.986 0.124 7.05 9.52 8.79
6/2/2022 4:30:00 AM 17.73 63.914 0.124 7.03 10.73 8.75
6/2/2022 4:45:00 AM 17.73 63.914 0.123 7.01 9.87 8.79
6/2/2022 5:00:00 AM 17.72 63.896 0.123 7 9.15 8.71
6/2/2022 5:15:00 AM 17.68 63.824 0.122 6.95 9.14 8.65
6/2/2022 5:30:00 AM 17.78 64.004 0.122 6.99 11.43 8.8
6/2/2022 5:45:00 AM 17.81 64.058 0.122 7.06 10.79 8.77
6/2/2022 6:00:00 AM 17.74 63.932 0.121 7.01 11.72 8.63
6/2/2022 6:15:00 AM 17.83 64.094 0.121 7.03 10.93 8.81
6/2/2022 6:30:00 AM 17.77 63.986 0.121 6.99 11.45 8.66
6/2/2022 6:45:00 AM 17.87 64.166 0.121 7.03 9.28 8.78
6/2/2022 7:00:00 AM 17.89 64.202 0.12 7.03 9.21 8.77
6/2/2022 7:15:00 AM 17.87 64.166 0.12 6.99 11.23 8.69
6/2/2022 7:30:00 AM 17.89 64.202 0.12 6.95 9.57 8.74
6/2/2022 7:45:00 AM 17.86 64.148 0.119 6.95 8.32 8.67
6/2/2022 8:00:00 AM 18.01 64.418 0.119 7.02 7.88 8.81
6/2/2022 8:15:00 AM 18.01 64.418 0.118 7.01 7.58 8.73
6/2/2022 8:30:00 AM 18.1 64.58 0.119 7.08 8.03 8.85
6/2/2022 8:45:00 AM 18.13 64.634 0.119 7.04 8.5 8.8
6/2/2022 9:00:00 AM 18.12 64.616 0.119 7.03 7.09 8.8
6/2/2022 9:15:00 AM 18.16 64.688 0.119 7.1 6.27 8.74
6/2/2022 9:30:00 AM 18.28 64.904 0.118 7.13 6.04 8.84
6/2/2022 9:45:00 AM 18.25 64.85 0.118 7.1 6.57 8.77
6/2/2022 10:00:00 AM 18.41 65.138 0.118 7.19 6.59 8.89
6/2/2022 10:15:00 AM 18.52 65.336 0.118 7.21 6.41 8.9
6/2/2022 10:30:00 AM 18.68 65.624 0.118 7.22 6.21 8.94
6/2/2022 10:45:00 AM 18.76 65.768 0.117 7.26 6.64 8.94
6/2/2022 11:00:00 AM 18.6 65.48 0.117 7.09 6.6 8.72
6/2/2022 11:15:00 AM 18.84 65.912 0.117 7.18 6.7 8.92
6/2/2022 11:30:00 AM 18.82 65.876 0.117 7.13 6.46 8.74
6/2/2022 11:45:00 AM 18.99 66.182 0.117 7.21 6.86 8.9
6/2/2022 12:00:00 PM 18.95 66.11 0.117 7.15 6.51 8.76
6/2/2022 12:15:00 PM 18.96 66.128 0.117 7.14 6.4 8.7
6/2/2022 12:30:00 PM 19.16 66.488 0.117 7.22 7.36 8.8
6/2/2022 12:45:00 PM 19.06 66.308 0.117 7.07 6.97 8.68
6/2/2022 1:00:00 PM 19.2 66.56 0.117 7.14 7.17 8.64
6/2/2022 1:15:00 PM 19.18 66.524 0.117 7.14 6.61 8.66
6/2/2022 1:30:00 PM 19.32 66.776 0.117 7.14 7.19 8.68
6/2/2022 1:45:00 PM 19.37 66.866 0.117 7.17 8.75 8.72
6/2/2022 2:00:00 PM 19.18 66.524 0.117 7.07 5.81 8.58
6/2/2022 2:15:00 PM 19.18 66.524 0.117 7.04 5.99 8.57
6/2/2022 2:30:00 PM 19.25 66.65 0.117 7.01 6.01 8.65
6/2/2022 2:45:00 PM 19.4 66.92 0.117 7.08 6.46 8.7
6/2/2022 3:00:00 PM 19.48 67.064 0.117 7.19 6.74 8.69
6/2/2022 3:15:00 PM 19.44 66.992 0.117 7.2 6.1 8.65
6/2/2022 3:30:00 PM 19.71 67.478 0.117 7.21 5.65 8.82
6/2/2022 3:45:00 PM 19.52 67.136 0.117 7.16 6.3 8.6
6/2/2022 4:00:00 PM 19.69 67.442 0.117 7.17 6.27 8.77
6/2/2022 4:15:00 PM 19.65 67.37 0.117 7.18 6 8.58
6/2/2022 4:30:00 PM 19.68 67.424 0.117 7.12 5.99 8.62
6/2/2022 4:45:00 PM 19.66 67.388 0.118 7.11 5.63 8.52
6/2/2022 5:00:00 PM 19.74 67.532 0.117 7.14 6.05 8.65
6/2/2022 5:15:00 PM 19.67 67.406 0.117 7.08 5.78 8.56
6/2/2022 5:30:00 PM 19.73 67.514 0.118 7.12 7.82 8.58
6/2/2022 5:45:00 PM 19.57 67.226 0.118 7 5.94 8.44
6/2/2022 6:00:00 PM 19.69 67.442 0.118 7.03 6.21 8.61
6/2/2022 6:15:00 PM 19.74 67.532 0.118 7.13 5.92 8.59
6/2/2022 6:30:00 PM 19.61 67.298 0.118 7.11 5.71 8.43
6/2/2022 6:45:00 PM 19.66 67.388 0.118 7.1 5.79 8.58
6/2/2022 7:00:00 PM 19.59 67.262 0.118 7.1 5.86 8.55
6/2/2022 7:15:00 PM 19.53 67.154 0.118 7.12 6.46 8.53
6/2/2022 7:30:00 PM 19.37 66.866 0.119 7.03 5.57 8.46
6/2/2022 7:45:00 PM 19.28 66.704 0.119 7.08 5.68 8.4
6/2/2022 8:00:00 PM 19.27 66.686 0.119 6.98 6.24 8.47
6/2/2022 8:15:00 PM 19.28 66.704 0.119 7.07 6.22 8.45
6/2/2022 8:30:00 PM 19.2 66.56 0.119 7.01 6.5 8.46
6/2/2022 8:45:00 PM 19.16 66.488 0.119 7.05 5.86 8.47
6/2/2022 9:00:00 PM 19.14 66.452 0.119 7.09 7.17 8.52
6/2/2022 9:15:00 PM 18.89 66.002 0.12 6.95 6.99 8.44
6/2/2022 9:30:00 PM 18.95 66.11 0.12 7.06 7.7 8.53
6/2/2022 9:45:00 PM 18.77 65.786 0.119 6.98 7.52 8.45
6/2/2022 10:00:00 PM 18.61 65.498 0.12 6.83 6.39 8.45
6/2/2022 10:15:00 PM 18.66 65.588 0.12 6.97 6.47 8.34
6/2/2022 10:30:00 PM 18.67 65.606 0.12 7 6.5 8.46
6/2/2022 10:45:00 PM 18.59 65.462 0.12 7.01 6.19 8.52
6/2/2022 11:00:00 PM 18.49 65.282 0.12 6.94 7.59 8.48
6/2/2022 11:15:00 PM 18.62 65.516 0.12 7.07 7.56 8.62
6/2/2022 11:30:00 PM 18.48 65.264 0.12 7 6.95 8.58
6/2/2022 11:45:00 PM 18.46 65.228 0.12 7.02 6.02 8.5
6/3/2022 12:00:00 AM 18.49 65.282 0.12 7.01 6.7 8.64
6/3/2022 12:15:00 AM 18.49 65.282 0.12 7.08 6.69 8.66
6/3/2022 12:30:00 AM 18.36 65.048 0.12 7.06 5.8 8.61
6/3/2022 12:45:00 AM 18.31 64.958 0.12 6.98 7.14 8.57
6/3/2022 1:00:00 AM 18.33 64.994 0.12 7.05 6.76 8.65
6/3/2022 1:15:00 AM 18.14 64.652 0.12 6.98 6.44 8.55
6/3/2022 1:30:00 AM 18.15 64.67 0.12 6.99 6.82 8.58
6/3/2022 1:45:00 AM 18.21 64.778 0.12 7.08 5.9 8.67
6/3/2022 2:00:00 AM 18.19 64.742 0.12 7.03 6.59 8.73
6/3/2022 2:15:00 AM 18.12 64.616 0.12 7.09 6.12 8.7
6/3/2022 2:30:00 AM 18.1 64.58 0.12 7.1 6.26 8.74
6/3/2022 2:45:00 AM 18.04 64.472 0.12 7.1 6.52 8.69
6/3/2022 3:00:00 AM 17.94 64.292 0.121 7.06 6.49 8.69
6/3/2022 3:15:00 AM 17.83 64.094 0.121 7.03 6.58 8.67
6/3/2022 3:30:00 AM 17.71 63.878 0.12 7.1 6.45 8.61
6/3/2022 3:45:00 AM 17.67 63.806 0.121 7.05 5.97 8.71
6/3/2022 4:00:00 AM 17.73 63.914 0.121 7.01 5.93 8.71
6/3/2022 4:15:00 AM 17.66 63.788 0.121 6.99 6.97 8.73
6/3/2022 4:30:00 AM 17.71 63.878 0.121 7.03 5.65 8.71
6/3/2022 4:45:00 AM 17.64 63.752 0.121 7.04 5.78 8.78
6/3/2022 5:00:00 AM 17.58 63.644 0.121 6.98 6.1 8.72
6/3/2022 5:15:00 AM 17.57 63.626 0.121 7.07 6.65 8.71
6/3/2022 5:30:00 AM 17.64 63.752 0.121 7.09 7.94 8.83
6/3/2022 5:45:00 AM 17.58 63.644 0.121 7.06 8.02 8.82
6/3/2022 6:00:00 AM 17.43 63.374 0.121 7.03 6.51 8.76
6/3/2022 6:15:00 AM 17.49 63.482 0.121 7.08 6.28 8.84
6/3/2022 6:30:00 AM 17.42 63.356 0.121 7.07 6.4 8.88
6/3/2022 6:45:00 AM 17.37 63.266 0.121 7.1 5.87 8.87
6/3/2022 7:00:00 AM 17.29 63.122 0.122 7.07 6.58 8.91
6/3/2022 7:15:00 AM 17.25 63.05 0.122 7.08 7.21 8.91
6/3/2022 7:30:00 AM 17.22 62.996 0.121 7.08 5.29 8.92
6/3/2022 7:45:00 AM 17.21 62.978 0.122 7.07 5.43 8.97
6/3/2022 8:00:00 AM 17.03 62.654 0.122 7.04 5.08 8.88
6/3/2022 8:15:00 AM 17.09 62.762 0.121 7.07 4.7 8.95
6/3/2022 8:30:00 AM 17.16 62.888 0.121 7.17 5.41 9.01
6/3/2022 8:45:00 AM 17.15 62.87 0.121 7.12 4.81 9.02
6/3/2022 9:00:00 AM 17.1 62.78 0.122 7.05 4.75 8.99
6/3/2022 9:15:00 AM 17.14 62.852 0.121 7.05 4.84 8.99
6/3/2022 9:30:00 AM 17.28 63.104 0.121 7.16 4.92 9.08
6/3/2022 9:45:00 AM 17.26 63.068 0.121 7.12 4.78 9.01
6/3/2022 10:00:00 AM 17.35 63.23 0.122 7.1 5.06 9.02
6/3/2022 10:15:00 AM 17.39 63.302 0.121 7.11 5.51 8.95
6/3/2022 10:30:00 AM 17.49 63.482 0.121 7.15 4.82 8.96
6/3/2022 10:45:00 AM 17.55 63.59 0.122 7.09 5.15 8.98
6/3/2022 11:00:00 AM 17.66 63.788 0.121 7.1 4.78 8.93
6/3/2022 11:15:00 AM 17.42 63.356 0.121 7.05 4.27 8.77
6/3/2022 11:30:00 AM 17.83 64.094 0.121 7.04 4.24 8.87
6/3/2022 11:45:00 AM 17.96 64.328 0.122 7.04 4.93 8.77
6/3/2022 12:00:00 PM 18.27 64.886 0.122 7.15 4.86 8.94
6/3/2022 12:15:00 PM 18.38 65.084 0.121 7.11 4.76 8.86
6/3/2022 12:30:00 PM 18.65 65.57 0.121 7.18 4.53 8.88
6/3/2022 12:45:00 PM 18.84 65.912 0.122 7.19 4.95 8.9
6/3/2022 1:00:00 PM 18.99 66.182 0.122 7.19 4.93 8.85
6/3/2022 1:15:00 PM 19.06 66.308 0.122 7.18 4.52 8.75
6/3/2022 1:30:00 PM 19.35 66.83 0.122 7.3 5.15 8.84
6/3/2022 1:45:00 PM 19.5 67.1 0.122 7.27 4.99 8.84
6/3/2022 2:00:00 PM 19.53 67.154 0.122 7.22 4.77 8.8
6/3/2022 2:15:00 PM 19.6 67.28 0.122 7.23 4.98 8.76
6/3/2022 2:30:00 PM 19.71 67.478 0.123 7.29 5.35 8.79
6/3/2022 2:45:00 PM 19.7 67.46 0.123 7.25 5.09 8.74
6/3/2022 3:00:00 PM 19.66 67.388 0.122 7.2 5.15 8.66
6/3/2022 3:15:00 PM 19.76 67.568 0.123 7.2 5.56 8.7
6/3/2022 3:30:00 PM 19.82 67.676 0.123 7.25 5.02 8.69
6/3/2022 3:45:00 PM 19.87 67.766 0.123 7.21 5.4 8.71
6/3/2022 4:00:00 PM 19.79 67.622 0.123 7.17 4.75 8.56
6/3/2022 4:15:00 PM 19.89 67.802 0.123 7.18 5.13 8.62
6/3/2022 4:30:00 PM 19.84 67.712 0.122 7.15 4.98 8.55
6/3/2022 4:45:00 PM 19.97 67.946 0.123 7.23 4.98 8.63
6/3/2022 5:00:00 PM 19.94 67.892 0.123 7.22 4.75 8.57
6/3/2022 5:15:00 PM 19.96 67.92799 0.123 7.23 5.38 8.61
6/3/2022 5:30:00 PM 19.8 67.64 0.124 7.15 5.24 8.54
6/3/2022 5:45:00 PM 19.71 67.478 0.123 7.12 4.97 8.45
6/3/2022 6:00:00 PM 19.76 67.568 0.123 7.13 4.76 8.55
6/3/2022 6:15:00 PM 19.71 67.478 0.124 7.19 4.96 8.61
6/3/2022 6:30:00 PM 19.6 67.28 0.124 7.14 4.85 8.57
6/3/2022 6:45:00 PM 19.34 66.812 0.124 7.09 4.91 8.46
6/3/2022 7:00:00 PM 19.39 66.902 0.124 7.14 4.93 8.54
6/3/2022 7:15:00 PM 19.29 66.722 0.124 7.12 4.72 8.57
6/3/2022 7:30:00 PM 19.18 66.524 0.124 7.09 4.85 8.54
6/3/2022 7:45:00 PM 19.07 66.326 0.125 7.11 4.98 8.54
6/3/2022 8:00:00 PM 18.88 65.984 0.124 7.09 5.19 8.5
6/3/2022 8:15:00 PM 18.86 65.948 0.125 7.14 4.76 8.57
6/3/2022 8:30:00 PM 18.64 65.552 0.125 7.06 4.44 8.51
6/3/2022 8:45:00 PM 18.55 65.39 0.125 7.12 5.27 8.59
6/3/2022 9:00:00 PM 18.3 64.94 0.125 7.06 5.66 8.54
6/3/2022 9:15:00 PM 18.18 64.724 0.125 7.07 6.17 8.63
6/3/2022 9:30:00 PM 18.06 64.508 0.125 7.1 5.79 8.67
6/3/2022 9:45:00 PM 17.9 64.22 0.125 7.11 6.01 8.71
6/3/2022 10:00:00 PM 17.76 63.968 0.125 7.07 5.44 8.77
6/3/2022 10:15:00 PM 17.65 63.77 0.125 7.09 5.81 8.78
6/3/2022 10:30:00 PM 17.5 63.5 0.125 7.06 5.45 8.77
6/3/2022 10:45:00 PM 17.42 63.356 0.125 7.07 5.45 8.82
6/3/2022 11:00:00 PM 17.3 63.14 0.125 7.08 4.93 8.82
6/3/2022 11:15:00 PM 17.13 62.834 0.125 7.02 5.06 8.79
6/3/2022 11:30:00 PM 17.01 62.618 0.125 7.01 5.3 8.77
6/3/2022 11:45:00 PM 16.99 62.582 0.126 7.11 5.11 8.92
6/4/2022 12:00:00 AM 16.87 62.366 0.126 7.04 5.1 8.92
6/4/2022 12:15:00 AM 16.76 62.168 0.126 7.05 5.69 8.92
6/4/2022 12:30:00 AM 16.7 62.06 0.126 7.08 5.58 8.98
6/4/2022 12:45:00 AM 16.57 61.826 0.126 7.05 5.29 8.92
6/4/2022 1:00:00 AM 16.5 61.7 0.126 7.07 4.99 9.02
6/4/2022 1:15:00 AM 16.41 61.538 0.126 7.02 5.43 9.02
6/4/2022 1:30:00 AM 16.28 61.304 0.126 7.01 5.32 8.94
6/4/2022 1:45:00 AM 16.19 61.142 0.126 7.02 5.4 9.03
6/4/2022 2:00:00 AM 16.15 61.07 0.126 7.08 5.77 9.08
6/4/2022 2:15:00 AM 15.96 60.728 0.126 7.01 5.15 8.98
6/4/2022 2:30:00 AM 15.94 60.692 0.127 7.03 5.33 9.08
6/4/2022 2:45:00 AM 15.88 60.584 0.127 7.08 5.96 9.15
6/4/2022 3:00:00 AM 15.73 60.314 0.127 7.01 4.49 9.04
6/4/2022 3:15:00 AM 15.7 60.26 0.127 7.07 5.76 9.19
6/4/2022 3:30:00 AM 15.65 60.17 0.127 7.11 4.92 9.23
6/4/2022 3:45:00 AM 15.55 59.99 0.127 7.09 4.77 9.21
6/4/2022 4:00:00 AM 15.46 59.828 0.127 7.06 4.98 9.24
6/4/2022 4:15:00 AM 15.39 59.702 0.127 7.09 4.58 9.23
6/4/2022 4:30:00 AM 15.33 59.594 0.127 7.09 4.86 9.28
6/4/2022 4:45:00 AM 15.27 59.486 0.127 7.1 5.62 9.29
6/4/2022 5:00:00 AM 15.24 59.432 0.127 7.14 2.55 9.35
6/4/2022 5:15:00 AM 15.1 59.18 0.127 7.07 8.29 9.28
6/4/2022 5:30:00 AM 15.02 59.036 0.127 7.01 8.71 9.32
6/4/2022 5:45:00 AM 15 59 0.128 7.1 5.66 9.38
6/4/2022 6:00:00 AM 14.93 58.874 0.128 7.1 5.25 9.39
6/4/2022 6:15:00 AM 14.88 58.784 0.128 7.11 4.91 9.4
6/4/2022 6:30:00 AM 14.88 58.784 0.128 7.13 4.75 9.46
6/4/2022 6:45:00 AM 14.82 58.676 0.128 7.08 4.65 9.41
6/4/2022 7:00:00 AM 14.86 58.748 0.128 7.16 4.12 9.52
6/4/2022 7:15:00 AM 14.83 58.694 0.128 7.17 4.45 9.54
6/4/2022 7:30:00 AM 14.79 58.622 0.128 7.08 5.63 9.48
6/4/2022 7:45:00 AM 14.84 58.712 0.128 7.16 4.74 9.57
6/4/2022 8:00:00 AM 14.81 58.658 0.128 7.12 2.27 9.55
6/4/2022 8:15:00 AM 14.85 58.73 0.128 7.15 4.93 9.54
6/4/2022 8:30:00 AM 14.89 58.802 0.128 7.15 4.86 9.53
6/4/2022 8:45:00 AM 14.96 58.928 0.128 7.13 4.71 9.51
6/4/2022 9:00:00 AM 15.09 59.162 0.128 7.14 4.26 9.53
6/4/2022 9:15:00 AM 15.24 59.432 0.127 7.18 4.19 9.54
6/4/2022 9:30:00 AM 15.35 59.63 0.128 7.16 4.01 9.51
6/4/2022 9:45:00 AM 15.52 59.936 0.128 7.22 3.99 9.53
6/4/2022 10:00:00 AM 15.67 60.206 0.128 7.21 4.5 9.5
6/4/2022 10:15:00 AM 15.84 60.512 0.128 7.22 4.44 9.48
6/4/2022 10:30:00 AM 16.01 60.818 0.128 7.21 4.27 9.47
6/4/2022 10:45:00 AM 16.21 61.178 0.128 7.25 4.05 9.46
6/4/2022 11:00:00 AM 16.33 61.394 0.128 7.21 4.99 9.35
6/4/2022 11:15:00 AM 16.56 61.808 0.128 7.21 4.53 9.34
6/4/2022 11:30:00 AM 16.66 61.988 0.128 7.18 4.35 9.26
6/4/2022 11:45:00 AM 16.99 62.582 0.128 7.2 4.26 9.32
6/4/2022 12:00:00 PM 17.11 62.798 0.128 7.2 4.53 9.16
6/4/2022 12:15:00 PM 17.28 63.104 0.128 7.19 5.22 9.11
6/4/2022 12:30:00 PM 17.57 63.626 0.128 7.22 5 9.19
6/4/2022 12:45:00 PM 17.7 63.86 0.128 7.19 4.55 9.08
6/4/2022 1:00:00 PM 17.96 64.328 0.128 7.23 5.47 9.12
6/4/2022 1:15:00 PM 18.16 64.688 0.128 7.26 5.34 9.11
6/4/2022 1:30:00 PM 18.34 65.012 0.128 7.31 4.72 9.1
6/4/2022 1:45:00 PM 18.43 65.174 0.128 7.27 4.22 9.02
6/4/2022 2:00:00 PM 18.51 65.318 0.128 7.25 4.64 8.96
6/4/2022 2:15:00 PM 18.65 65.57 0.128 7.29 4.5 8.99
6/4/2022 2:30:00 PM 18.68 65.624 0.128 7.21 4.29 8.94
6/4/2022 2:45:00 PM 18.73 65.714 0.128 7.24 4.37 8.93
6/4/2022 3:00:00 PM 18.78 65.804 0.129 7.24 4.31 8.95
6/4/2022 3:15:00 PM 18.79 65.82201 0.129 7.28 5.02 8.93
6/4/2022 3:30:00 PM 18.84 65.912 0.129 7.29 4.66 8.95
6/4/2022 3:45:00 PM 18.8 65.84 0.129 7.26 4.81 8.87
6/4/2022 4:00:00 PM 18.81 65.858 0.129 7.19 4.16 8.85
6/4/2022 4:15:00 PM 18.88 65.984 0.129 7.27 4.21 8.91
6/4/2022 4:30:00 PM 18.9 66.02 0.129 7.26 4.4 8.88
6/4/2022 4:45:00 PM 18.89 66.002 0.129 7.24 4.44 8.84
6/4/2022 5:00:00 PM 18.75 65.75 0.129 7.16 4.7 8.63
6/4/2022 5:15:00 PM 18.92 66.056 0.129 7.26 3.81 8.85
6/4/2022 5:30:00 PM 18.86 65.948 0.129 7.24 4.12 8.79
6/4/2022 5:45:00 PM 18.84 65.912 0.129 7.25 4.04 8.81
6/4/2022 6:00:00 PM 18.78 65.804 0.13 7.23 4.1 8.8
6/4/2022 6:15:00 PM 18.69 65.642 0.13 7.21 4.58 8.78
6/4/2022 6:30:00 PM 18.64 65.552 0.13 7.22 4.23 8.8
6/4/2022 6:45:00 PM 18.53 65.354 0.13 7.21 4.1 8.77
6/4/2022 7:00:00 PM 18.41 65.138 0.13 7.19 4.54 8.73
6/4/2022 7:15:00 PM 18.32 64.976 0.131 7.18 3.97 8.75
6/4/2022 7:30:00 PM 18.14 64.652 0.13 7.07 4.06 8.75
6/4/2022 7:45:00 PM 17.97 64.346 0.13 7.09 5.52 8.56
6/4/2022 8:00:00 PM 18.01 64.418 0.131 7.17 4.17 8.74
6/4/2022 8:15:00 PM 17.9 64.22 0.131 7.17 4.59 8.74
6/4/2022 8:30:00 PM 17.71 63.878 0.131 7.12 5.25 8.66
6/4/2022 8:45:00 PM 17.58 63.644 0.131 7.1 4.27 8.69
6/4/2022 9:00:00 PM 17.37 63.266 0.131 7.07 4.47 8.75
6/4/2022 9:15:00 PM 17.23 63.014 0.131 7.09 4.84 8.72
6/4/2022 9:30:00 PM 17.07 62.726 0.132 7.14 4.74 8.87
6/4/2022 9:45:00 PM 16.89 62.402 0.131 7.11 4.64 8.92
6/4/2022 10:00:00 PM 16.69 62.042 0.131 7.09 4.67 8.94
6/4/2022 10:15:00 PM 16.53 61.754 0.131 7.12 4.32 8.94
6/4/2022 10:30:00 PM 16.37 61.466 0.131 7.11 4.51 8.92
6/4/2022 10:45:00 PM 16.19 61.142 0.132 7.08 4.7 8.97
6/4/2022 11:00:00 PM 16.09 60.962 0.131 7.09 4.88 9.08
6/4/2022 11:15:00 PM 15.93 60.674 0.131 7.08 4.78 9.04
6/4/2022 11:30:00 PM 15.83 60.494 0.132 7.07 4.3 9.12
6/4/2022 11:45:00 PM 15.66 60.188 0.132 7.04 4.93 9
6/5/2022 12:00:00 AM 15.49 59.882 0.132 6.94 4.46 8.91
6/5/2022 12:15:00 AM 15.43 59.774 0.131 7 5.12 9.08
6/5/2022 12:30:00 AM 15.37 59.666 0.131 7.09 4.42 9.21
6/5/2022 12:45:00 AM 15.28 59.504 0.132 7.09 4.06 9.25
6/5/2022 1:00:00 AM 15.13 59.234 0.131 7.04 4.29 9.14
6/5/2022 1:15:00 AM 15.06 59.108 0.132 7.04 4.65 9.26
6/5/2022 1:30:00 AM 14.93 58.874 0.132 7.03 4.44 9.21
6/5/2022 1:45:00 AM 14.9 58.82 0.132 7.13 4.32 9.38
6/5/2022 2:00:00 AM 14.79 58.622 0.132 7.12 4.43 9.37
6/5/2022 2:15:00 AM 14.66 58.388 0.133 7.07 4.46 9.35
6/5/2022 2:30:00 AM 14.56 58.208 0.132 7.04 4.37 9.31
6/5/2022 2:45:00 AM 14.51 58.118 0.132 7.07 4.05 9.39
6/5/2022 3:00:00 AM 14.44 57.992 0.133 7.13 4.56 9.49
6/5/2022 3:15:00 AM 14.36 57.848 0.133 7.13 4.78 9.5
6/5/2022 3:30:00 AM 14.26 57.668 0.133 7.09 4.53 9.46
6/5/2022 3:45:00 AM 14.2 57.56 0.133 7.11 4.45 9.5
6/5/2022 4:00:00 AM 14.13 57.434 0.133 7.11 4.62 9.51
6/5/2022 4:15:00 AM 14.06 57.308 0.133 7.14 2.27 9.53
6/5/2022 4:30:00 AM 13.98 57.164 0.133 7.1 4.58 9.51
6/5/2022 4:45:00 AM 13.89 57.002 0.133 7.06 4.73 9.48
6/5/2022 5:00:00 AM 13.84 56.912 0.133 7.09 7.12 9.53
6/5/2022 5:15:00 AM 13.79 56.822 0.133 7.14 5.49 9.61
6/5/2022 5:30:00 AM 13.72 56.696 0.133 7.14 6.65 9.64
6/5/2022 5:45:00 AM 13.66 56.588 0.133 7.15 5.52 9.66
6/5/2022 6:00:00 AM 13.6 56.48 0.133 7.15 4.38 9.68
6/5/2022 6:15:00 AM 13.52 56.336 0.133 7.07 4.34 9.67
6/5/2022 6:30:00 AM 13.49 56.282 0.134 7.06 3.98 9.76
6/5/2022 6:45:00 AM 13.44 56.192 0.133 7.06 4.41 9.77
6/5/2022 7:00:00 AM 13.42 56.156 0.134 7.11 4.11 9.83
6/5/2022 7:15:00 AM 13.4 56.12 0.134 7.1 4.49 9.82
6/5/2022 7:30:00 AM 13.4 56.12 0.134 7.12 4.11 9.84
6/5/2022 7:45:00 AM 13.42 56.156 0.134 7.14 4.12 9.86
6/5/2022 8:00:00 AM 13.45 56.21 0.134 7.16 3.86 9.88
6/5/2022 8:15:00 AM 13.5 56.3 0.133 7.16 3.96 9.88
6/5/2022 8:30:00 AM 13.57 56.426 0.133 7.18 4.36 9.92
6/5/2022 8:45:00 AM 13.67 56.606 0.133 7.2 4.05 9.95
6/5/2022 9:00:00 AM 13.77 56.786 0.133 7.23 3.91 9.94
6/5/2022 9:15:00 AM 13.9 57.02 0.133 7.24 4.19 9.94
6/5/2022 9:30:00 AM 14.02 57.236 0.133 7.23 4.17 9.94
6/5/2022 9:45:00 AM 14.12 57.416 0.133 7.25 3.85 9.89
6/5/2022 10:00:00 AM 14.23 57.614 0.133 7.28 3.93 9.94
6/5/2022 10:15:00 AM 14.36 57.848 0.133 7.27 3.73 9.91
6/5/2022 10:30:00 AM 14.54 58.172 0.133 7.28 3.65 9.9
6/5/2022 10:45:00 AM 14.68 58.424 0.133 7.28 4.13 9.87
6/5/2022 11:00:00 AM 14.77 58.586 0.133 7.28 3.76 9.88
6/5/2022 11:15:00 AM 14.88 58.784 0.133 7.36 3.69 9.92
6/5/2022 11:30:00 AM 14.94 58.892 0.133 7.34 4.09 9.89
6/5/2022 11:45:00 AM 15.03 59.054 0.133 7.34 3.76 9.85
6/5/2022 12:00:00 PM 15.17 59.306 0.133 7.26 3.99 9.8
6/5/2022 12:15:00 PM 15.47 59.846 0.133 7.31 3.79 9.77
6/5/2022 12:30:00 PM 15.72 60.296 0.133 7.33 3.76 9.74
6/5/2022 12:45:00 PM 15.95 60.71 0.133 7.36 3.84 9.7
6/5/2022 1:00:00 PM 16.15 61.07 0.133 7.34 3.84 9.65
6/5/2022 1:15:00 PM 16.33 61.394 0.133 7.35 4.01 9.6
6/5/2022 1:30:00 PM 16.5 61.7 0.133 7.29 4.51 9.54
6/5/2022 1:45:00 PM 16.66 61.988 0.133 7.21 4.04 9.44
6/5/2022 2:00:00 PM 16.83 62.294 0.133 7.31 4.78 9.39
6/5/2022 2:15:00 PM 16.94 62.492 0.133 7.25 4.42 9.34
6/5/2022 2:30:00 PM 17.19 62.942 0.133 7.27 4.36 9.37
6/5/2022 2:45:00 PM 17.28 63.104 0.133 7.33 3.96 9.28
6/5/2022 3:00:00 PM 17.28 63.104 0.133 7.18 4.06 9.17
6/5/2022 3:15:00 PM 17.45 63.41 0.134 7.27 5.11 9.28
6/5/2022 3:30:00 PM 17.5 63.5 0.134 7.29 4.18 9.27
6/5/2022 3:45:00 PM 17.5 63.5 0.134 7.28 4.93 9.21
6/5/2022 4:00:00 PM 17.57 63.626 0.134 7.27 4.22 9.22
6/5/2022 4:15:00 PM 17.59 63.662 0.135 7.26 4.13 9.12
6/5/2022 4:30:00 PM 17.68 63.824 0.135 7.3 4.18 9.2
6/5/2022 4:45:00 PM 17.62 63.716 0.134 7.24 4.33 9.06
6/5/2022 5:00:00 PM 17.69 63.842 0.135 7.23 3.96 9.07
6/5/2022 5:15:00 PM 17.67 63.806 0.135 7.18 4.35 9
6/5/2022 5:30:00 PM 17.71 63.878 0.134 7.23 4.21 9
6/5/2022 5:45:00 PM 17.78 64.004 0.135 7.32 4.46 9.09
6/5/2022 6:00:00 PM 17.61 63.698 0.135 7.16 4.2 8.89
6/5/2022 6:15:00 PM 17.69 63.842 0.135 7.19 4.36 9
6/5/2022 6:30:00 PM 17.65 63.77 0.135 7.21 4.69 9.03
6/5/2022 6:45:00 PM 17.55 63.59 0.136 7.22 4.07 8.98
6/5/2022 7:00:00 PM 17.5 63.5 0.136 7.23 4.15 9
6/5/2022 7:15:00 PM 17.4 63.32 0.136 7.22 4.19 8.95
6/5/2022 7:30:00 PM 17.32 63.176 0.136 7.2 4.39 8.91
6/5/2022 7:45:00 PM 17.24 63.032 0.136 7.2 4.44 8.91
6/5/2022 8:00:00 PM 17.13 62.834 0.136 7.16 4.33 8.84
6/5/2022 8:15:00 PM 17.09 62.762 0.136 7.19 4.49 8.91
6/5/2022 8:30:00 PM 16.97 62.546 0.137 7.14 4.11 8.84
6/5/2022 8:45:00 PM 16.88 62.384 0.137 7.14 4.43 8.88
6/5/2022 9:00:00 PM 16.78 62.204 0.137 7.13 4.04 8.85
6/5/2022 9:15:00 PM 16.61 61.898 0.137 7.12 3.94 8.85
6/5/2022 9:30:00 PM 16.52 61.736 0.137 7.12 4.46 8.86
6/5/2022 9:45:00 PM 16.41 61.538 0.137 7.13 5.61 8.94
6/5/2022 10:00:00 PM 16.3 61.34 0.137 7.15 4.29 8.98
6/5/2022 10:15:00 PM 16.16 61.088 0.138 7.12 4.53 8.99
6/5/2022 10:30:00 PM 16.05 60.89 0.138 7.14 4.25 9.04
6/5/2022 10:45:00 PM 15.92 60.656 0.138 7.12 4.01 9.04
6/5/2022 11:00:00 PM 15.78 60.404 0.138 7.11 4.39 9.02
6/5/2022 11:15:00 PM 15.68 60.224 0.138 7.12 4.7 9.09
6/5/2022 11:30:00 PM 15.59 60.062 0.138 7.16 4.38 9.16
6/5/2022 11:45:00 PM 15.48 59.864 0.138 7.1 4.27 9.19
6/6/2022 12:00:00 AM 15.38 59.684 0.138 7.16 4.19 9.24
6/6/2022 12:15:00 AM 15.28 59.504 0.138 7.13 4.33 9.23
6/6/2022 12:30:00 AM 15.2 59.36 0.138 7.15 4.43 9.27
6/6/2022 12:45:00 AM 15.11 59.198 0.137 7.13 4.1 9.23
6/6/2022 1:00:00 AM 15.05 59.09 0.138 7.14 3.99 9.31
6/6/2022 1:15:00 AM 14.98 58.964 0.138 7.12 8.46 9.28
6/6/2022 1:30:00 AM 14.91 58.838 0.138 7.12 5.49 9.27
6/6/2022 1:45:00 AM 14.86 58.748 0.138 7.12 4.84 9.3
6/6/2022 2:00:00 AM 14.75 58.55 0.138 7.06 5.34 9.14
6/6/2022 2:15:00 AM 14.76 58.568 0.138 7.11 4.62 9.33
6/6/2022 2:30:00 AM 14.72 58.496 0.138 7.11 5.17 9.36
6/6/2022 2:45:00 AM 14.67 58.406 0.138 7.14 4.03 9.39
6/6/2022 3:00:00 AM 14.63 58.334 0.138 7.13 4.24 9.38
6/6/2022 3:15:00 AM 14.58 58.244 0.138 7.12 4.11 9.41
6/6/2022 3:30:00 AM 14.5 58.1 0.138 7.11 3.84 9.35
6/6/2022 3:45:00 AM 14.45 58.01 0.139 7.11 4.59 9.39
6/6/2022 4:00:00 AM 14.4 57.92 0.139 7.14 4.43 9.44
6/6/2022 4:15:00 AM 14.26 57.668 0.139 7.04 4.29 9.26
6/6/2022 4:30:00 AM 14.26 57.668 0.139 7.12 4.15 9.46
6/6/2022 4:45:00 AM 14.19 57.542 0.138 7.1 4.55 9.47
6/6/2022 5:00:00 AM 14.14 57.452 0.139 7.15 4.54 9.51
6/6/2022 5:15:00 AM 14.07 57.326 0.139 7.14 4.68 9.53
6/6/2022 5:30:00 AM 14 57.2 0.139 7.13 5.47 9.53
6/6/2022 5:45:00 AM 13.93 57.074 0.139 7.13 5.78 9.51
6/6/2022 6:00:00 AM 13.87 56.966 0.139 7.12 4.27 9.56
6/6/2022 6:15:00 AM 13.8 56.84 0.139 7.11 6.46 9.57
6/6/2022 6:30:00 AM 13.75 56.75 0.139 7.1 4.23 9.56
6/6/2022 6:45:00 AM 13.71 56.678 0.139 7.14 3.94 9.68
6/6/2022 7:00:00 AM 13.69 56.642 0.139 7.16 3.88 9.69
6/6/2022 7:15:00 AM 13.66 56.588 0.138 7.14 3.75 9.69
6/6/2022 7:30:00 AM 13.64 56.552 0.139 7.12 4.08 9.65
6/6/2022 7:45:00 AM 13.68 56.624 0.139 7.16 3.92 9.73
6/6/2022 8:00:00 AM 13.67 56.606 0.139 7.11 4.12 9.66
6/6/2022 8:15:00 AM 13.74 56.732 0.139 7.13 3.7 9.72
6/6/2022 8:30:00 AM 13.81 56.858 0.139 7.15 3.85 9.75
6/6/2022 8:45:00 AM 13.86 56.948 0.139 7.14 3.74 9.69
6/6/2022 9:00:00 AM 13.96 57.128 0.139 7.13 3.56 9.72
6/6/2022 9:15:00 AM 14.13 57.434 0.139 7.22 3.69 9.81
6/6/2022 9:30:00 AM 14.25 57.65 0.139 7.15 3.39 9.72
6/6/2022 9:45:00 AM 14.34 57.812 0.138 7.1 3.67 9.53
6/6/2022 10:00:00 AM 14.58 58.244 0.139 7.14 3.53 9.71
6/6/2022 10:15:00 AM 14.77 58.586 0.139 7.13 3.66 9.62
6/6/2022 10:30:00 AM 14.91 58.838 0.137 7.11 3.98 9.56
6/6/2022 10:45:00 AM 15.26 59.468 0.138 7.18 4.06 9.6
6/6/2022 11:00:00 AM 15.47 59.846 0.139 7.2 3.46 9.58
6/6/2022 11:15:00 AM 15.75 60.35 0.139 7.2 4.36 9.55
6/6/2022 11:30:00 AM 16.04 60.872 0.139 7.25 4.06 9.56
6/6/2022 11:45:00 AM 16.33 61.394 0.139 7.29 3.95 9.55
6/6/2022 12:00:00 PM 16.6 61.88 0.139 7.29 3.7 9.54
6/6/2022 12:15:00 PM 16.79 62.222 0.138 7.29 3.94 9.47
6/6/2022 12:30:00 PM 17.12 62.816 0.138 7.35 4.16 9.45
6/6/2022 12:45:00 PM 17.26 63.068 0.139 7.29 4.25 9.4
6/6/2022 1:00:00 PM 17.53 63.554 0.139 7.36 4.13 9.34
6/6/2022 1:15:00 PM 17.69 63.842 0.138 7.29 4.06 9.31
6/6/2022 1:30:00 PM 17.99 64.382 0.139 7.38 3.93 9.32
6/6/2022 1:45:00 PM 18.15 64.67 0.139 7.34 3.84 9.27
6/6/2022 2:00:00 PM 18.38 65.084 0.138 7.39 3.82 9.22
6/6/2022 2:15:00 PM 18.55 65.39 0.139 7.4 3.87 9.21
6/6/2022 2:30:00 PM 18.68 65.624 0.139 7.39 3.8 9.19
6/6/2022 2:45:00 PM 18.74 65.732 0.139 7.32 4.13 9.18
6/6/2022 3:00:00 PM 18.76 65.768 0.138 7.36 3.86 9.14
6/6/2022 3:15:00 PM 18.76 65.768 0.139 7.37 3.92 9.11
6/6/2022 3:30:00 PM 18.82 65.876 0.14 7.39 4.12 9.12
6/6/2022 3:45:00 PM 18.7 65.66 0.139 7.3 4.48 8.98
6/6/2022 4:00:00 PM 18.78 65.804 0.14 7.38 4.07 9.09
6/6/2022 4:15:00 PM 18.77 65.786 0.14 7.38 3.88 9.1
6/6/2022 4:30:00 PM 18.77 65.786 0.14 7.39 3.86 9.08
6/6/2022 4:45:00 PM 18.78 65.804 0.14 7.39 3.88 9.08
6/6/2022 5:00:00 PM 18.69 65.642 0.14 7.31 4.18 9.01
6/6/2022 5:15:00 PM 18.73 65.714 0.14 7.37 4.36 9.04
6/6/2022 5:30:00 PM 18.61 65.498 0.14 7.24 4.05 8.92
6/6/2022 5:45:00 PM 18.6 65.48 0.14 7.28 3.89 8.92
6/6/2022 6:00:00 PM 18.54 65.372 0.14 7.27 4.09 8.87
6/6/2022 6:15:00 PM 18.56 65.408 0.14 7.32 4.17 8.97
6/6/2022 6:30:00 PM 18.51 65.318 0.14 7.32 4.16 8.95
6/6/2022 6:45:00 PM 18.46 65.228 0.141 7.28 4.28 8.9
6/6/2022 7:00:00 PM 18.4 65.12 0.141 7.29 4.47 8.89
6/6/2022 7:15:00 PM 18.28 64.904 0.141 7.26 4.67 8.84
6/6/2022 7:30:00 PM 18.24 64.832 0.141 7.25 4.44 8.83
6/6/2022 7:45:00 PM 18.12 64.616 0.141 7.24 4.29 8.69
6/6/2022 8:00:00 PM 17.99 64.382 0.141 7.15 4.11 8.58
6/6/2022 8:15:00 PM 17.95 64.31 0.142 7.18 4.35 8.67
6/6/2022 8:30:00 PM 17.94 64.292 0.142 7.24 4.22 8.77
6/6/2022 8:45:00 PM 17.76 63.968 0.142 7.16 4.6 8.62
6/6/2022 9:00:00 PM 17.69 63.842 0.142 7.14 4.06 8.64
6/6/2022 9:15:00 PM 17.61 63.698 0.142 7.16 4.09 8.65
6/6/2022 9:30:00 PM 17.53 63.554 0.142 7.16 5.14 8.66
6/6/2022 9:45:00 PM 17.46 63.428 0.143 7.18 4.5 8.71
6/6/2022 10:00:00 PM 17.3 63.14 0.143 7.14 4.45 8.58
6/6/2022 10:15:00 PM 17.24 63.032 0.143 7.12 5.53 8.61
6/6/2022 10:30:00 PM 17.18 62.924 0.143 7.14 4.24 8.72
6/6/2022 10:45:00 PM 17.03 62.654 0.143 7.11 4.33 8.62
6/6/2022 11:00:00 PM 16.95 62.51 0.143 7.09 4.68 8.68
6/6/2022 11:15:00 PM 16.86 62.348 0.143 7.09 4.41 8.58
6/6/2022 11:30:00 PM 16.82 62.276 0.143 7.12 4.76 8.78
6/6/2022 11:45:00 PM 16.76 62.168 0.144 7.17 5.31 8.88
6/7/2022 12:00:00 AM 16.63 61.934 0.143 7.07 5.23 8.62
6/7/2022 12:15:00 AM 16.56 61.808 0.144 7.08 5.69 8.77
6/7/2022 12:30:00 AM 16.48 61.664 0.143 7.11 4.35 8.83
6/7/2022 12:45:00 AM 16.41 61.538 0.144 7.13 5.28 8.9
6/7/2022 1:00:00 AM 16.34 61.412 0.144 7.11 5.71 8.87
6/7/2022 1:15:00 AM 16.27 61.286 0.144 7.07 4.55 8.86
6/7/2022 1:30:00 AM 16.25 61.25 0.144 7.13 4.45 8.93
6/7/2022 1:45:00 AM 16.15 61.07 0.144 7.05 4.29 8.82
6/7/2022 2:00:00 AM 16.11 60.998 0.144 7.1 4.08 8.86
6/7/2022 2:15:00 AM 16.1 60.98 0.144 7.12 4.36 8.94
6/7/2022 2:30:00 AM 16.08 60.944 0.144 7.16 4.54 9.03
6/7/2022 2:45:00 AM 16.02 60.836 0.144 7.15 3.77 9.02
6/7/2022 3:00:00 AM 15.87 60.566 0.144 7.07 4.29 8.82
6/7/2022 3:15:00 AM 15.88 60.584 0.144 7.08 3.98 8.93
6/7/2022 3:30:00 AM 15.83 60.494 0.144 7.09 4.39 8.97
6/7/2022 3:45:00 AM 15.79 60.422 0.145 7.09 4.28 8.85
6/7/2022 4:00:00 AM 15.74 60.332 0.144 7.12 4.16 9.05
6/7/2022 4:15:00 AM 15.7 60.26 0.144 7.13 3.86 9.05
6/7/2022 4:30:00 AM 15.65 60.17 0.144 7.11 4.34 9.01
6/7/2022 4:45:00 AM 15.59 60.062 0.144 7.09 4.17 9.02
6/7/2022 5:00:00 AM 15.54 59.972 0.142 7.07 4.19 9.03
6/7/2022 5:15:00 AM 15.49 59.882 0.143 7.09 4.92 9
6/7/2022 5:30:00 AM 15.46 59.828 0.145 7.11 5.36 9.08
6/7/2022 5:45:00 AM 15.44 59.792 0.145 7.14 5.02 9.09
6/7/2022 6:00:00 AM 15.29 59.522 0.144 7.01 3.38 8.86
6/7/2022 6:15:00 AM 15.32 59.576 0.144 7.06 5.94 9.06
6/7/2022 6:30:00 AM 15.3 59.54 0.144 7.1 4.62 9.11
6/7/2022 6:45:00 AM 15.32 59.576 0.144 7.09 4.11 9.19
6/7/2022 7:00:00 AM 15.33 59.594 0.145 7.14 4.78 9.25
6/7/2022 7:15:00 AM 15.33 59.594 0.145 7.12 5.54 9.22
6/7/2022 7:30:00 AM 15.31 59.558 0.144 7.11 4.3 9.14
6/7/2022 7:45:00 AM 15.38 59.684 0.144 7.14 5.26 9.3
6/7/2022 8:00:00 AM 15.39 59.702 0.145 7.14 4.3 9.31
6/7/2022 8:15:00 AM 15.4 59.72 0.144 7.16 4.16 9.23
6/7/2022 8:30:00 AM 15.47 59.846 0.144 7.2 3.56 9.4
6/7/2022 8:45:00 AM 15.52 59.936 0.144 7.21 3.84 9.41
6/7/2022 9:00:00 AM 15.6 60.08 0.144 7.22 3.58 9.47
6/7/2022 9:15:00 AM 15.67 60.206 0.144 7.24 4.16 9.47
6/7/2022 9:30:00 AM 15.76 60.368 0.144 7.28 3.77 9.53
6/7/2022 9:45:00 AM 15.79 60.422 0.144 7.26 3.79 9.49
6/7/2022 10:00:00 AM 15.8 60.44 0.144 7.23 3.75 9.44
6/7/2022 10:15:00 AM 15.95 60.71 0.144 7.28 3.69 9.55
6/7/2022 10:30:00 AM 16.13 61.034 0.144 7.3 3.78 9.5
6/7/2022 10:45:00 AM 16.34 61.412 0.144 7.33 4.09 9.59
6/7/2022 11:00:00 AM 16.49 61.682 0.144 7.33 5.22 9.57
6/7/2022 11:15:00 AM 16.63 61.934 0.144 7.35 3.68 9.57
6/7/2022 11:30:00 AM 16.71 62.078 0.144 7.35 3.37 9.55
6/7/2022 11:45:00 AM 16.86 62.348 0.142 7.31 3.72 9.45
6/7/2022 12:00:00 PM 16.99 62.582 0.143 7.31 3.72 9.5
6/7/2022 12:15:00 PM 17.01 62.618 0.143 7.37 3.71 9.48
6/7/2022 12:30:00 PM 16.94 62.492 0.144 7.34 3.69 9.32
6/7/2022 12:45:00 PM 16.91 62.438 0.144 7.32 3.79 9.23
6/7/2022 1:00:00 PM 16.88 62.384 0.144 7.35 3.32 9.29
6/7/2022 1:15:00 PM 16.82 62.276 0.144 7.31 4.15 9.26
6/7/2022 1:30:00 PM 16.76 62.168 0.144 7.28 3.68 9.19
6/7/2022 1:45:00 PM 16.74 62.132 0.144 7.28 3.66 9.21
6/7/2022 2:00:00 PM 16.74 62.132 0.144 7.3 4.09 9.21
6/7/2022 2:15:00 PM 16.73 62.114 0.145 7.29 3.99 9.19
6/7/2022 2:30:00 PM 16.68 62.024 0.145 7.21 3.96 9.07
6/7/2022 2:45:00 PM 16.7 62.06 0.145 7.25 3.6 9.15
6/7/2022 3:00:00 PM 16.71 62.078 0.145 7.27 3.57 9.15
6/7/2022 3:15:00 PM 16.66 61.988 0.144 7.23 3.85 9.06
6/7/2022 3:30:00 PM 16.72 62.096 0.145 7.26 3.95 9.18
6/7/2022 3:45:00 PM 16.81 62.258 0.145 7.26 4.56 9.25
6/7/2022 4:00:00 PM 16.85 62.33 0.145 7.3 3.94 9.25
6/7/2022 4:15:00 PM 16.88 62.384 0.145 7.32 3.67 9.26
6/7/2022 4:30:00 PM 16.85 62.33 0.145 7.26 4.27 9.18
6/7/2022 4:45:00 PM 16.83 62.294 0.144 7.25 4.17 9.11
6/7/2022 5:00:00 PM 16.86 62.348 0.145 7.28 3.81 9.17
6/7/2022 5:15:00 PM 16.83 62.294 0.145 7.26 3.75 9.04
6/7/2022 5:30:00 PM 16.81 62.258 0.145 7.24 4.18 9.08
6/7/2022 5:45:00 PM 16.73 62.114 0.145 7.18 3.88 9
6/7/2022 6:00:00 PM 16.76 62.168 0.145 7.21 4.18 9.07
6/7/2022 6:15:00 PM 16.71 62.078 0.145 7.21 4.89 8.97
6/7/2022 6:30:00 PM 16.73 62.114 0.144 7.23 4.88 9.01
6/7/2022 6:45:00 PM 16.73 62.114 0.144 7.23 4.79 8.98
6/7/2022 7:00:00 PM 16.69 62.042 0.144 7.21 4.3 8.87
6/7/2022 7:15:00 PM 16.64 61.952 0.144 7.17 5.12 8.91
6/7/2022 7:30:00 PM 16.61 61.898 0.144 7.17 4.46 8.85
6/7/2022 7:45:00 PM 16.54 61.772 0.143 7.11 4.17 8.74
6/7/2022 8:00:00 PM 16.59 61.862 0.144 7.18 4.13 8.89
6/7/2022 8:15:00 PM 16.52 61.736 0.144 7.14 4.16 8.77
6/7/2022 8:30:00 PM 16.52 61.736 0.144 7.15 4.82 8.84
6/7/2022 8:45:00 PM 16.47 61.646 0.144 7.14 4.81 8.84
6/7/2022 9:00:00 PM 16.46 61.628 0.144 7.15 4.36 8.78
6/7/2022 9:15:00 PM 16.43 61.574 0.144 7.13 4.89 8.83
6/7/2022 9:30:00 PM 16.4 61.52 0.144 7.13 4.34 8.77
6/7/2022 9:45:00 PM 16.37 61.466 0.144 7.12 5.01 8.82
6/7/2022 10:00:00 PM 16.35 61.43 0.145 7.14 4.72 8.83
6/7/2022 10:15:00 PM 16.31 61.358 0.145 7.11 8.41 8.79
6/7/2022 10:30:00 PM 16.25 61.25 0.145 7.07 4.78 8.68
6/7/2022 10:45:00 PM 16.23 61.214 0.144 7.09 5.58 8.77
6/7/2022 11:00:00 PM 16.26 61.268 0.145 7.15 4.22 8.94
6/7/2022 11:15:00 PM 16.21 61.178 0.145 7.11 4.66 8.82
6/7/2022 11:30:00 PM 16.19 61.142 0.145 7.11 5.23 8.87
6/7/2022 11:45:00 PM 16.16 61.088 0.145 7.1 4.29 8.92
6/8/2022 12:00:00 AM 16.09 60.962 0.145 7.09 4.41 8.74
6/8/2022 12:15:00 AM 16.14 61.052 0.146 7.14 4.7 8.92
6/8/2022 12:30:00 AM 16.07 60.926 0.146 7.06 4.45 8.77
6/8/2022 12:45:00 AM 16.06 60.908 0.146 7.08 4.19 8.81
6/8/2022 1:00:00 AM 16.09 60.962 0.146 7.12 4.44 8.98
6/8/2022 1:15:00 AM 16.07 60.926 0.146 7.12 4.04 8.98
6/8/2022 1:30:00 AM 16.02 60.836 0.146 7.08 4.09 8.8
6/8/2022 1:45:00 AM 16.03 60.854 0.146 7.11 4.21 8.94
6/8/2022 2:00:00 AM 15.99 60.782 0.146 7.07 4.99 8.87
6/8/2022 2:15:00 AM 15.99 60.782 0.146 7.11 5.17 8.92
6/8/2022 2:30:00 AM 15.99 60.782 0.146 7.1 4.42 9
6/8/2022 2:45:00 AM 15.93 60.674 0.147 7.06 3.67 8.88
6/8/2022 3:00:00 AM 15.91 60.638 0.146 7.06 4.6 8.9
6/8/2022 3:15:00 AM 15.89 60.602 0.146 7.07 4.23 8.86
6/8/2022 3:30:00 AM 15.87 60.566 0.146 7.09 4.51 8.99
6/8/2022 3:45:00 AM 15.82 60.476 0.145 7.08 4.1 8.93
6/8/2022 4:00:00 AM 15.79 60.422 0.146 7.08 6.3 8.93
6/8/2022 4:15:00 AM 15.78 60.404 0.147 7.07 5.45 8.99
6/8/2022 4:30:00 AM 15.8 60.44 0.147 7.1 4.09 9.02
6/8/2022 4:45:00 AM 15.78 60.404 0.147 7.14 5.1 9.06
6/8/2022 5:00:00 AM 15.73 60.314 0.147 7.13 4.24 9.04
6/8/2022 5:15:00 AM 15.69 60.242 0.147 7.12 6.69 9.04
6/8/2022 5:30:00 AM 15.61 60.098 0.147 7.07 4.7 8.88
6/8/2022 5:45:00 AM 15.65 60.17 0.147 7.14 7.21 9.09
6/8/2022 6:00:00 AM 15.56 60.008 0.146 7.01 8.74 8.87
6/8/2022 6:15:00 AM 15.6 60.08 0.147 7.15 4.49 9.15
6/8/2022 6:30:00 AM 15.58 60.044 0.147 7.18 3.9 9.17
6/8/2022 6:45:00 AM 15.51 59.918 0.146 7.14 3.91 9.09
6/8/2022 7:00:00 AM 15.49 59.882 0.146 7.16 3.87 9.14
6/8/2022 7:15:00 AM 15.49 59.882 0.147 7.2 4.48 9.21
6/8/2022 7:30:00 AM 15.42 59.756 0.146 7.15 6.36 9.18
6/8/2022 7:45:00 AM 15.42 59.756 0.147 7.18 3.93 9.27
6/8/2022 8:00:00 AM 15.4 59.72 0.146 7.17 3.89 9.27
6/8/2022 8:15:00 AM 15.38 59.684 0.146 7.2 3.66 9.24
6/8/2022 8:30:00 AM 15.39 59.702 0.146 7.2 4.03 9.3
6/8/2022 8:45:00 AM 15.44 59.792 0.146 7.23 4.38 9.38
6/8/2022 9:00:00 AM 15.49 59.882 0.146 7.21 3.72 9.37
6/8/2022 9:15:00 AM 15.51 59.918 0.146 7.21 3.66 9.32
6/8/2022 9:30:00 AM 15.63 60.134 0.146 7.25 5.89 9.43
6/8/2022 9:45:00 AM 15.68 60.224 0.146 7.18 3.92 9.35
6/8/2022 10:00:00 AM 15.83 60.494 0.146 7.26 4.07 9.42
6/8/2022 10:15:00 AM 16.01 60.818 0.146 7.28 3.83 9.44
6/8/2022 10:30:00 AM 16.18 61.124 0.146 7.28 3.9 9.43
6/8/2022 10:45:00 AM 16.39 61.502 0.146 7.34 3.6 9.41
6/8/2022 11:00:00 AM 16.6 61.88 0.146 7.34 3.97 9.42
6/8/2022 11:15:00 AM 16.66 61.988 0.146 7.31 3.7 9.36
6/8/2022 11:30:00 AM 16.88 62.384 0.146 7.32 3.79 9.37
6/8/2022 11:45:00 AM 17.09 62.762 0.146 7.39 3.19 9.44
6/8/2022 12:00:00 PM 17.24 63.032 0.146 7.38 3.64 9.44
6/8/2022 12:15:00 PM 17.39 63.302 0.146 7.41 4.12 9.41
6/8/2022 12:30:00 PM 17.5 63.5 0.146 7.39 3.85 9.41
6/8/2022 12:45:00 PM 17.65 63.77 0.146 7.45 3.8 9.42
6/8/2022 1:00:00 PM 17.81 64.058 0.146 7.44 3.57 9.43
6/8/2022 1:15:00 PM 17.85 64.13 0.146 7.41 3.93 9.32
6/8/2022 1:30:00 PM 18.11 64.598 0.146 7.45 5.36 9.34
6/8/2022 1:45:00 PM 18.23 64.814 0.145 7.44 4.3 9.29
6/8/2022 2:00:00 PM 18.42 65.156 0.146 7.41 4.99 9.25
6/8/2022 2:15:00 PM 18.53 65.354 0.145 7.41 3.71 9.16
6/8/2022 2:30:00 PM 18.75 65.75 0.146 7.48 3.77 9.21
6/8/2022 2:45:00 PM 18.79 65.82201 0.146 7.42 4.2 9.15
6/8/2022 3:00:00 PM 18.81 65.858 0.146 7.41 4.37 9.01
6/8/2022 3:15:00 PM 18.85 65.93 0.146 7.45 3.97 9.14
6/8/2022 3:30:00 PM 18.83 65.894 0.146 7.43 99.76 9.09
6/8/2022 3:45:00 PM 18.87 65.966 0.146 7.43 4.08 9.09
6/8/2022 4:00:00 PM 18.81 65.858 0.146 7.39 4.77 9.02
6/8/2022 4:15:00 PM 18.84 65.912 0.147 7.43 3.74 9.07
6/8/2022 4:30:00 PM 18.8 65.84 0.147 7.43 3.79 9.05
6/8/2022 4:45:00 PM 18.77 65.786 0.146 7.4 3.91 9
6/8/2022 5:00:00 PM 18.76 65.768 0.146 7.4 3.7 8.98
6/8/2022 5:15:00 PM 18.77 65.786 0.146 7.4 3.8 9.01
6/8/2022 5:30:00 PM 18.73 65.714 0.147 7.4 4.07 8.98
6/8/2022 5:45:00 PM 18.7 65.66 0.147 7.39 2.85 8.96
6/8/2022 6:00:00 PM 18.66 65.588 0.147 7.38 4.7 8.96
6/8/2022 6:15:00 PM 18.62 65.516 0.147 7.36 4.46 8.95
6/8/2022 6:30:00 PM 18.55 65.39 0.147 7.35 3.85 8.95
6/8/2022 6:45:00 PM 18.44 65.192 0.147 7.34 4.13 8.9
6/8/2022 7:00:00 PM 18.39 65.102 0.147 7.35 4.17 8.91
6/8/2022 7:15:00 PM 18.28 64.904 0.147 7.31 3.95 8.88
6/8/2022 7:30:00 PM 18.2 64.76 0.147 7.3 3.65 8.82
6/8/2022 7:45:00 PM 18.15 64.67 0.147 7.32 3.78 8.85
6/8/2022 8:00:00 PM 18.04 64.472 0.147 7.27 4 8.79
6/8/2022 8:15:00 PM 18.01 64.418 0.147 7.29 3.98 8.78
6/8/2022 8:30:00 PM 17.91 64.238 0.148 7.22 4.88 8.72
6/8/2022 8:45:00 PM 17.84 64.112 0.148 7.22 4.02 8.7
6/8/2022 9:00:00 PM 17.77 63.986 0.148 7.22 4.22 8.67
6/8/2022 9:15:00 PM 17.69 63.842 0.148 7.19 4.5 8.66
6/8/2022 9:30:00 PM 17.62 63.716 0.148 7.22 4.03 8.66
6/8/2022 9:45:00 PM 17.49 63.482 0.147 7.2 4.48 8.58
6/8/2022 10:00:00 PM 17.46 63.428 0.148 7.18 4.09 8.59
6/8/2022 10:15:00 PM 17.36 63.248 0.148 7.15 4.22 8.61
6/8/2022 10:30:00 PM 17.27 63.086 0.148 7.16 4.27 8.6
6/8/2022 10:45:00 PM 17.21 62.978 0.148 7.16 4.5 8.68
6/8/2022 11:00:00 PM 17.13 62.834 0.148 7.18 4.49 8.69
6/8/2022 11:15:00 PM 17.05 62.69 0.148 7.18 5.18 8.75
6/8/2022 11:30:00 PM 16.96 62.528 0.148 7.19 6.43 8.78
6/8/2022 11:45:00 PM 16.88 62.384 0.148 7.16 4.51 8.75
6/9/2022 12:00:00 AM 16.77 62.186 0.148 7.14 4.37 8.76
6/9/2022 12:15:00 AM 16.7 62.06 0.149 7.14 4.27 8.71
6/9/2022 12:30:00 AM 16.65 61.97 0.148 7.16 4.33 8.81
6/9/2022 12:45:00 AM 16.59 61.862 0.148 7.16 4.46 8.81
6/9/2022 1:00:00 AM 16.53 61.754 0.147 7.17 4.64 8.84
6/9/2022 1:15:00 AM 16.48 61.664 0.147 7.17 4.89 8.85
6/9/2022 1:30:00 AM 16.44 61.592 0.146 7.18 4.75 8.89
6/9/2022 1:45:00 AM 16.34 61.412 0.146 7.11 5.15 8.78
6/9/2022 2:00:00 AM 16.3 61.34 0.146 7.15 6.95 8.85
6/9/2022 2:15:00 AM 16.21 61.178 0.144 7.12 4.48 8.73
6/9/2022 2:30:00 AM 16.21 61.178 0.142 7.15 5.54 8.88
6/9/2022 2:45:00 AM 16.2 61.16 0.138 7.14 7.27 8.91
6/9/2022 3:00:00 AM 16.15 61.07 0.136 7.14 10.06 8.93
6/9/2022 3:15:00 AM 16.1 60.98 0.133 7.1 7.56 8.93
6/9/2022 3:30:00 AM 16.06 60.908 0.129 7.1 10.26 8.9
6/9/2022 3:45:00 AM 16.02 60.836 0.128 7.12 7.85 8.94
6/9/2022 4:00:00 AM 15.95 60.71 0.129 7.09 9.21 8.97
6/9/2022 4:15:00 AM 15.89 60.602 0.13 7.08 7.2 8.92
6/9/2022 4:30:00 AM 15.84 60.512 0.133 7.08 7.59 8.92
6/9/2022 4:45:00 AM 15.83 60.494 0.137 7.13 8.2 9.04
6/9/2022 5:00:00 AM 15.81 60.458 0.138 7.1 10.58 9.02
6/9/2022 5:15:00 AM 15.83 60.494 0.138 7.15 7.75 9.1
6/9/2022 5:30:00 AM 15.82 60.476 0.137 7.15 7.4 9.08
6/9/2022 5:45:00 AM 15.8 60.44 0.136 7.15 7.17 9.09
6/9/2022 6:00:00 AM 15.78 60.404 0.135 7.15 10 9.09
6/9/2022 6:15:00 AM 15.77 60.386 0.134 7.15 10.04 9.12
6/9/2022 6:30:00 AM 15.76 60.368 0.134 7.14 8.87 9.11
6/9/2022 6:45:00 AM 15.74 60.332 0.133 7.16 8.93 9.14
6/9/2022 7:00:00 AM 15.77 60.386 0.133 7.2 8.02 9.22
6/9/2022 7:15:00 AM 15.77 60.386 0.132 7.2 7.47 9.23
6/9/2022 7:30:00 AM 15.77 60.386 0.132 7.18 7.16 9.24
6/9/2022 7:45:00 AM 15.8 60.44 0.132 7.22 6.98 9.27
6/9/2022 8:00:00 AM 15.84 60.512 0.132 7.23 7.78 9.29
6/9/2022 8:15:00 AM 15.87 60.566 0.132 7.23 7.22 9.3
6/9/2022 8:30:00 AM 15.9 60.62 0.132 7.24 5.83 9.3
6/9/2022 8:45:00 AM 15.94 60.692 0.132 7.24 6.52 9.3
6/9/2022 9:00:00 AM 16 60.8 0.132 7.25 5.38 9.3
6/9/2022 9:15:00 AM 16.03 60.854 0.132 7.24 6.67 9.28
6/9/2022 9:30:00 AM 16.04 60.872 0.132 7.23 6.7 9.26
6/9/2022 9:45:00 AM 16.06 60.908 0.132 7.22 7.39 9.25
6/9/2022 10:00:00 AM 16.12 61.016 0.131 7.27 7.53 9.27
6/9/2022 10:15:00 AM 16.27 61.286 0.131 7.28 8.18 9.31
6/9/2022 10:30:00 AM 16.45 61.61 0.131 7.28 7.72 9.29
6/9/2022 10:45:00 AM 16.61 61.898 0.131 7.31 7.48 9.32
6/9/2022 11:00:00 AM 16.66 61.988 0.131 7.32 7.58 9.31
6/9/2022 11:15:00 AM 16.62 61.916 0.131 7.32 6.88 9.29
6/9/2022 11:30:00 AM 16.56 61.808 0.132 7.33 7.01 9.26
6/9/2022 11:45:00 AM 16.51 61.718 0.132 7.31 6.81 9.24
6/9/2022 12:00:00 PM 16.54 61.772 0.132 7.31 6.61 9.26
6/9/2022 12:15:00 PM 16.57 61.826 0.132 7.31 6.01 9.27
6/9/2022 12:30:00 PM 16.82 62.276 0.132 7.34 6.4 9.32
6/9/2022 12:45:00 PM 16.98 62.564 0.133 7.37 6.44 9.32
6/9/2022 1:00:00 PM 17.08 62.744 0.133 7.29 5.26 9.31
6/9/2022 1:15:00 PM 17.09 62.762 0.133 7.38 6.04 9.31
6/9/2022 1:30:00 PM 17.18 62.924 0.133 7.38 5.95 9.31
6/9/2022 1:45:00 PM 17.16 62.888 0.133 7.4 5.8 9.28
6/9/2022 2:00:00 PM 17.14 62.852 0.133 7.41 5.16 9.26
6/9/2022 2:15:00 PM 17.1 62.78 0.133 7.37 5.65 9.21
6/9/2022 2:30:00 PM 17.22 62.996 0.132 7.37 5.6 9.22
6/9/2022 2:45:00 PM 17.38 63.284 0.132 7.37 5.43 9.21
6/9/2022 3:00:00 PM 17.4 63.32 0.131 7.38 5.5 9.22
6/9/2022 3:15:00 PM 17.48 63.464 0.131 7.39 5.81 9.22
6/9/2022 3:30:00 PM 17.54 63.572 0.131 7.38 6.92 9.2
6/9/2022 3:45:00 PM 17.56 63.608 0.13 7.4 5.79 9.2
6/9/2022 4:00:00 PM 17.65 63.77 0.13 7.42 5.58 9.2
6/9/2022 4:15:00 PM 17.66 63.788 0.129 7.41 5.64 9.19
6/9/2022 4:30:00 PM 17.72 63.896 0.129 7.37 5.41 9.17
6/9/2022 4:45:00 PM 17.74 63.932 0.129 7.34 5.93 9.14
6/9/2022 5:00:00 PM 17.76 63.968 0.129 7.4 5.05 9.15
6/9/2022 5:15:00 PM 17.72 63.896 0.128 7.38 5.27 9.09
6/9/2022 5:30:00 PM 17.66 63.788 0.128 7.34 5.91 9.04
6/9/2022 5:45:00 PM 17.7 63.86 0.128 7.35 8.84 9.08
6/9/2022 6:00:00 PM 17.75 63.95 0.127 7.34 6.43 9.08
6/9/2022 6:15:00 PM 17.71 63.878 0.127 7.34 4.75 9.05
6/9/2022 6:30:00 PM 17.66 63.788 0.127 7.34 6.94 9.06
6/9/2022 6:45:00 PM 17.58 63.644 0.127 7.33 5.09 9.05
6/9/2022 7:00:00 PM 17.45 63.41 0.127 7.28 5.58 9.01
6/9/2022 7:15:00 PM 17.4 63.32 0.127 7.28 4.92 9.03
6/9/2022 7:30:00 PM 17.33 63.194 0.127 7.27 5.55 9.01
6/9/2022 7:45:00 PM 17.27 63.086 0.126 7.29 5.36 9.04
6/9/2022 8:00:00 PM 17.18 62.924 0.126 7.26 6 9.01
6/9/2022 8:15:00 PM 17.11 62.798 0.126 7.18 5.93 9.03
6/9/2022 8:30:00 PM 17.06 62.708 0.126 7.24 6.33 9.04
6/9/2022 8:45:00 PM 16.95 62.51 0.126 7.18 6.05 8.98
6/9/2022 9:00:00 PM 16.87 62.366 0.126 7.17 5.78 8.99
6/9/2022 9:15:00 PM 16.8 62.24 0.126 7.2 5.53 9.04
6/9/2022 9:30:00 PM 16.71 62.078 0.126 7.21 5.68 9.06
6/9/2022 9:45:00 PM 16.63 61.934 0.126 7.22 6.68 9.1
6/9/2022 10:00:00 PM 16.53 61.754 0.126 7.21 5.9 9.09
6/9/2022 10:15:00 PM 16.46 61.628 0.126 7.22 6.31 9.12
6/9/2022 10:30:00 PM 16.38 61.484 0.126 7.2 5.58 9.13
6/9/2022 10:45:00 PM 16.31 61.358 0.126 7.21 6.36 9.16
6/9/2022 11:00:00 PM 16.24 61.232 0.126 7.21 5.94 9.18
6/9/2022 11:15:00 PM 16.16 61.088 0.126 7.18 5.92 9.17
6/9/2022 11:30:00 PM 16.09 60.962 0.125 7.19 5.83 9.13
6/9/2022 11:45:00 PM 16.04 60.872 0.126 7.19 6.62 9.21
6/10/2022 12:00:00 AM 15.98 60.764 0.125 7.19 7 9.23
6/10/2022 12:15:00 AM 15.93 60.674 0.126 7.17 13.63 9.19
6/10/2022 12:30:00 AM 15.88 60.584 0.125 7.17 10.47 9.24
6/10/2022 12:45:00 AM 15.83 60.494 0.125 7.18 7.51 9.25
6/10/2022 1:00:00 AM 15.78 60.404 0.125 7.17 6.2 9.24
6/10/2022 1:15:00 AM 15.74 60.332 0.125 7.19 6.49 9.28
6/10/2022 1:30:00 AM 15.69 60.242 0.125 7.19 5.95 9.28
6/10/2022 1:45:00 AM 15.64 60.152 0.126 7.19 5.93 9.3
6/10/2022 2:00:00 AM 15.53 59.954 0.125 7.1 5.64 9.19
6/10/2022 2:15:00 AM 15.53 59.954 0.126 7.18 6.23 9.29
6/10/2022 2:30:00 AM 15.46 59.828 0.126 7.13 6.61 9.25
6/10/2022 2:45:00 AM 15.41 59.738 0.126 7.16 5.3 9.31
6/10/2022 3:00:00 AM 15.34 59.612 0.126 7.13 6.26 9.28
6/10/2022 3:15:00 AM 15.31 59.558 0.126 7.17 10.93 9.28
6/10/2022 3:30:00 AM 15.26 59.468 0.126 7.17 7.38 9.34
6/10/2022 3:45:00 AM 15.21 59.378 0.126 7.18 6.68 9.35
6/10/2022 4:00:00 AM 15.14 59.252 0.125 7.15 7.24 9.37
6/10/2022 4:15:00 AM 15.08 59.144 0.126 7.11 5.97 9.34
6/10/2022 4:30:00 AM 15.05 59.09 0.12 7.16 6.26 9.39
6/10/2022 4:45:00 AM 15 59 0.126 7.16 5.96 9.36
6/10/2022 5:00:00 AM 14.95 58.91 0.126 7.16 5.48 9.42
6/10/2022 5:15:00 AM 14.87 58.766 0.126 7.11 6.13 9.37
6/10/2022 5:30:00 AM 14.87 58.766 0.12 7.17 8.25 9.42
6/10/2022 5:45:00 AM 14.82 58.676 0.126 7.19 5.44 9.47
6/10/2022 6:00:00 AM 14.76 58.568 0.126 7.15 6.53 9.46
6/10/2022 6:15:00 AM 14.73 58.514 0.126 7.19 5.27 9.51
6/10/2022 6:30:00 AM 14.69 58.442 0.126 7.17 5.29 9.51
6/10/2022 6:45:00 AM 14.66 58.388 0.126 7.17 12.47 9.49
6/10/2022 7:00:00 AM 14.66 58.388 0.126 7.2 5.75 9.55
6/10/2022 7:15:00 AM 14.57 58.226 0.126 7.08 5.95 9.43
6/10/2022 7:30:00 AM 14.64 58.352 0.12 7.18 5.02 9.54
6/10/2022 7:45:00 AM 14.69 58.442 0.12 7.22 5.33 9.59
6/10/2022 8:00:00 AM 14.72 58.496 0.126 7.21 5.44 9.58
6/10/2022 8:15:00 AM 14.75 58.55 0.126 7.13 4.58 9.58
6/10/2022 8:30:00 AM 14.81 58.658 0.126 7.21 4.97 9.58
6/10/2022 8:45:00 AM 14.88 58.784 0.12 7.23 4.69 9.57
6/10/2022 9:00:00 AM 14.97 58.946 0.126 7.22 5.03 9.57
6/10/2022 9:15:00 AM 15.09 59.162 0.119 7.26 147.99 9.54
6/10/2022 9:30:00 AM 15.24 59.432 0.126 7.28 10.4 9.59
6/10/2022 9:45:00 AM 15.29 59.522 0.126 7.21 5.39 9.51
6/10/2022 10:00:00 AM 15.49 59.882 0.126 7.29 4.44 9.57
6/10/2022 10:15:00 AM 15.63 60.134 0.126 7.28 5.9 9.54
6/10/2022 10:30:00 AM 15.65 60.17 0.125 7.17 5.14 9.4
6/10/2022 10:45:00 AM 15.86 60.548 0.126 7.25 4.97 9.47
6/10/2022 11:00:00 AM 16.05